
Distance (Route):
Temperature : -1.0°C
Humidity : 27.7%
Pressure : 666.3hPa| Receiver | Frames | First received | Last received |
|---|---|---|---|
| OM5KV | 314 | 2026-09-02 23:24:39 | 2026-09-02 23:55:25 |
| PETON7-10 | 311 | 2026-09-02 23:40:41 | 2026-09-03 01:02:34 |
| ATIDSZ-14 | 116 | 2026-09-02 23:27:21 | 2026-09-03 00:12:26 |
| GYPAP8-17 | 75 | 2026-09-02 23:37:54 | 2026-09-03 01:09:29 |
| OE5DRO-10 | 47 | 2026-09-03 00:27:12 | 2026-09-03 00:56:37 |
| SP9KGR-15 | 13 | 2026-09-03 00:52:48 | 2026-09-03 00:56:33 |
| OE3JTB-15 | 10 | 2026-09-02 23:39:12 | 2026-09-03 01:05:14 |
| 9A1FER-10 | 1 | 2026-09-03 00:23:23 | 2026-09-03 00:23:23 |
| SQ9EZE-14 | 1 | 2026-09-03 00:58:22 | 2026-09-03 00:58:22 |
| Receiver | Date | Latitude | Longitude | Direction | Speed | Altitude | Climb | Temperature | Humidity | Pressure | Voltage | Killtimer | Uptime | BKT | XDATA |
|---|---|---|---|---|---|---|---|---|---|---|---|---|---|---|---|
| GYPAP8-17 | 2026-09-03 01:09:29 | 47.25112 | 20.03556 | 124° | 35km/h | 3583m | -15.3m/s | -1.0°C | 27.7% | 666.3hPa | 2.6V | 00:00:00 | 00:00:00 | 00:00:00 | |
| GYPAP8-17 | 2026-09-03 01:08:26 | 47.25431 | 20.02799 | 116° | 38km/h | 4609m | -16.2m/s | -8.6°C | 81.1% | 584.9hPa | 2.6V | 00:00:00 | 00:00:00 | 00:00:00 | |
| GYPAP8-17 | 2026-09-03 01:07:23 | 47.25653 | 20.01827 | 106° | 53km/h | 5650m | -17.0m/s | -15.8°C | 74.3% | 510.5hPa | 2.6V | 00:00:00 | 00:00:00 | 00:00:00 | |
| GYPAP8-17 | 2026-09-03 01:06:19 | 47.25920 | 20.00532 | 106° | 62km/h | 6764m | -18.2m/s | -22.3°C | 84.5% | 439.8hPa | 2.6V | 00:00:00 | 00:00:00 | 00:00:00 | |
| GYPAP8-17 | 2026-09-03 01:05:17 | 47.26322 | 19.99117 | 113° | 75km/h | 7875m | -18.7m/s | -31.2°C | 66.0% | 377.3hPa | 2.6V | 00:00:00 | 00:00:00 | 00:00:00 | |
| OE3JTB-15 | 2026-09-03 01:05:14 | 47.26364 | 19.98963 | 108° | 75km/h | 7989m | -17.9m/s | -32.1°C | 79.0% | 371.2hPa | 2.6V | 00:00:00 | 02:10:46 | 00:00:00 | |
| GYPAP8-17 | 2026-09-03 01:04:14 | 47.26730 | 19.97295 | 111° | 84km/h | 9117m | -21.6m/s | -41.2°C | 60.6% | 316.0hPa | 2.6V | 00:00:00 | 00:00:00 | 00:00:00 | |
| GYPAP8-17 | 2026-09-03 01:03:11 | 47.27219 | 19.95408 | 121° | 78km/h | 10720m | -28.5m/s | -53.4°C | 20.2% | 247.2hPa | 2.6V | 00:00:00 | 00:00:00 | 00:00:00 | |
| OE3JTB-15 | 2026-09-03 01:02:44 | 47.27451 | 19.94736 | 124° | 78km/h | 11567m | -29.1m/s | -53.8°C | 9.3% | 216.4hPa | 2.6V | 00:00:00 | 00:00:00 | 08:30:00 | |
| PETON7-10 | 2026-09-03 01:02:34 | 47.27530 | 19.94553 | 124° | 66km/h | 11761m | -26.2m/s | -53.7°C | 6.9% | 209.4hPa | 2.5V | 00:00:00 | 02:08:08 | 00:00:00 | |
| PETON7-10 | 2026-09-03 01:02:19 | 47.27646 | 19.94233 | 103° | 80km/h | 12227m | -30.1m/s | -51.8°C | 4.6% | 195.1hPa | 2.5V | 00:00:00 | 00:00:00 | 00:00:00 | |
| GYPAP8-17 | 2026-09-03 01:02:06 | 47.27702 | 19.93890 | 105° | 86km/h | 12593m | -35.0m/s | -49.5°C | 1.6% | 184.9hPa | 2.6V | 00:00:00 | 00:00:00 | 00:00:00 | |
| PETON7-10 | 2026-09-03 01:02:04 | 47.27718 | 19.93801 | 107° | 73km/h | 12689m | -31.1m/s | -48.9°C | 3.6% | 181.8hPa | 2.6V | 00:00:00 | 00:00:00 | 00:00:00 | |
| PETON7-10 | 2026-09-03 01:01:49 | 47.27809 | 19.93414 | 110° | 64km/h | 13198m | -35.5m/s | -50.2°C | 3.8% | 169.0hPa | 2.6V | 00:00:00 | 02:07:23 | 00:00:00 | |
| PETON7-10 | 2026-09-03 01:01:34 | 47.27888 | 19.93086 | 106° | 58km/h | 13667m | -35.8m/s | -51.7°C | 4.0% | 157.0hPa | 2.6V | 00:00:00 | 00:00:00 | 00:00:00 | |
| PETON7-10 | 2026-09-03 01:01:19 | 47.27945 | 19.92767 | 102° | 62km/h | 14150m | -34.9m/s | -51.7°C | 4.0% | 145.6hPa | 2.5V | 00:00:00 | 00:00:00 | 00:00:00 | |
| PETON7-10 | 2026-09-03 01:01:03 | 47.27997 | 19.92408 | 104° | 51km/h | 14632m | -40.2m/s | -51.6°C | 3.6% | 134.8hPa | 2.5V | 00:00:00 | 02:06:37 | 00:00:00 | |
| GYPAP8-17 | 2026-09-03 01:01:01 | 47.28001 | 19.92386 | 107° | 62km/h | 14669m | -39.9m/s | -51.7°C | 1.3% | 134.1hPa | 2.5V | 00:00:00 | 00:00:00 | 00:00:00 | |
| PETON7-10 | 2026-09-03 01:00:48 | 47.28044 | 19.92125 | 92° | 55km/h | 15250m | -41.4m/s | -52.9°C | 4.0% | 123.3hPa | 2.5V | 08:24:00 | 00:00:00 | 00:00:00 | |
| PETON7-10 | 2026-09-03 01:00:33 | 47.28073 | 19.91823 | 109° | 44km/h | 15867m | -39.6m/s | -53.0°C | 3.9% | 112.5hPa | 2.5V | 00:00:00 | 00:00:00 | 00:00:00 | |
| PETON7-10 | 2026-09-03 01:00:18 | 47.28126 | 19.91600 | 99° | 44km/h | 16424m | -38.6m/s | -53.8°C | 4.2% | 103.1hPa | 2.5V | 00:00:00 | 02:05:52 | 00:00:00 | |
| GYPAP8-17 | 2026-09-03 00:59:59 | 47.28155 | 19.91303 | 103° | 47km/h | 17129m | -43.6m/s | -53.2°C | 1.2% | 92.6hPa | 2.5V | 00:00:00 | 00:00:00 | 00:00:00 | |
| PETON7-10 | 2026-09-03 00:59:48 | 47.28189 | 19.91135 | 99° | 31km/h | 17623m | -44.7m/s | -52.9°C | 3.9% | 85.8hPa | 2.5V | 00:00:00 | 00:00:00 | 00:00:00 | |
| PETON7-10 | 2026-09-03 00:59:33 | 47.28158 | 19.90969 | 83° | 40km/h | 18232m | -30.7m/s | -53.7°C | 4.2% | 77.6hPa | 2.5V | 00:00:00 | 02:05:07 | 00:00:00 | |
| PETON7-10 | 2026-09-03 00:59:18 | 47.28181 | 19.90753 | 97° | 29km/h | 18651m | -35.4m/s | -52.8°C | 3.8% | 72.8hPa | 2.5V | 00:00:00 | 00:00:00 | 00:00:00 | |
| PETON7-10 | 2026-09-03 00:59:03 | 47.28176 | 19.90597 | 104° | 31km/h | 19244m | -38.1m/s | -54.7°C | 4.5% | 66.6hPa | 2.5V | 00:00:00 | 00:00:00 | 00:00:00 | |
| GYPAP8-17 | 2026-09-03 00:58:55 | 47.28195 | 19.90513 | 116° | 37km/h | 19502m | -39.6m/s | -54.1°C | 1.2% | 63.7hPa | 2.5V | 00:00:00 | 00:00:00 | 00:00:00 | |
| PETON7-10 | 2026-09-03 00:58:48 | 47.28231 | 19.90458 | 117° | 18km/h | 19754m | -45.4m/s | -53.6°C | 4.0% | 60.8hPa | 2.5V | 00:00:00 | 02:04:22 | 00:00:00 | |
| PETON7-10 | 2026-09-03 00:58:33 | 47.28265 | 19.90368 | 139° | 16km/h | 20412m | -47.2m/s | -54.4°C | 4.5% | 54.8hPa | 2.5V | 08:26:00 | 00:00:00 | 00:00:00 | |
| SQ9EZE-14 | 2026-09-03 00:58:22 | 47.28298 | 19.90327 | 152° | 16km/h | 20866m | -51.6m/s | 0°C | 0% | 0hPa | 2.6V | 00:00:00 | 00:00:00 | 00:00:00 | |
| PETON7-10 | 2026-09-03 00:58:18 | 47.28323 | 19.90318 | 185° | 5km/h | 21093m | -45.1m/s | -53.2°C | 4.3% | 49.3hPa | 2.6V | 00:00:00 | 00:00:00 | 00:00:00 | |
| PETON7-10 | 2026-09-03 00:58:03 | 47.28321 | 19.90319 | 71° | 11km/h | 21930m | -59.9m/s | -52.4°C | 4.0% | 44.0hPa | 2.6V | 00:00:00 | 02:03:37 | 00:00:00 | |
| GYPAP8-17 | 2026-09-03 00:57:51 | 47.28309 | 19.90286 | 74° | 20km/h | 22537m | -57.4m/s | -51.8°C | 1.0% | 39.9hPa | 2.6V | 00:00:00 | 00:00:00 | 00:00:00 | |
| PETON7-10 | 2026-09-03 00:57:48 | 47.28308 | 19.90256 | 103° | 9km/h | 22774m | -57.3m/s | -51.5°C | 3.8% | 38.5hPa | 2.6V | 00:00:00 | 00:00:00 | 00:00:00 | |
| PETON7-10 | 2026-09-03 00:57:33 | 47.28335 | 19.90210 | 145° | 7km/h | 23499m | -51.2m/s | -51.5°C | 4.0% | 34.4hPa | 2.5V | 00:00:00 | 00:00:00 | 00:00:00 | |
| PETON7-10 | 2026-09-03 00:57:18 | 47.28352 | 19.90237 | 299° | 7km/h | 24286m | -47.3m/s | -50.9°C | 3.9% | 30.4hPa | 2.5V | 00:00:00 | 02:02:52 | 00:00:00 | |
| PETON7-10 | 2026-09-03 00:57:03 | 47.28330 | 19.90235 | 51° | 9km/h | 25117m | -47.6m/s | -49.4°C | 3.4% | 26.7hPa | 2.5V | 00:00:00 | 00:00:00 | 00:00:00 | |
| PETON7-10 | 2026-09-03 00:56:47 | 47.28345 | 19.90186 | 142° | 5km/h | 25891m | -48.4m/s | -49.4°C | 3.7% | 23.8hPa | 2.5V | 00:00:00 | 00:00:00 | 00:00:00 | |
| OE5DRO-10 | 2026-09-03 00:56:37 | 47.28362 | 19.90175 | 243° | 5km/h | 26385m | -52.5m/s | -48.8°C | 3.6% | 22.0hPa | 2.5V | 00:00:00 | 00:00:00 | 00:00:00 | |
| SP9KGR-15 | 2026-09-03 00:56:33 | 47.28363 | 19.90176 | 9° | 2km/h | 26538m | -50.0m/s | -48.5°C | 0.9% | 21.5hPa | 2.5V | 00:00:00 | 00:00:00 | 00:00:00 | |
| PETON7-10 | 2026-09-03 00:56:32 | 47.28363 | 19.90175 | 76° | 7km/h | 26636m | -47.6m/s | -48.1°C | 3.5% | 21.1hPa | 2.5V | 00:00:00 | 02:02:06 | 00:00:00 | |
| OE5DRO-10 | 2026-09-03 00:56:18 | 47.28375 | 19.90148 | 160° | 5km/h | 27346m | -53.7m/s | -46.2°C | 3.2% | 19.1hPa | 2.5V | 00:00:00 | 00:00:00 | 00:00:00 | |
| PETON7-10 | 2026-09-03 00:56:17 | 47.28378 | 19.90147 | 143° | 5km/h | 27400m | -54.4m/s | -46.3°C | 3.3% | 19.0hPa | 2.5V | 08:28:00 | 00:00:00 | 00:00:00 | |
| PETON7-10 | 2026-09-03 00:56:02 | 47.28387 | 19.90121 | 73° | 7km/h | 28209m | -60.3m/s | -44.2°C | 2.9% | 16.8hPa | 2.5V | 00:00:00 | 00:00:00 | 00:00:00 | |
| OE5DRO-10 | 2026-09-03 00:55:59 | 47.28388 | 19.90114 | 120° | 9km/h | 28392m | -62.4m/s | -43.9°C | 2.8% | 16.3hPa | 2.5V | 00:00:00 | 00:00:00 | 00:00:00 | |
| PETON7-10 | 2026-09-03 00:55:47 | 47.28397 | 19.90083 | 79° | 11km/h | 29104m | -58.0m/s | -43.2°C | 2.8% | 14.7hPa | 2.6V | 00:00:00 | 02:01:21 | 00:00:00 | |
| SP9KGR-15 | 2026-09-03 00:55:45 | 47.28397 | 19.90082 | 47° | 7km/h | 29164m | -60.9m/s | -43.3°C | 0.7% | 14.5hPa | 2.6V | 00:00:00 | 00:00:00 | 00:00:00 | |
| GYPAP8-17 | 2026-09-03 00:55:42 | 47.28391 | 19.90076 | 16° | 11km/h | 29346m | -57.1m/s | -43.8°C | 0.7% | 14.1hPa | 2.6V | 00:00:00 | 00:00:00 | 00:00:00 | |
| OE5DRO-10 | 2026-09-03 00:55:39 | 47.28380 | 19.90066 | 41° | 15km/h | 29587m | -63.5m/s | -42.9°C | 2.8% | 13.6hPa | 2.6V | 00:00:00 | 00:00:00 | 00:00:00 | |
| PETON7-10 | 2026-09-03 00:55:32 | 47.28363 | 19.90049 | 22° | 18km/h | 30053m | -68.3m/s | -41.4°C | 2.5% | 12.8hPa | 2.6V | 00:00:00 | 00:00:00 | 00:00:00 | |
| SP9KGR-15 | 2026-09-03 00:55:28 | 47.28356 | 19.90045 | 22° | 15km/h | 30251m | -63.9m/s | -40.9°C | 0.6% | 12.4hPa | 2.5V | 00:00:00 | 00:00:00 | 00:00:00 | |
| OE5DRO-10 | 2026-09-03 00:55:20 | 47.28332 | 19.89995 | 80° | 16km/h | 30820m | -65.4m/s | -40.8°C | 2.4% | 11.4hPa | 2.5V | 00:00:00 | 00:00:00 | 00:00:00 | |
| SP9KGR-15 | 2026-09-03 00:55:12 | 47.28338 | 19.89947 | 104° | 15km/h | 31265m | -63.9m/s | -40.0°C | 0.5% | 10.7hPa | 2.5V | 00:00:00 | 00:00:00 | 00:00:00 | |
| PETON7-10 | 2026-09-03 00:55:02 | 47.28318 | 19.89906 | 61° | 18km/h | 31963m | -63.1m/s | -40.0°C | 2.2% | 9.5hPa | 2.5V | 00:00:00 | 02:00:36 | 00:00:00 | |
| OE5DRO-10 | 2026-09-03 00:55:01 | 47.28316 | 19.89902 | 57° | 18km/h | 32026m | -61.8m/s | -40.3°C | 2.3% | 9.4hPa | 2.5V | 00:00:00 | 00:00:00 | 08:30:00 | |
| SP9KGR-15 | 2026-09-03 00:54:56 | 47.28303 | 19.89881 | 48° | 26km/h | 32265m | -58.6m/s | -40.0°C | 0% | 9.1hPa | 2.5V | 00:00:00 | 00:00:00 | 00:00:00 | |
| PETON7-10 | 2026-09-03 00:54:47 | 47.28274 | 19.89840 | 117° | 15km/h | 32657m | -8.0m/s | -40.9°C | 2.4% | 8.4hPa | 2.5V | 00:00:00 | 00:00:00 | 00:00:00 | |
| SP9KGR-15 | 2026-09-03 00:54:41 | 47.28273 | 19.89812 | 68° | 27km/h | 32633m | 8.1m/s | -40.8°C | 0% | 0hPa | 2.6V | 00:00:00 | 00:00:00 | 00:00:00 | |
| GYPAP8-17 | 2026-09-03 00:54:38 | 47.28260 | 19.89785 | 54° | 16km/h | 32605m | 8.2m/s | -40.9°C | 0.6% | 8.5hPa | 2.6V | 00:00:00 | 00:00:00 | 00:00:00 | |
| PETON7-10 | 2026-09-03 00:54:32 | 47.28255 | 19.89793 | 283° | 13km/h | 32561m | 5.2m/s | -40.9°C | 2.4% | 8.5hPa | 2.6V | 00:00:00 | 00:00:00 | 00:00:00 | |
| SP9KGR-15 | 2026-09-03 00:54:25 | 47.28251 | 19.89775 | 64° | 20km/h | 32520m | 7.4m/s | -41.0°C | 0% | 0hPa | 2.6V | 00:00:00 | 00:00:00 | 00:00:00 | |
| OE5DRO-10 | 2026-09-03 00:54:19 | 47.28239 | 19.89769 | 203° | 13km/h | 32468m | 6.6m/s | -41.0°C | 2.4% | 8.7hPa | 2.6V | 00:00:00 | 00:00:00 | 00:00:00 | |
| PETON7-10 | 2026-09-03 00:54:16 | 47.28248 | 19.89775 | 203° | 13km/h | 32444m | 6.8m/s | -41.0°C | 2.4% | 8.7hPa | 2.6V | 00:00:00 | 01:59:50 | 00:00:00 | |
| SP9KGR-15 | 2026-09-03 00:54:09 | 47.28256 | 19.89758 | 37° | 11km/h | 32401m | 9.1m/s | 0°C | 0% | 0hPa | 2.6V | 00:00:00 | 00:00:00 | 00:00:00 | |
| PETON7-10 | 2026-09-03 00:54:01 | 47.28270 | 19.89747 | 138° | 18km/h | 32333m | 5.7m/s | -41.0°C | 2.4% | 8.8hPa | 2.6V | 00:00:00 | 00:00:00 | 08:30:00 | |
| OE5DRO-10 | 2026-09-03 00:54:00 | 47.28273 | 19.89741 | 125° | 24km/h | 32326m | 7.8m/s | -41.0°C | 2.4% | 8.8hPa | 2.6V | 00:00:00 | 00:00:00 | 00:00:00 | |
| SP9KGR-15 | 2026-09-03 00:53:53 | 47.28266 | 19.89697 | 12° | 20km/h | 32279m | 7.2m/s | 0°C | 0% | 0hPa | 2.6V | 00:00:00 | 00:00:00 | 00:00:00 | |
| PETON7-10 | 2026-09-03 00:53:46 | 47.28270 | 19.89674 | 120° | 27km/h | 32220m | 5.5m/s | -41.4°C | 2.4% | 9.0hPa | 2.6V | 00:00:00 | 00:00:00 | 00:00:00 | |
| OE5DRO-10 | 2026-09-03 00:53:41 | 47.28264 | 19.89625 | 53° | 27km/h | 32184m | 7.2m/s | -41.6°C | 2.5% | 9.0hPa | 2.6V | 00:00:00 | 00:00:00 | 00:00:00 | |
| SP9KGR-15 | 2026-09-03 00:53:38 | 47.28252 | 19.89610 | 28° | 27km/h | 32167m | 8.1m/s | 0°C | 0% | 0hPa | 2.6V | 00:00:00 | 00:00:00 | 00:00:00 | |
| PETON7-10 | 2026-09-03 00:53:31 | 47.28214 | 19.89562 | 52° | 31km/h | 32108m | 7.0m/s | -41.5°C | 2.4% | 9.1hPa | 2.6V | 00:00:00 | 01:59:05 | 00:00:00 | |
| SP9KGR-15 | 2026-09-03 00:53:23 | 47.28175 | 19.89499 | 11° | 26km/h | 32047m | 7.0m/s | 0°C | 0% | 0hPa | 2.6V | 00:00:00 | 00:00:00 | 00:00:00 | |
| OE5DRO-10 | 2026-09-03 00:53:22 | 47.28168 | 19.89497 | 8° | 27km/h | 32040m | 6.5m/s | -41.5°C | 2.5% | 9.2hPa | 2.6V | 00:00:00 | 00:00:00 | 00:00:00 | |
| GYPAP8-17 | 2026-09-03 00:53:17 | 47.28139 | 19.89479 | 32° | 35km/h | 32011m | 6.8m/s | -41.3°C | 0.6% | 9.3hPa | 2.6V | 00:00:00 | 00:00:00 | 00:00:00 | |
| PETON7-10 | 2026-09-03 00:53:16 | 47.28125 | 19.89468 | 28° | 26km/h | 31995m | 7.9m/s | -41.2°C | 2.4% | 9.3hPa | 2.6V | 00:00:00 | 00:00:00 | 00:00:00 | |
| SP9KGR-15 | 2026-09-03 00:53:05 | 47.28077 | 19.89430 | 359° | 31km/h | 31919m | 8.0m/s | 0°C | 0% | 0hPa | 2.6V | 00:00:00 | 00:00:00 | 00:00:00 | |
| OE5DRO-10 | 2026-09-03 00:53:03 | 47.28052 | 19.89426 | 13° | 22km/h | 31897m | 4.2m/s | -41.0°C | 2.4% | 9.4hPa | 2.6V | 00:00:00 | 00:00:00 | 00:00:00 | |
| PETON7-10 | 2026-09-03 00:53:01 | 47.28037 | 19.89422 | 9° | 18km/h | 31884m | 9.0m/s | -41.0°C | 2.4% | 9.4hPa | 2.6V | 00:00:00 | 00:00:00 | 00:00:00 | |
| SP9KGR-15 | 2026-09-03 00:52:48 | 47.27991 | 19.89401 | 1° | 27km/h | 31789m | 5.9m/s | 0°C | 0% | 0hPa | 2.6V | 00:00:00 | 00:00:00 | 00:00:00 | |
| PETON7-10 | 2026-09-03 00:52:45 | 47.27977 | 19.89406 | 242° | 7km/h | 31760m | 6.8m/s | -41.3°C | 2.5% | 9.6hPa | 2.6V | 00:00:00 | 01:58:19 | 00:00:00 | |
| OE5DRO-10 | 2026-09-03 00:52:44 | 47.27978 | 19.89407 | 180° | 7km/h | 31753m | 7.1m/s | -41.3°C | 2.5% | 9.6hPa | 2.6V | 00:00:00 | 00:00:00 | 00:00:00 | |
| PETON7-10 | 2026-09-03 00:52:30 | 47.27984 | 19.89377 | 143° | 9km/h | 31648m | 8.9m/s | -40.9°C | 2.4% | 9.8hPa | 2.6V | 00:00:00 | 00:00:00 | 00:00:00 | |
| OE5DRO-10 | 2026-09-03 00:52:25 | 47.27985 | 19.89358 | 67° | 11km/h | 31611m | 5.4m/s | -40.9°C | 2.4% | 9.9hPa | 2.7V | 00:00:00 | 00:00:00 | 00:00:00 | |
| PETON7-10 | 2026-09-03 00:52:15 | 47.28000 | 19.89338 | 143° | 15km/h | 31534m | 6.6m/s | -40.8°C | 2.4% | 10.0hPa | 2.7V | 00:00:00 | 00:00:00 | 00:00:00 | |
| GYPAP8-17 | 2026-09-03 00:52:14 | 47.28004 | 19.89332 | 136° | 24km/h | 31527m | 6.6m/s | -40.8°C | 0.6% | 10.0hPa | 2.7V | 00:00:00 | 00:00:00 | 00:00:00 | |
| OE5DRO-10 | 2026-09-03 00:52:06 | 47.28019 | 19.89307 | 168° | 24km/h | 31468m | 7.2m/s | -41.0°C | 2.4% | 10.1hPa | 2.7V | 00:00:00 | 00:00:00 | 08:30:00 | |
| PETON7-10 | 2026-09-03 00:52:00 | 47.28050 | 19.89277 | 155° | 26km/h | 31424m | 6.3m/s | -40.9°C | 2.4% | 10.1hPa | 2.6V | 00:00:00 | 01:57:34 | 00:00:00 | |
| OE5DRO-10 | 2026-09-03 00:51:47 | 47.28096 | 19.89184 | 119° | 24km/h | 31329m | 8.3m/s | -40.5°C | 2.3% | 10.3hPa | 2.6V | 00:00:00 | 00:00:00 | 00:00:00 | |
| PETON7-10 | 2026-09-03 00:51:45 | 47.28106 | 19.89165 | 136° | 22km/h | 31315m | 5.4m/s | -40.5°C | 2.3% | 10.3hPa | 2.6V | 00:00:00 | 00:00:00 | 08:30:00 | |
| PETON7-10 | 2026-09-03 00:51:30 | 47.28143 | 19.89056 | 92° | 29km/h | 31207m | 5.8m/s | -41.0°C | 2.4% | 10.4hPa | 2.7V | 00:00:00 | 00:00:00 | 00:00:00 | |
| OE5DRO-10 | 2026-09-03 00:51:28 | 47.28140 | 19.89016 | 91° | 27km/h | 31178m | 7.2m/s | -41.0°C | 2.4% | 10.5hPa | 2.7V | 00:00:00 | 00:00:00 | 00:00:00 | |
| PETON7-10 | 2026-09-03 00:51:15 | 47.28162 | 19.88903 | 84° | 26km/h | 31098m | 8.8m/s | -40.9°C | 2.4% | 10.6hPa | 2.7V | 00:00:00 | 01:56:49 | 00:00:00 | |
| OE5DRO-10 | 2026-09-03 00:51:09 | 47.28159 | 19.88845 | 96° | 26km/h | 31041m | 7.8m/s | -41.0°C | 2.4% | 10.7hPa | 2.7V | 00:00:00 | 00:00:00 | 00:00:00 | |
| PETON7-10 | 2026-09-03 00:50:59 | 47.28142 | 19.88754 | 58° | 26km/h | 30984m | 5.7m/s | -41.2°C | 2.4% | 10.8hPa | 2.6V | 00:00:00 | 00:00:00 | 00:00:00 | |
| OE5DRO-10 | 2026-09-03 00:50:50 | 47.28117 | 19.88661 | 55° | 26km/h | 30906m | 4.4m/s | -41.5°C | 2.5% | 11.0hPa | 2.6V | 00:00:00 | 00:00:00 | 00:00:00 | |
| PETON7-10 | 2026-09-03 00:50:44 | 47.28098 | 19.88630 | 57° | 26km/h | 30878m | 5.9m/s | -41.5°C | 2.5% | 11.0hPa | 2.6V | 00:00:00 | 00:00:00 | 00:00:00 | |
| PETON7-10 | 2026-09-03 00:50:29 | 47.28048 | 19.88519 | 49° | 31km/h | 30770m | 8.4m/s | -41.8°C | 2.5% | 11.2hPa | 2.6V | 00:00:00 | 01:56:03 | 00:00:00 | |
| OE5DRO-10 | 2026-09-03 00:50:22 | 47.28007 | 19.88452 | 38° | 27km/h | 30708m | 5.8m/s | -41.9°C | 2.5% | 11.3hPa | 2.6V | 00:00:00 | 00:00:00 | 00:00:00 | |
| PETON7-10 | 2026-09-03 00:50:14 | 47.27958 | 19.88414 | 34° | 24km/h | 30667m | 7.5m/s | -41.9°C | 2.5% | 11.4hPa | 2.6V | 00:00:00 | 00:00:00 | 00:00:00 | |
| GYPAP8-17 | 2026-09-03 00:50:03 | 47.27911 | 19.88386 | 16° | 26km/h | 30597m | 8.3m/s | -41.9°C | 0.6% | 11.5hPa | 2.6V | 00:00:00 | 00:00:00 | 00:00:00 | |
| OE5DRO-10 | 2026-09-03 00:50:02 | 47.27880 | 19.88380 | 2° | 15km/h | 30562m | 6.9m/s | -42.1°C | 2.6% | 11.5hPa | 2.6V | 00:00:00 | 00:00:00 | 00:00:00 | |
| PETON7-10 | 2026-09-03 00:50:00 | 47.27880 | 19.88380 | 2° | 11km/h | 30562m | 6.9m/s | -42.1°C | 2.6% | 11.5hPa | 2.6V | 00:00:00 | 00:00:00 | 00:00:00 | |
| PETON7-10 | 2026-09-03 00:49:44 | 47.27836 | 19.88390 | 343° | 18km/h | 30457m | 6.5m/s | -41.8°C | 2.5% | 11.7hPa | 2.6V | 00:00:00 | 01:55:18 | 00:00:00 | |
| OE5DRO-10 | 2026-09-03 00:49:41 | 47.27817 | 19.88392 | 14° | 20km/h | 30420m | 6.7m/s | -41.9°C | 2.5% | 11.8hPa | 2.6V | 00:00:00 | 00:00:00 | 00:00:00 | |
| PETON7-10 | 2026-09-03 00:49:29 | 47.27775 | 19.88360 | 42° | 16km/h | 30353m | 8.2m/s | -41.9°C | 2.5% | 11.9hPa | 2.6V | 00:00:00 | 00:00:00 | 08:30:00 | |
| OE5DRO-10 | 2026-09-03 00:49:20 | 47.27727 | 19.88357 | 2° | 11km/h | 30270m | 6.9m/s | -41.8°C | 2.4% | 12.0hPa | 2.6V | 00:00:00 | 00:00:00 | 00:00:00 | |
| PETON7-10 | 2026-09-03 00:49:14 | 47.27723 | 19.88347 | 70° | 15km/h | 30248m | 7.2m/s | -41.9°C | 2.4% | 12.1hPa | 2.6V | 00:00:00 | 00:00:00 | 00:00:00 | |
| GYPAP8-17 | 2026-09-03 00:49:02 | 47.27703 | 19.88373 | 276° | 11km/h | 30165m | 6.3m/s | -42.7°C | 0.7% | 12.3hPa | 2.6V | 00:00:00 | 00:00:00 | 00:00:00 | |
| PETON7-10 | 2026-09-03 00:48:59 | 47.27702 | 19.88375 | 55° | 13km/h | 30143m | 6.6m/s | -42.6°C | 2.5% | 12.3hPa | 2.6V | 00:00:00 | 01:54:33 | 00:00:00 | |
| OE5DRO-10 | 2026-09-03 00:48:56 | 47.27701 | 19.88379 | 279° | 15km/h | 30109m | 6.0m/s | -42.7°C | 2.5% | 12.4hPa | 2.6V | 00:00:00 | 00:00:00 | 08:30:00 | |
| PETON7-10 | 2026-09-03 00:48:44 | 47.27682 | 19.88419 | 81° | 11km/h | 30042m | 6.1m/s | -43.6°C | 2.6% | 12.5hPa | 2.6V | 00:00:00 | 00:00:00 | 00:00:00 | |
| OE5DRO-10 | 2026-09-03 00:48:37 | 47.27676 | 19.88399 | 351° | 16km/h | 29978m | 8.0m/s | -44.2°C | 2.8% | 12.6hPa | 2.6V | 00:00:00 | 00:00:00 | 00:00:00 | |
| PETON7-10 | 2026-09-03 00:48:29 | 47.27663 | 19.88383 | 65° | 15km/h | 29937m | 5.9m/s | -44.1°C | 2.8% | 12.7hPa | 2.6V | 00:00:00 | 00:00:00 | 00:00:00 | |
| OE5DRO-10 | 2026-09-03 00:48:05 | 47.27596 | 19.88327 | 5° | 27km/h | 29754m | 8.2m/s | -44.0°C | 2.7% | 13.0hPa | 2.6V | 00:00:00 | 00:00:00 | 00:00:00 | |
| PETON7-10 | 2026-09-03 00:47:59 | 47.27574 | 19.88309 | 52° | 22km/h | 29725m | 7.8m/s | -44.0°C | 2.7% | 13.1hPa | 2.6V | 00:00:00 | 00:00:00 | 00:00:00 | |
| GYPAP8-17 | 2026-09-03 00:47:49 | 47.27540 | 19.88282 | 328° | 16km/h | 29663m | 5.2m/s | -44.3°C | 0.7% | 13.3hPa | 2.6V | 00:00:00 | 00:00:00 | 00:00:00 | |
| PETON7-10 | 2026-09-03 00:47:44 | 47.27505 | 19.88272 | 34° | 24km/h | 29619m | 6.0m/s | -44.4°C | 2.8% | 13.3hPa | 2.6V | 00:00:00 | 00:00:00 | 00:00:00 | |
| OE5DRO-10 | 2026-09-03 00:47:41 | 47.27473 | 19.88251 | 2° | 16km/h | 29587m | 7.5m/s | -44.5°C | 2.8% | 13.4hPa | 2.6V | 00:00:00 | 00:00:00 | 00:00:00 | |
| PETON7-10 | 2026-09-03 00:47:29 | 47.27428 | 19.88271 | 21° | 13km/h | 29519m | 6.7m/s | -44.7°C | 2.9% | 13.5hPa | 2.6V | 00:00:00 | 01:53:03 | 00:00:00 | |
| OE5DRO-10 | 2026-09-03 00:47:22 | 47.27406 | 19.88279 | 302° | 9km/h | 29460m | 7.7m/s | -44.7°C | 2.8% | 13.6hPa | 2.6V | 00:00:00 | 00:00:00 | 00:00:00 | |
| PETON7-10 | 2026-09-03 00:47:14 | 47.27401 | 19.88305 | 252° | 7km/h | 29418m | 5.7m/s | -44.7°C | 2.8% | 13.7hPa | 2.6V | 00:00:00 | 00:00:00 | 08:30:00 | |
| PETON7-10 | 2026-09-03 00:46:59 | 47.27413 | 19.88333 | 303° | 9km/h | 29317m | 8.0m/s | -44.8°C | 2.9% | 13.9hPa | 2.6V | 00:00:00 | 00:00:00 | 00:00:00 | |
| OE5DRO-10 | 2026-09-03 00:46:52 | 47.27423 | 19.88343 | 185° | 11km/h | 29253m | 6.8m/s | -44.7°C | 2.9% | 14.0hPa | 2.6V | 00:00:00 | 00:00:00 | 00:00:00 | |
| PETON7-10 | 2026-09-03 00:46:44 | 47.27434 | 19.88340 | 206° | 9km/h | 29218m | 5.8m/s | -44.6°C | 2.8% | 14.1hPa | 2.6V | 00:00:00 | 01:52:18 | 00:00:00 | |
| OE5DRO-10 | 2026-09-03 00:46:32 | 47.27460 | 19.88333 | 141° | 5km/h | 29128m | 5.3m/s | 0°C | 0% | 0hPa | 2.6V | 00:00:00 | 00:00:00 | 00:00:00 | |
| GYPAP8-17 | 2026-09-03 00:46:30 | 47.27460 | 19.88333 | 142° | 4km/h | 29128m | 5.3m/s | -44.5°C | 0.8% | 14.4hPa | 2.6V | 00:00:00 | 00:00:00 | 00:00:00 | |
| PETON7-10 | 2026-09-03 00:46:29 | 47.27462 | 19.88331 | 133° | 4km/h | 29115m | 8.3m/s | -44.4°C | 2.8% | 14.4hPa | 2.6V | 00:00:00 | 00:00:00 | 00:00:00 | |
| PETON7-10 | 2026-09-03 00:46:14 | 47.27467 | 19.88327 | 61° | 9km/h | 29015m | 7.7m/s | -44.3°C | 2.8% | 14.6hPa | 2.6V | 00:00:00 | 00:00:00 | 00:00:00 | |
| OE5DRO-10 | 2026-09-03 00:46:13 | 47.27460 | 19.88316 | 37° | 11km/h | 28995m | 8.1m/s | 0°C | 0% | 0hPa | 2.6V | 00:00:00 | 00:00:00 | 00:00:00 | |
| PETON7-10 | 2026-09-03 00:45:59 | 47.27466 | 19.88289 | 51° | 11km/h | 28914m | 6.5m/s | -44.8°C | 2.8% | 14.8hPa | 2.6V | 00:00:00 | 01:51:33 | 00:00:00 | |
| OE5DRO-10 | 2026-09-03 00:45:57 | 47.27479 | 19.88276 | 153° | 15km/h | 28859m | 7.4m/s | 0°C | 0% | 0hPa | 2.6V | 00:00:00 | 00:00:00 | 00:00:00 | |
| PETON7-10 | 2026-09-03 00:45:44 | 47.27478 | 19.88246 | 27° | 13km/h | 28811m | 5.3m/s | -44.9°C | 2.8% | 15.0hPa | 2.6V | 00:00:00 | 00:00:00 | 00:00:00 | |
| PETON7-10 | 2026-09-03 00:45:29 | 47.27485 | 19.88203 | 340° | 9km/h | 28715m | 5.5m/s | -45.4°C | 2.9% | 15.2hPa | 2.7V | 00:00:00 | 00:00:00 | 00:00:00 | |
| GYPAP8-17 | 2026-09-03 00:45:25 | 47.27487 | 19.88204 | 160° | 9km/h | 28695m | 6.2m/s | -45.6°C | 0.8% | 15.3hPa | 2.7V | 00:00:00 | 00:00:00 | 00:00:00 | |
| OE5DRO-10 | 2026-09-03 00:45:21 | 47.27490 | 19.88180 | 87° | 7km/h | 28648m | 5.1m/s | 0°C | 0% | 0hPa | 2.7V | 00:00:00 | 00:00:00 | 08:30:00 | |
| PETON7-10 | 2026-09-03 00:45:14 | 47.27481 | 19.88170 | 9° | 7km/h | 28614m | 7.6m/s | -45.5°C | 2.9% | 15.5hPa | 2.7V | 00:00:00 | 01:50:48 | 00:00:00 | |
| PETON7-10 | 2026-09-03 00:44:59 | 47.27467 | 19.88152 | 357° | 7km/h | 28511m | 6.3m/s | -46.0°C | 3.0% | 15.7hPa | 2.7V | 00:00:00 | 00:00:00 | 08:30:00 | |
| PETON7-10 | 2026-09-03 00:44:44 | 47.27467 | 19.88129 | 250° | 5km/h | 28409m | 9.2m/s | -46.1°C | 3.0% | 16.0hPa | 2.6V | 00:00:00 | 00:00:00 | 00:00:00 | |
| OE5DRO-10 | 2026-09-03 00:44:36 | 47.27473 | 19.88139 | 178° | 4km/h | 28331m | 5.8m/s | 0°C | 0% | 0hPa | 2.6V | 00:00:00 | 00:00:00 | 00:00:00 | |
| PETON7-10 | 2026-09-03 00:44:29 | 47.27471 | 19.88143 | 311° | 4km/h | 28303m | 5.9m/s | -46.2°C | 3.0% | 16.2hPa | 2.6V | 00:00:00 | 01:50:03 | 00:00:00 | |
| PETON7-10 | 2026-09-03 00:44:14 | 47.27478 | 19.88127 | 87° | 5km/h | 28197m | 6.4m/s | -46.3°C | 3.0% | 16.5hPa | 2.6V | 00:00:00 | 00:00:00 | 00:00:00 | |
| GYPAP8-17 | 2026-09-03 00:44:10 | 47.27477 | 19.88124 | 2° | 2km/h | 28175m | 6.3m/s | -46.4°C | 0.8% | 16.6hPa | 2.6V | 00:00:00 | 00:00:00 | 00:00:00 | |
| OE5DRO-10 | 2026-09-03 00:44:05 | 47.27482 | 19.88115 | 103° | 9km/h | 28121m | 6.9m/s | 0°C | 0% | 0hPa | 2.6V | 00:00:00 | 00:00:00 | 00:00:00 | |
| PETON7-10 | 2026-09-03 00:43:59 | 47.27480 | 19.88098 | 49° | 11km/h | 28093m | 8.0m/s | -46.4°C | 3.1% | 16.7hPa | 2.6V | 00:00:00 | 00:00:00 | 00:00:00 | |
| PETON7-10 | 2026-09-03 00:43:44 | 47.27475 | 19.88102 | 353° | 11km/h | 27989m | 6.3m/s | -46.4°C | 3.1% | 17.0hPa | 2.6V | 00:00:00 | 01:49:18 | 00:00:00 | |
| PETON7-10 | 2026-09-03 00:43:29 | 47.27487 | 19.88116 | 359° | 11km/h | 27885m | 7.1m/s | -46.6°C | 3.0% | 17.3hPa | 2.6V | 00:00:00 | 00:00:00 | 00:00:00 | |
| OE5DRO-10 | 2026-09-03 00:43:25 | 47.27483 | 19.88120 | 250° | 13km/h | 27850m | 5.2m/s | 0°C | 0% | 0hPa | 2.6V | 00:00:00 | 00:00:00 | 00:00:00 | |
| PETON7-10 | 2026-09-03 00:43:14 | 47.27518 | 19.88105 | 119° | 11km/h | 27781m | 7.7m/s | -46.9°C | 3.1% | 17.6hPa | 2.6V | 00:00:00 | 00:00:00 | 00:00:00 | |
| OE5DRO-10 | 2026-09-03 00:43:07 | 47.27528 | 19.88088 | 174° | 15km/h | 27713m | 7.3m/s | 0°C | 0% | 0hPa | 2.6V | 00:00:00 | 00:00:00 | 00:00:00 | |
| PETON7-10 | 2026-09-03 00:42:59 | 47.27544 | 19.88075 | 120° | 15km/h | 27679m | 6.3m/s | -47.1°C | 3.1% | 17.8hPa | 2.6V | 00:00:00 | 01:48:33 | 00:00:00 | |
| GYPAP8-17 | 2026-09-03 00:42:55 | 47.27549 | 19.88063 | 128° | 11km/h | 27658m | 5.3m/s | -47.3°C | 0.8% | 18.0hPa | 2.6V | 00:00:00 | 00:00:00 | 00:00:00 | |
| OE5DRO-10 | 2026-09-03 00:42:47 | 47.27583 | 19.88030 | 137° | 11km/h | 27583m | 8.4m/s | 0°C | 0% | 0hPa | 2.6V | 00:00:00 | 00:00:00 | 00:00:00 | |
| PETON7-10 | 2026-09-03 00:42:44 | 47.27585 | 19.88028 | 128° | 11km/h | 27575m | 6.0m/s | -47.8°C | 3.3% | 18.1hPa | 2.6V | 00:00:00 | 00:00:00 | 08:30:00 | |
| PETON7-10 | 2026-09-03 00:42:29 | 47.27600 | 19.87981 | 137° | 7km/h | 27474m | 7.7m/s | -47.5°C | 3.2% | 18.4hPa | 2.7V | 00:00:00 | 00:00:00 | 00:00:00 | |
| OE5DRO-10 | 2026-09-03 00:42:27 | 47.27606 | 19.87965 | 132° | 11km/h | 27447m | 7.4m/s | 0°C | 0% | 0hPa | 2.7V | 00:00:00 | 00:00:00 | 00:00:00 | |
| PETON7-10 | 2026-09-03 00:42:14 | 47.27620 | 19.87967 | 158° | 7km/h | 27373m | 5.5m/s | -47.3°C | 3.1% | 18.7hPa | 2.7V | 00:00:00 | 01:47:48 | 00:00:00 | |
| PETON7-10 | 2026-09-03 00:41:59 | 47.27647 | 19.87978 | 198° | 11km/h | 27272m | 6.0m/s | -47.8°C | 3.2% | 19.0hPa | 2.7V | 00:00:00 | 00:00:00 | 00:00:00 | |
| PETON7-10 | 2026-09-03 00:41:44 | 47.27686 | 19.87962 | 156° | 16km/h | 27172m | 7.5m/s | -48.2°C | 3.3% | 19.3hPa | 2.7V | 00:00:00 | 00:00:00 | 00:00:00 | |
| GYPAP8-17 | 2026-09-03 00:41:42 | 47.27690 | 19.87957 | 140° | 22km/h | 27165m | 6.5m/s | -48.3°C | 0.9% | 19.3hPa | 2.7V | 00:00:00 | 00:00:00 | 00:00:00 | |
| PETON7-10 | 2026-09-03 00:41:29 | 47.27710 | 19.87887 | 130° | 20km/h | 27074m | 6.1m/s | -48.1°C | 3.2% | 19.6hPa | 2.7V | 00:00:00 | 01:47:03 | 00:00:00 | |
| PETON7-10 | 2026-09-03 00:41:13 | 47.27721 | 19.87773 | 98° | 9km/h | 26967m | 7.4m/s | -48.3°C | 3.3% | 19.9hPa | 2.7V | 00:00:00 | 00:00:00 | 00:00:00 | |
| PETON7-10 | 2026-09-03 00:40:58 | 47.27726 | 19.87726 | 8° | 9km/h | 26869m | 7.6m/s | -48.6°C | 3.3% | 20.2hPa | 2.7V | 00:00:00 | 00:00:00 | 00:00:00 | |
| PETON7-10 | 2026-09-03 00:40:42 | 47.27699 | 19.87727 | 349° | 9km/h | 26767m | 5.3m/s | -48.9°C | 3.4% | 20.5hPa | 2.7V | 00:00:00 | 01:46:16 | 00:00:00 | |
| PETON7-10 | 2026-09-03 00:40:27 | 47.27704 | 19.87712 | 299° | 13km/h | 26671m | 7.4m/s | -49.2°C | 3.4% | 20.8hPa | 2.7V | 00:00:00 | 00:00:00 | 08:30:00 | |
| GYPAP8-17 | 2026-09-03 00:40:19 | 47.27692 | 19.87705 | 160° | 7km/h | 26626m | 6.8m/s | -49.5°C | 0.9% | 21.0hPa | 2.6V | 00:00:00 | 00:00:00 | 00:00:00 | |
| PETON7-10 | 2026-09-03 00:40:12 | 47.27717 | 19.87716 | 245° | 13km/h | 26574m | 7.6m/s | -49.6°C | 3.4% | 21.1hPa | 2.6V | 00:00:00 | 00:00:00 | 00:00:00 | |
| PETON7-10 | 2026-09-03 00:39:57 | 47.27746 | 19.87730 | 165° | 13km/h | 26477m | 6.4m/s | -49.7°C | 3.5% | 21.5hPa | 2.6V | 00:00:00 | 01:45:31 | 00:00:00 | |
| PETON7-10 | 2026-09-03 00:39:42 | 47.27773 | 19.87706 | 114° | 15km/h | 26382m | 5.6m/s | -50.0°C | 3.6% | 21.8hPa | 2.6V | 00:00:00 | 00:00:00 | 00:00:00 | |
| OE5DRO-10 | 2026-09-03 00:39:32 | 47.27793 | 19.87662 | 134° | 11km/h | 26305m | 6.9m/s | 0°C | 0% | 0hPa | 2.6V | 00:00:00 | 00:00:00 | 08:30:00 | |
| PETON7-10 | 2026-09-03 00:39:27 | 47.27798 | 19.87643 | 89° | 9km/h | 26287m | 6.8m/s | -50.1°C | 3.6% | 22.1hPa | 2.6V | 00:00:00 | 00:00:00 | 00:00:00 | |
| GYPAP8-17 | 2026-09-03 00:39:23 | 47.27793 | 19.87628 | 52° | 13km/h | 26261m | 7.6m/s | -50.1°C | 1.0% | 22.2hPa | 2.6V | 00:00:00 | 00:00:00 | 00:00:00 | |
| PETON7-10 | 2026-09-03 00:39:12 | 47.27801 | 19.87612 | 6° | 15km/h | 26188m | 6.1m/s | -50.0°C | 3.5% | 22.4hPa | 2.6V | 00:00:00 | 01:44:46 | 00:00:00 | |
| PETON7-10 | 2026-09-03 00:38:57 | 47.27806 | 19.87591 | 69° | 15km/h | 26089m | 4.8m/s | -50.1°C | 3.5% | 22.8hPa | 2.6V | 00:00:00 | 00:00:00 | 00:00:00 | |
| PETON7-10 | 2026-09-03 00:38:42 | 47.27816 | 19.87570 | 131° | 15km/h | 25993m | 5.3m/s | -50.3°C | 3.5% | 23.1hPa | 2.6V | 00:00:00 | 00:00:00 | 00:00:00 | |
| OE5DRO-10 | 2026-09-03 00:38:30 | 47.27817 | 19.87506 | 121° | 9km/h | 25895m | 5.8m/s | 0°C | 0% | 0hPa | 2.6V | 00:00:00 | 00:00:00 | 00:00:00 | |
| PETON7-10 | 2026-09-03 00:38:27 | 47.27817 | 19.87506 | 121° | 11km/h | 25895m | 5.8m/s | -50.5°C | 3.6% | 23.5hPa | 2.6V | 00:00:00 | 01:44:01 | 00:00:00 | |
| PETON7-10 | 2026-09-03 00:38:12 | 47.27823 | 19.87463 | 188° | 5km/h | 25795m | 6.6m/s | -50.6°C | 3.7% | 23.8hPa | 2.6V | 00:00:00 | 00:00:00 | 08:30:00 | |
| PETON7-10 | 2026-09-03 00:37:57 | 47.27832 | 19.87454 | 156° | 11km/h | 25698m | 7.7m/s | -50.5°C | 3.7% | 24.2hPa | 2.6V | 00:00:00 | 00:00:00 | 00:00:00 | |
| PETON7-10 | 2026-09-03 00:37:42 | 47.27826 | 19.87406 | 79° | 13km/h | 25601m | 6.2m/s | -50.6°C | 3.7% | 24.5hPa | 2.6V | 00:00:00 | 01:43:16 | 00:00:00 | |
| PETON7-10 | 2026-09-03 00:37:27 | 47.27826 | 19.87349 | 112° | 5km/h | 25506m | 7.4m/s | -50.5°C | 3.7% | 24.9hPa | 2.6V | 00:00:00 | 00:00:00 | 00:00:00 | |
| GYPAP8-17 | 2026-09-03 00:37:22 | 47.27821 | 19.87338 | 76° | 9km/h | 25479m | 7.4m/s | -50.5°C | 1.0% | 25.0hPa | 2.7V | 00:00:00 | 00:00:00 | 00:00:00 | |
| PETON7-10 | 2026-09-03 00:37:12 | 47.27818 | 19.87321 | 31° | 11km/h | 25410m | 6.0m/s | -50.2°C | 3.6% | 25.3hPa | 2.7V | 00:00:00 | 00:00:00 | 00:00:00 | |
| OE5DRO-10 | 2026-09-03 00:37:03 | 47.27796 | 19.87291 | 15° | 13km/h | 25334m | 4.7m/s | 0°C | 0% | 0hPa | 2.7V | 00:00:00 | 00:00:00 | 00:00:00 | |
| PETON7-10 | 2026-09-03 00:36:57 | 47.27788 | 19.87284 | 38° | 7km/h | 25315m | 5.0m/s | -50.0°C | 3.6% | 25.7hPa | 2.7V | 00:00:00 | 01:42:31 | 00:00:00 | |
| PETON7-10 | 2026-09-03 00:36:42 | 47.27782 | 19.87294 | 329° | 7km/h | 25222m | 7.6m/s | -50.0°C | 3.5% | 26.0hPa | 2.7V | 00:00:00 | 00:00:00 | 00:00:00 | |
| PETON7-10 | 2026-09-03 00:36:27 | 47.27767 | 19.87326 | 302° | 9km/h | 25128m | 7.6m/s | -49.9°C | 3.5% | 26.4hPa | 2.7V | 00:00:00 | 00:00:00 | 00:00:00 | |
| GYPAP8-17 | 2026-09-03 00:36:14 | 47.27750 | 19.87317 | 357° | 7km/h | 25051m | 7.5m/s | -50.0°C | 0.9% | 26.8hPa | 2.7V | 00:00:00 | 00:00:00 | 00:00:00 | |
| PETON7-10 | 2026-09-03 00:36:11 | 47.27740 | 19.87318 | 359° | 9km/h | 25025m | 5.1m/s | -50.0°C | 3.5% | 26.8hPa | 2.7V | 00:00:00 | 01:41:45 | 00:00:00 | |
| PETON7-10 | 2026-09-03 00:35:56 | 47.27712 | 19.87315 | 10° | 9km/h | 24931m | 4.9m/s | -50.7°C | 3.7% | 27.2hPa | 2.7V | 00:00:00 | 00:00:00 | 08:30:00 | |
| PETON7-10 | 2026-09-03 00:35:40 | 47.27707 | 19.87291 | 28° | 15km/h | 24834m | 6.6m/s | -50.7°C | 3.7% | 27.6hPa | 2.7V | 00:00:00 | 00:00:00 | 00:00:00 | |
| PETON7-10 | 2026-09-03 00:35:24 | 47.27662 | 19.87264 | 359° | 16km/h | 24732m | 7.1m/s | -51.0°C | 3.6% | 28.0hPa | 2.7V | 00:00:00 | 01:40:58 | 00:00:00 | |
| GYPAP8-17 | 2026-09-03 00:35:11 | 47.27620 | 19.87253 | 344° | 9km/h | 24657m | 7.4m/s | -51.1°C | 1.0% | 28.4hPa | 2.7V | 00:00:00 | 00:00:00 | 00:00:00 | |
| PETON7-10 | 2026-09-03 00:35:09 | 47.27610 | 19.87253 | 19° | 11km/h | 24637m | 6.5m/s | -51.0°C | 3.7% | 28.5hPa | 2.7V | 00:00:00 | 00:00:00 | 00:00:00 | |
| PETON7-10 | 2026-09-03 00:34:54 | 47.27588 | 19.87272 | 339° | 11km/h | 24544m | 6.8m/s | -50.7°C | 3.7% | 28.9hPa | 2.6V | 00:00:00 | 00:00:00 | 00:00:00 | |
| PETON7-10 | 2026-09-03 00:34:39 | 47.27581 | 19.87327 | 286° | 13km/h | 24454m | 4.2m/s | -50.9°C | 3.7% | 29.3hPa | 2.6V | 00:00:00 | 01:40:13 | 00:00:00 | |
| PETON7-10 | 2026-09-03 00:34:23 | 47.27601 | 19.87386 | 247° | 9km/h | 24356m | 7.6m/s | -51.1°C | 3.7% | 29.7hPa | 2.6V | 00:00:00 | 00:00:00 | 00:00:00 | |
| GYPAP8-17 | 2026-09-03 00:34:12 | 47.27603 | 19.87417 | 260° | 4km/h | 24293m | 5.4m/s | -51.6°C | 1.0% | 30.1hPa | 2.5V | 00:00:00 | 00:00:00 | 00:00:00 | |
| PETON7-10 | 2026-09-03 00:34:09 | 47.27602 | 19.87438 | 260° | 15km/h | 24264m | 6.9m/s | -51.5°C | 3.7% | 30.2hPa | 2.5V | 00:00:00 | 00:00:00 | 00:00:00 | |
| PETON7-10 | 2026-09-03 00:33:53 | 47.27641 | 19.87492 | 223° | 16km/h | 24171m | 4.0m/s | -51.8°C | 3.8% | 30.6hPa | 2.5V | 00:00:00 | 01:39:27 | 00:00:00 | |
| PETON7-10 | 2026-09-03 00:33:38 | 47.27701 | 19.87488 | 161° | 20km/h | 24082m | 6.2m/s | -51.7°C | 3.8% | 31.0hPa | 2.5V | 00:00:00 | 00:00:00 | 08:30:00 | |
| PETON7-10 | 2026-09-03 00:33:23 | 47.27771 | 19.87431 | 139° | 18km/h | 23988m | 4.3m/s | -51.9°C | 3.9% | 31.5hPa | 2.7V | 00:00:00 | 00:00:00 | 00:00:00 | |
| GYPAP8-17 | 2026-09-03 00:33:09 | 47.27809 | 19.87374 | 141° | 20km/h | 23909m | 7.0m/s | -52.2°C | 1.0% | 31.9hPa | 2.7V | 00:00:00 | 00:00:00 | 00:00:00 | |
| PETON7-10 | 2026-09-03 00:33:08 | 47.27818 | 19.87364 | 150° | 13km/h | 23897m | 5.7m/s | -52.3°C | 3.9% | 31.9hPa | 2.7V | 00:00:00 | 01:38:42 | 00:00:00 | |
| PETON7-10 | 2026-09-03 00:32:53 | 47.27830 | 19.87327 | 167° | 13km/h | 23805m | 7.3m/s | -52.5°C | 4.0% | 32.4hPa | 2.7V | 00:00:00 | 00:00:00 | 00:00:00 | |
| PETON7-10 | 2026-09-03 00:32:38 | 47.27870 | 19.87314 | 153° | 16km/h | 23716m | 5.1m/s | -52.3°C | 4.0% | 32.8hPa | 2.5V | 00:00:00 | 00:00:00 | 00:00:00 | |
| PETON7-10 | 2026-09-03 00:32:23 | 47.27920 | 19.87255 | 155° | 22km/h | 23627m | 6.6m/s | -52.3°C | 3.9% | 33.3hPa | 2.5V | 00:00:00 | 01:37:57 | 00:00:00 | |
| PETON7-10 | 2026-09-03 00:32:08 | 47.27973 | 19.87171 | 134° | 13km/h | 23536m | 3.5m/s | -52.8°C | 4.0% | 33.8hPa | 2.5V | 00:00:00 | 00:00:00 | 00:00:00 | |
| GYPAP8-17 | 2026-09-03 00:32:01 | 47.27985 | 19.87148 | 110° | 9km/h | 23502m | 4.9m/s | -52.9°C | 1.1% | 34.0hPa | 2.5V | 00:00:00 | 00:00:00 | 00:00:00 | |
| PETON7-10 | 2026-09-03 00:31:53 | 47.28001 | 19.87112 | 124° | 7km/h | 23451m | 6.7m/s | -52.7°C | 3.9% | 34.2hPa | 2.5V | 00:00:00 | 00:00:00 | 00:00:00 | |
| PETON7-10 | 2026-09-03 00:31:38 | 47.28022 | 19.87093 | 190° | 13km/h | 23362m | 7.0m/s | -53.0°C | 4.1% | 34.7hPa | 2.5V | 00:00:00 | 01:37:12 | 00:00:00 | |
| PETON7-10 | 2026-09-03 00:31:22 | 47.28064 | 19.87116 | 202° | 18km/h | 23263m | 7.4m/s | -53.2°C | 4.1% | 35.2hPa | 2.5V | 00:00:00 | 00:00:00 | 08:30:00 | |
| PETON7-10 | 2026-09-03 00:31:08 | 47.28121 | 19.87074 | 158° | 24km/h | 23171m | 6.4m/s | -53.0°C | 4.1% | 35.7hPa | 2.5V | 00:00:00 | 00:00:00 | 00:00:00 | |
| GYPAP8-17 | 2026-09-03 00:30:59 | 47.28144 | 19.87032 | 111° | 31km/h | 23128m | 4.5m/s | -52.9°C | 1.1% | 36.0hPa | 2.5V | 00:00:00 | 00:00:00 | 00:00:00 | |
| PETON7-10 | 2026-09-03 00:30:51 | 47.28179 | 19.86960 | 135° | 33km/h | 23071m | 4.7m/s | -52.9°C | 4.0% | 36.3hPa | 2.5V | 00:00:00 | 01:36:25 | 00:00:00 | |
| PETON7-10 | 2026-09-03 00:30:36 | 47.28221 | 19.86788 | 98° | 33km/h | 22978m | 6.9m/s | -53.0°C | 3.9% | 36.8hPa | 2.5V | 00:00:00 | 00:00:00 | 00:00:00 | |
| PETON7-10 | 2026-09-03 00:30:21 | 47.28213 | 19.86607 | 69° | 31km/h | 22887m | 6.9m/s | -53.4°C | 4.1% | 37.3hPa | 2.7V | 00:00:00 | 00:00:00 | 00:00:00 | |
| PETON7-10 | 2026-09-03 00:30:06 | 47.28186 | 19.86445 | 61° | 27km/h | 22799m | 5.7m/s | -53.4°C | 4.1% | 37.9hPa | 2.7V | 00:00:00 | 01:35:40 | 00:00:00 | |
| GYPAP8-17 | 2026-09-03 00:29:56 | 47.28160 | 19.86359 | 65° | 29km/h | 22747m | 5.5m/s | -53.6°C | 1.1% | 38.2hPa | 2.7V | 00:00:00 | 00:00:00 | 00:00:00 | |
| PETON7-10 | 2026-09-03 00:29:51 | 47.28132 | 19.86317 | 31° | 20km/h | 22711m | 6.0m/s | -53.7°C | 4.0% | 38.4hPa | 2.7V | 00:00:00 | 00:00:00 | 00:00:00 | |
| PETON7-10 | 2026-09-03 00:29:36 | 47.28070 | 19.86267 | 345° | 11km/h | 22621m | 6.7m/s | -54.2°C | 4.2% | 38.9hPa | 2.5V | 00:00:00 | 00:00:00 | 00:00:00 | |
| PETON7-10 | 2026-09-03 00:29:21 | 47.28030 | 19.86260 | 330° | 15km/h | 22534m | 4.2m/s | -54.7°C | 4.5% | 39.5hPa | 2.5V | 00:00:00 | 01:34:55 | 00:00:00 | |
| OE5DRO-10 | 2026-09-03 00:29:18 | 47.28015 | 19.86276 | 344° | 11km/h | 22506m | 6.1m/s | 0°C | 0% | 0hPa | 2.5V | 00:00:00 | 00:00:00 | 00:00:00 | |
| PETON7-10 | 2026-09-03 00:29:06 | 47.27995 | 19.86307 | 287° | 11km/h | 22449m | 5.0m/s | -54.3°C | 4.3% | 40.0hPa | 2.5V | 00:00:00 | 00:00:00 | 08:30:00 | |
| GYPAP8-17 | 2026-09-03 00:28:54 | 47.27992 | 19.86354 | 271° | 11km/h | 22385m | 6.2m/s | -54.0°C | 1.1% | 40.4hPa | 2.5V | 00:00:00 | 00:00:00 | 00:00:00 | |
| PETON7-10 | 2026-09-03 00:28:51 | 47.27991 | 19.86372 | 267° | 9km/h | 22361m | 4.6m/s | -53.9°C | 4.1% | 40.5hPa | 2.5V | 00:00:00 | 00:00:00 | 00:00:00 | |
| OE5DRO-10 | 2026-09-03 00:28:41 | 47.27999 | 19.86412 | 244° | 7km/h | 22289m | 6.4m/s | 0°C | 0% | 0hPa | 2.5V | 00:00:00 | 00:00:00 | 00:00:00 | |
| PETON7-10 | 2026-09-03 00:28:36 | 47.28004 | 19.86416 | 192° | 13km/h | 22277m | 5.9m/s | -54.2°C | 4.3% | 41.1hPa | 2.5V | 00:00:00 | 01:34:10 | 00:00:00 | |
| PETON7-10 | 2026-09-03 00:28:21 | 47.28052 | 19.86408 | 190° | 9km/h | 22187m | 6.6m/s | -54.0°C | 4.2% | 41.7hPa | 2.5V | 00:00:00 | 00:00:00 | 00:00:00 | |
| OE5DRO-10 | 2026-09-03 00:28:20 | 47.28060 | 19.86410 | 179° | 7km/h | 22170m | 6.6m/s | 0°C | 0% | 0hPa | 2.5V | 00:00:00 | 00:00:00 | 00:00:00 | |
| PETON7-10 | 2026-09-03 00:28:06 | 47.28085 | 19.86395 | 133° | 5km/h | 22100m | 4.5m/s | -54.3°C | 4.3% | 42.2hPa | 2.5V | 00:00:00 | 00:00:00 | 00:00:00 | |
| OE5DRO-10 | 2026-09-03 00:28:02 | 47.28086 | 19.86389 | 76° | 5km/h | 22070m | 5.2m/s | 0°C | 0% | 0hPa | 2.5V | 00:00:00 | 00:00:00 | 00:00:00 | |
| GYPAP8-17 | 2026-09-03 00:27:57 | 47.28084 | 19.86384 | 32° | 5km/h | 22052m | 4.9m/s | -54.2°C | 1.2% | 42.6hPa | 2.5V | 00:00:00 | 00:00:00 | 00:00:00 | |
| PETON7-10 | 2026-09-03 00:27:51 | 47.28077 | 19.86384 | 339° | 4km/h | 22010m | 5.8m/s | -54.0°C | 4.2% | 42.8hPa | 2.5V | 00:00:00 | 01:33:25 | 00:00:00 | |
| PETON7-10 | 2026-09-03 00:27:36 | 47.28072 | 19.86399 | 246° | 9km/h | 21925m | 4.2m/s | -53.9°C | 4.2% | 43.4hPa | 2.5V | 00:00:00 | 00:00:00 | 00:00:00 | |
| OE5DRO-10 | 2026-09-03 00:27:31 | 47.28082 | 19.86417 | 216° | 5km/h | 21887m | 4.1m/s | 0°C | 0% | 0hPa | 2.7V | 00:00:00 | 00:00:00 | 00:00:00 | |
| PETON7-10 | 2026-09-03 00:27:21 | 47.28099 | 19.86429 | 139° | 4km/h | 21841m | 5.1m/s | -53.8°C | 4.1% | 44.0hPa | 2.7V | 00:00:00 | 00:00:00 | 00:00:00 | |
| OE5DRO-10 | 2026-09-03 00:27:12 | 47.28106 | 19.86433 | 51° | 5km/h | 21779m | 6.8m/s | 0°C | 0% | 0hPa | 2.7V | 00:00:00 | 00:00:00 | 00:00:00 | |
| PETON7-10 | 2026-09-03 00:27:06 | 47.28103 | 19.86425 | 60° | 5km/h | 21757m | 4.6m/s | -53.9°C | 4.1% | 44.6hPa | 2.7V | 00:00:00 | 01:32:40 | 00:00:00 | |
| PETON7-10 | 2026-09-03 00:26:51 | 47.28086 | 19.86424 | 4° | 15km/h | 21674m | 4.2m/s | -54.2°C | 4.3% | 45.1hPa | 2.7V | 00:00:00 | 00:00:00 | 08:30:00 | |
| PETON7-10 | 2026-09-03 00:26:36 | 47.28039 | 19.86469 | 278° | 13km/h | 21590m | 5.2m/s | -54.1°C | 4.3% | 45.7hPa | 2.5V | 00:00:00 | 00:00:00 | 00:00:00 | |
| GYPAP8-17 | 2026-09-03 00:26:22 | 47.28027 | 19.86533 | 267° | 15km/h | 21505m | 6.9m/s | -53.7°C | 1.2% | 46.4hPa | 2.5V | 00:00:00 | 00:00:00 | 00:00:00 | |
| PETON7-10 | 2026-09-03 00:26:21 | 47.28028 | 19.86538 | 258° | 11km/h | 21499m | 6.2m/s | -53.6°C | 4.2% | 46.4hPa | 2.5V | 00:00:00 | 01:31:55 | 00:00:00 | |
| PETON7-10 | 2026-09-03 00:26:06 | 47.28056 | 19.86586 | 205° | 16km/h | 21410m | 5.1m/s | -53.2°C | 4.1% | 47.0hPa | 2.5V | 00:00:00 | 00:00:00 | 00:00:00 | |
| PETON7-10 | 2026-09-03 00:25:51 | 47.28103 | 19.86631 | 183° | 26km/h | 21324m | 6.8m/s | -53.7°C | 4.1% | 47.7hPa | 2.5V | 00:00:00 | 00:00:00 | 00:00:00 | |
| PETON7-10 | 2026-09-03 00:25:36 | 47.28202 | 19.86626 | 166° | 27km/h | 21235m | 4.6m/s | -53.3°C | 4.1% | 48.3hPa | 2.5V | 00:00:00 | 01:31:10 | 00:00:00 | |
| PETON7-10 | 2026-09-03 00:25:21 | 47.28292 | 19.86569 | 126° | 24km/h | 21147m | 5.1m/s | -53.7°C | 4.2% | 49.0hPa | 2.5V | 00:00:00 | 00:00:00 | 00:00:00 | |
| GYPAP8-17 | 2026-09-03 00:25:19 | 47.28295 | 19.86562 | 128° | 24km/h | 21141m | 6.9m/s | -53.7°C | 1.2% | 49.1hPa | 2.5V | 00:00:00 | 00:00:00 | 00:00:00 | |
| PETON7-10 | 2026-09-03 00:25:06 | 47.28349 | 19.86469 | 106° | 20km/h | 21062m | 5.6m/s | -53.7°C | 4.1% | 49.7hPa | 2.5V | 00:00:00 | 00:00:00 | 00:00:00 | |
| PETON7-10 | 2026-09-03 00:24:51 | 47.28388 | 19.86371 | 124° | 24km/h | 20975m | 5.0m/s | -53.7°C | 4.0% | 50.3hPa | 2.5V | 00:00:00 | 01:30:25 | 00:00:00 | |
| PETON7-10 | 2026-09-03 00:24:36 | 47.28447 | 19.86277 | 118° | 15km/h | 20889m | 6.7m/s | -54.8°C | 4.2% | 51.0hPa | 2.5V | 00:00:00 | 00:00:00 | 08:30:00 | |
| PETON7-10 | 2026-09-03 00:24:20 | 47.28470 | 19.86196 | 108° | 13km/h | 20795m | 6.0m/s | -55.2°C | 4.5% | 51.8hPa | 2.5V | 00:00:00 | 00:00:00 | 00:00:00 | |
| GYPAP8-17 | 2026-09-03 00:24:05 | 47.28490 | 19.86131 | 124° | 20km/h | 20708m | 5.6m/s | -54.8°C | 1.2% | 52.5hPa | 2.5V | 00:00:00 | 00:00:00 | 00:00:00 | |
| PETON7-10 | 2026-09-03 00:23:50 | 47.28544 | 19.86060 | 145° | 22km/h | 20622m | 5.7m/s | -54.9°C | 4.4% | 53.2hPa | 2.5V | 00:00:00 | 00:00:00 | 00:00:00 | |
| PETON7-10 | 2026-09-03 00:23:35 | 47.28601 | 19.85978 | 136° | 22km/h | 20537m | 5.6m/s | -54.8°C | 4.3% | 53.9hPa | 2.5V | 00:00:00 | 00:00:00 | 00:00:00 | |
| 9A1FER-10 | 2026-09-03 00:23:23 | 47.28651 | 19.85909 | 163° | 20km/h | 20468m | 4.9m/s | 0°C | 0% | 0hPa | 2.5V | 00:00:00 | 01:28:57 | 00:00:00 | |
| PETON7-10 | 2026-09-03 00:23:20 | 47.28664 | 19.85899 | 138° | 16km/h | 20452m | 5.1m/s | -54.8°C | 4.3% | 54.6hPa | 2.5V | 00:00:00 | 01:28:54 | 00:00:00 | |
| PETON7-10 | 2026-09-03 00:23:05 | 47.28714 | 19.85848 | 134° | 16km/h | 20368m | 4.4m/s | -54.9°C | 4.5% | 55.4hPa | 2.5V | 00:00:00 | 00:00:00 | 00:00:00 | |
| GYPAP8-17 | 2026-09-03 00:23:02 | 47.28721 | 19.85831 | 121° | 20km/h | 20351m | 5.2m/s | -54.9°C | 1.2% | 55.5hPa | 2.6V | 00:00:00 | 00:00:00 | 00:00:00 | |
| PETON7-10 | 2026-09-03 00:22:50 | 47.28744 | 19.85765 | 111° | 24km/h | 20286m | 5.1m/s | -54.7°C | 4.5% | 56.1hPa | 2.6V | 00:00:00 | 00:00:00 | 00:00:00 | |
| PETON7-10 | 2026-09-03 00:22:35 | 47.28762 | 19.85640 | 88° | 27km/h | 20204m | 5.0m/s | -54.9°C | 4.4% | 56.8hPa | 2.6V | 00:00:00 | 01:28:09 | 00:00:00 | |
| PETON7-10 | 2026-09-03 00:22:20 | 47.28770 | 19.85495 | 88° | 20km/h | 20123m | 6.2m/s | -54.3°C | 4.3% | 57.5hPa | 2.6V | 00:00:00 | 00:00:00 | 08:30:00 | |
| GYPAP8-17 | 2026-09-03 00:22:08 | 47.28793 | 19.85414 | 110° | 13km/h | 20061m | 4.2m/s | -54.3°C | 1.3% | 58.1hPa | 2.5V | 00:00:00 | 00:00:00 | 00:00:00 | |
| PETON7-10 | 2026-09-03 00:22:05 | 47.28797 | 19.85394 | 115° | 15km/h | 20040m | 5.2m/s | -54.2°C | 4.2% | 58.3hPa | 2.5V | 00:00:00 | 00:00:00 | 00:00:00 | |
| PETON7-10 | 2026-09-03 00:21:50 | 47.28819 | 19.85319 | 90° | 11km/h | 19956m | 6.0m/s | -54.4°C | 4.3% | 59.0hPa | 2.5V | 00:00:00 | 01:27:24 | 00:00:00 | |
| PETON7-10 | 2026-09-03 00:21:35 | 47.28830 | 19.85256 | 118° | 22km/h | 19868m | 6.8m/s | -54.5°C | 4.2% | 59.8hPa | 2.5V | 00:00:00 | 00:00:00 | 00:00:00 | |
| PETON7-10 | 2026-09-03 00:21:04 | 47.28973 | 19.84999 | 129° | 42km/h | 19685m | 5.1m/s | -54.3°C | 4.2% | 61.5hPa | 2.7V | 00:00:00 | 01:26:38 | 00:00:00 | |
| GYPAP8-17 | 2026-09-03 00:20:59 | 47.28995 | 19.84949 | 114° | 40km/h | 19662m | 7.4m/s | -54.3°C | 1.2% | 61.8hPa | 2.7V | 00:00:00 | 00:00:00 | 00:00:00 | |
| PETON7-10 | 2026-09-03 00:20:49 | 47.29038 | 19.84789 | 117° | 44km/h | 19598m | 5.2m/s | -54.2°C | 4.2% | 62.4hPa | 2.7V | 00:00:00 | 00:00:00 | 00:00:00 | |
| PETON7-10 | 2026-09-03 00:20:34 | 47.29071 | 19.84555 | 105° | 35km/h | 19512m | 5.3m/s | -54.4°C | 4.2% | 63.2hPa | 2.6V | 00:00:00 | 00:00:00 | 00:00:00 | |
| PETON7-10 | 2026-09-03 00:20:20 | 47.29070 | 19.84362 | 78° | 29km/h | 19428m | 5.8m/s | -54.7°C | 4.3% | 64.1hPa | 2.6V | 00:00:00 | 01:25:53 | 00:00:00 | |
| PETON7-10 | 2026-09-03 00:20:04 | 47.29054 | 19.84203 | 92° | 29km/h | 19343m | 5.3m/s | -54.9°C | 4.2% | 64.9hPa | 2.6V | 00:00:00 | 00:00:00 | 08:30:00 | |
| GYPAP8-17 | 2026-09-03 00:19:55 | 47.29061 | 19.84122 | 107° | 31km/h | 19299m | 4.5m/s | -55.1°C | 1.2% | 65.4hPa | 2.6V | 00:00:00 | 00:00:00 | 00:00:00 | |
| PETON7-10 | 2026-09-03 00:19:49 | 47.29064 | 19.84046 | 92° | 35km/h | 19260m | 4.4m/s | -55.4°C | 4.5% | 65.8hPa | 2.6V | 00:00:00 | 00:00:00 | 00:00:00 | |
| PETON7-10 | 2026-09-03 00:19:34 | 47.29074 | 19.83857 | 72° | 33km/h | 19178m | 4.5m/s | -55.6°C | 4.6% | 66.6hPa | 2.6V | 00:00:00 | 01:25:08 | 00:00:00 | |
| PETON7-10 | 2026-09-03 00:19:19 | 47.29051 | 19.83683 | 81° | 29km/h | 19100m | 4.9m/s | -55.2°C | 4.5% | 67.5hPa | 2.6V | 00:00:00 | 00:00:00 | 00:00:00 | |
| PETON7-10 | 2026-09-03 00:19:04 | 47.29016 | 19.83531 | 78° | 22km/h | 19020m | 3.5m/s | -54.7°C | 4.4% | 68.3hPa | 2.6V | 00:00:00 | 00:00:00 | 00:00:00 | |
| GYPAP8-17 | 2026-09-03 00:18:55 | 47.29006 | 19.83464 | 81° | 22km/h | 18978m | 5.9m/s | -54.4°C | 1.2% | 68.8hPa | 2.6V | 00:00:00 | 00:00:00 | 00:00:00 | |
| PETON7-10 | 2026-09-03 00:18:49 | 47.28998 | 19.83411 | 69° | 20km/h | 18940m | 5.8m/s | -54.1°C | 4.3% | 69.2hPa | 2.6V | 00:00:00 | 01:24:23 | 00:00:00 | |
| PETON7-10 | 2026-09-03 00:18:34 | 47.28999 | 19.83296 | 103° | 18km/h | 18862m | 4.9m/s | -53.4°C | 4.1% | 70.0hPa | 2.6V | 00:00:00 | 00:00:00 | 00:00:00 | |
| PETON7-10 | 2026-09-03 00:18:19 | 47.29016 | 19.83195 | 104° | 22km/h | 18785m | 6.1m/s | -53.1°C | 4.0% | 70.9hPa | 2.6V | 00:00:00 | 00:00:00 | 00:00:00 | |
| PETON7-10 | 2026-09-03 00:18:04 | 47.29033 | 19.83077 | 100° | 24km/h | 18707m | 5.9m/s | -53.1°C | 4.0% | 71.7hPa | 2.6V | 00:00:00 | 01:23:38 | 00:00:00 | |
| GYPAP8-17 | 2026-09-03 00:17:50 | 47.29031 | 19.82963 | 92° | 26km/h | 18639m | 6.5m/s | -53.2°C | 1.2% | 72.5hPa | 2.6V | 00:00:00 | 00:00:00 | 00:00:00 | |
| PETON7-10 | 2026-09-03 00:17:49 | 47.29032 | 19.82945 | 104° | 35km/h | 18628m | 4.5m/s | -53.2°C | 3.9% | 72.6hPa | 2.6V | 00:00:00 | 00:00:00 | 08:30:00 | |
| PETON7-10 | 2026-09-03 00:17:33 | 47.29083 | 19.82758 | 120° | 44km/h | 18542m | 3.9m/s | -54.1°C | 4.2% | 73.6hPa | 2.6V | 00:00:00 | 00:00:00 | 00:00:00 | |
| PETON7-10 | 2026-09-03 00:17:18 | 47.29132 | 19.82529 | 103° | 44km/h | 18463m | 5.1m/s | -54.0°C | 4.2% | 74.5hPa | 2.6V | 00:00:00 | 01:22:52 | 00:00:00 | |
| PETON7-10 | 2026-09-03 00:17:03 | 47.29146 | 19.82289 | 91° | 38km/h | 18383m | 6.2m/s | -53.9°C | 4.2% | 75.4hPa | 2.6V | 00:00:00 | 00:00:00 | 00:00:00 | |
| PETON7-10 | 2026-09-03 00:16:48 | 47.29124 | 19.82075 | 90° | 38km/h | 18305m | 5.3m/s | -53.9°C | 4.2% | 76.4hPa | 2.6V | 00:00:00 | 00:00:00 | 00:00:00 | |
| PETON7-10 | 2026-09-03 00:16:33 | 47.29079 | 19.81875 | 74° | 40km/h | 18223m | 5.2m/s | -53.8°C | 4.1% | 77.3hPa | 2.6V | 00:00:00 | 01:22:07 | 00:00:00 | |
| PETON7-10 | 2026-09-03 00:16:18 | 47.29003 | 19.81684 | 57° | 31km/h | 18139m | 6.5m/s | -53.7°C | 4.1% | 78.3hPa | 2.6V | 00:00:00 | 00:00:00 | 00:00:00 | |
| PETON7-10 | 2026-09-03 00:16:03 | 47.28940 | 19.81536 | 50° | 26km/h | 18057m | 5.3m/s | -53.7°C | 4.2% | 79.3hPa | 2.7V | 00:00:00 | 00:00:00 | 00:00:00 | |
| PETON7-10 | 2026-09-03 00:15:48 | 47.28875 | 19.81441 | 27° | 22km/h | 17974m | 4.4m/s | -53.1°C | 4.1% | 80.4hPa | 2.7V | 00:00:00 | 01:21:22 | 00:00:00 | |
| GYPAP8-17 | 2026-09-03 00:15:39 | 47.28846 | 19.81392 | 60° | 29km/h | 17930m | 4.7m/s | -53.0°C | 1.2% | 81.0hPa | 2.7V | 00:00:00 | 00:00:00 | 00:00:00 | |
| PETON7-10 | 2026-09-03 00:15:33 | 47.28825 | 19.81353 | 41° | 18km/h | 17891m | 5.5m/s | -52.9°C | 3.9% | 81.4hPa | 2.7V | 00:00:00 | 00:00:00 | 08:30:00 | |
| PETON7-10 | 2026-09-03 00:15:18 | 47.28810 | 19.81252 | 84° | 26km/h | 17808m | 5.8m/s | -52.5°C | 3.9% | 82.5hPa | 2.7V | 00:00:00 | 00:00:00 | 00:00:00 | |
| PETON7-10 | 2026-09-03 00:15:02 | 47.28803 | 19.81104 | 98° | 35km/h | 17720m | 5.4m/s | -53.2°C | 4.0% | 83.6hPa | 2.7V | 00:00:00 | 01:20:36 | 00:00:00 | |
| PETON7-10 | 2026-09-03 00:14:47 | 47.28814 | 19.80906 | 95° | 42km/h | 17639m | 4.8m/s | -53.5°C | 4.1% | 84.7hPa | 2.7V | 00:00:00 | 00:00:00 | 00:00:00 | |
| GYPAP8-17 | 2026-09-03 00:14:36 | 47.28816 | 19.80749 | 89° | 44km/h | 17586m | 4.2m/s | -53.5°C | 1.2% | 85.4hPa | 2.7V | 00:00:00 | 00:00:00 | 00:00:00 | |
| PETON7-10 | 2026-09-03 00:14:32 | 47.28822 | 19.80667 | 103° | 44km/h | 17560m | 3.9m/s | -53.5°C | 4.1% | 85.7hPa | 2.7V | 00:00:00 | 00:00:00 | 00:00:00 | |
| PETON7-10 | 2026-09-03 00:14:17 | 47.28831 | 19.80430 | 101° | 42km/h | 17480m | 5.5m/s | -53.4°C | 4.1% | 86.8hPa | 2.7V | 00:00:00 | 01:19:51 | 00:00:00 | |
| PETON7-10 | 2026-09-03 00:13:47 | 47.28920 | 19.79966 | 123° | 55km/h | 17320m | 4.8m/s | -53.4°C | 4.1% | 89.0hPa | 2.7V | 00:00:00 | 00:00:00 | 00:00:00 | |
| PETON7-10 | 2026-09-03 00:13:32 | 47.28992 | 19.79677 | 111° | 53km/h | 17241m | 5.3m/s | -53.2°C | 4.1% | 90.1hPa | 2.7V | 00:00:00 | 01:19:06 | 00:00:00 | |
| PETON7-10 | 2026-09-03 00:13:17 | 47.29051 | 19.79398 | 102° | 51km/h | 17164m | 5.3m/s | -53.0°C | 3.9% | 91.2hPa | 2.7V | 00:00:00 | 00:00:00 | 08:30:00 | |
| PETON7-10 | 2026-09-03 00:13:02 | 47.29075 | 19.79117 | 92° | 51km/h | 17085m | 5.8m/s | -53.4°C | 4.1% | 92.3hPa | 2.6V | 00:00:00 | 00:00:00 | 00:00:00 | |
| PETON7-10 | 2026-09-03 00:12:47 | 47.29068 | 19.78840 | 92° | 53km/h | 17007m | 5.2m/s | -53.8°C | 4.2% | 93.4hPa | 2.6V | 00:00:00 | 01:18:21 | 00:00:00 | |
| PETON7-10 | 2026-09-03 00:12:32 | 47.29085 | 19.78547 | 95° | 51km/h | 16933m | 5.4m/s | -53.9°C | 4.4% | 94.4hPa | 2.6V | 00:00:00 | 00:00:00 | 00:00:00 | |
| ATIDSZ-14 | 2026-09-03 00:12:26 | 47.29087 | 19.78442 | 90° | 57km/h | 16909m | 4.9m/s | -54.1°C | 1.4% | 94.9hPa | 2.6V | 00:00:00 | 00:00:00 | 00:00:00 | |
| PETON7-10 | 2026-09-03 00:12:17 | 47.29081 | 19.78263 | 94° | 47km/h | 16858m | 3.8m/s | -53.8°C | 4.2% | 95.6hPa | 2.6V | 00:00:00 | 00:00:00 | 00:00:00 | |
| PETON7-10 | 2026-09-03 00:12:02 | 47.29101 | 19.78000 | 107° | 53km/h | 16783m | 4.4m/s | -53.9°C | 4.4% | 96.7hPa | 2.6V | 00:00:00 | 01:17:36 | 00:00:00 | |
| GYPAP8-17 | 2026-09-03 00:11:59 | 47.29108 | 19.77962 | 106° | 57km/h | 16774m | 5.7m/s | -53.9°C | 1.4% | 96.9hPa | 2.6V | 00:00:00 | 00:00:00 | 00:00:00 | |
| ATIDSZ-14 | 2026-09-03 00:11:56 | 47.29117 | 19.77901 | 101° | 53km/h | 16759m | 5.3m/s | -53.8°C | 1.4% | 97.1hPa | 2.6V | 00:00:00 | 00:00:00 | 00:00:00 | |
| PETON7-10 | 2026-09-03 00:11:47 | 47.29133 | 19.77706 | 103° | 51km/h | 16710m | 4.9m/s | -54.0°C | 4.3% | 97.8hPa | 2.6V | 00:00:00 | 00:00:00 | 00:00:00 | |
| ATIDSZ-14 | 2026-09-03 00:11:33 | 47.29136 | 19.77465 | 98° | 53km/h | 16645m | 5.8m/s | -54.2°C | 1.5% | 98.9hPa | 2.6V | 00:00:00 | 00:00:00 | 00:00:00 | |
| PETON7-10 | 2026-09-03 00:11:32 | 47.29139 | 19.77425 | 99° | 51km/h | 16634m | 5.1m/s | -54.1°C | 4.4% | 99.0hPa | 2.6V | 00:00:00 | 00:00:00 | 00:00:00 | |
| PETON7-10 | 2026-09-03 00:11:17 | 47.29164 | 19.77144 | 101° | 42km/h | 16556m | 5.7m/s | -54.4°C | 4.4% | 100.1hPa | 2.6V | 00:00:00 | 01:16:51 | 00:00:00 | |
| ATIDSZ-14 | 2026-09-03 00:11:12 | 47.29170 | 19.77077 | 95° | 47km/h | 16536m | 4.0m/s | -54.9°C | 1.6% | 100.5hPa | 2.6V | 00:00:00 | 00:00:00 | 00:00:00 | |
| PETON7-10 | 2026-09-03 00:11:02 | 47.29190 | 19.76910 | 100° | 38km/h | 16481m | 3.8m/s | -55.0°C | 4.7% | 101.4hPa | 2.6V | 00:00:00 | 00:00:00 | 08:30:00 | |
| ATIDSZ-14 | 2026-09-03 00:10:52 | 47.29222 | 19.76792 | 116° | 38km/h | 16435m | 6.0m/s | -54.8°C | 1.6% | 102.2hPa | 2.6V | 00:00:00 | 00:00:00 | 00:00:00 | |
| GYPAP8-17 | 2026-09-03 00:10:51 | 47.29226 | 19.76780 | 115° | 38km/h | 16429m | 4.2m/s | -54.7°C | 1.6% | 102.2hPa | 2.6V | 00:00:00 | 00:00:00 | 00:00:00 | |
| PETON7-10 | 2026-09-03 00:10:47 | 47.29247 | 19.76720 | 116° | 42km/h | 16403m | 4.4m/s | -54.6°C | 4.6% | 102.6hPa | 2.6V | 00:00:00 | 00:00:00 | 00:00:00 | |
| ATIDSZ-14 | 2026-09-03 00:10:32 | 47.29323 | 19.76508 | 125° | 42km/h | 16328m | 4.9m/s | -54.3°C | 1.5% | 103.9hPa | 2.6V | 00:00:00 | 00:00:00 | 00:00:00 | |
| PETON7-10 | 2026-09-03 00:10:17 | 47.29399 | 19.76269 | 122° | 47km/h | 16251m | 4.9m/s | -53.9°C | 4.4% | 105.1hPa | 2.6V | 00:00:00 | 00:00:00 | 00:00:00 | |
| ATIDSZ-14 | 2026-09-03 00:10:09 | 47.29431 | 19.76156 | 111° | 55km/h | 16216m | 3.9m/s | -53.7°C | 1.5% | 105.7hPa | 2.7V | 00:00:00 | 00:00:00 | 00:00:00 | |
| PETON7-10 | 2026-09-03 00:10:01 | 47.29463 | 19.76006 | 104° | 49km/h | 16171m | 4.4m/s | -53.5°C | 4.3% | 106.4hPa | 2.7V | 00:00:00 | 00:00:00 | 00:00:00 | |
| ATIDSZ-14 | 2026-09-03 00:09:50 | 47.29500 | 19.75822 | 104° | 49km/h | 16114m | 4.4m/s | -53.4°C | 1.4% | 107.4hPa | 2.7V | 00:00:00 | 00:00:00 | 00:00:00 | |
| PETON7-10 | 2026-09-03 00:09:46 | 47.29510 | 19.75745 | 102° | 51km/h | 16093m | 5.3m/s | -53.3°C | 4.3% | 107.7hPa | 2.7V | 00:00:00 | 01:15:20 | 00:00:00 | |
| GYPAP8-17 | 2026-09-03 00:09:34 | 47.29536 | 19.75539 | 103° | 55km/h | 16039m | 5.9m/s | -53.5°C | 1.4% | 108.6hPa | 2.7V | 00:00:00 | 00:00:00 | 00:00:00 | |
| PETON7-10 | 2026-09-03 00:09:31 | 47.29551 | 19.75464 | 111° | 55km/h | 16018m | 3.7m/s | -53.4°C | 4.3% | 109.0hPa | 2.7V | 00:00:00 | 00:00:00 | 00:00:00 | |
| ATIDSZ-14 | 2026-09-03 00:09:29 | 47.29556 | 19.75447 | 115° | 51km/h | 16013m | 6.2m/s | -53.5°C | 1.4% | 109.1hPa | 2.6V | 00:00:00 | 00:00:00 | 00:00:00 | |
| PETON7-10 | 2026-09-03 00:09:16 | 47.29614 | 19.75175 | 111° | 60km/h | 15937m | 6.2m/s | -53.5°C | 4.3% | 110.3hPa | 2.6V | 00:00:00 | 00:00:00 | 00:00:00 | |
| ATIDSZ-14 | 2026-09-03 00:09:08 | 47.29642 | 19.75028 | 101° | 60km/h | 15902m | 5.6m/s | -53.4°C | 1.4% | 111.0hPa | 2.6V | 00:00:00 | 00:00:00 | 00:00:00 | |
| PETON7-10 | 2026-09-03 00:09:01 | 47.29654 | 19.74848 | 96° | 60km/h | 15860m | 4.8m/s | -53.2°C | 4.2% | 111.7hPa | 2.6V | 00:00:00 | 01:14:35 | 00:00:00 | |
| ATIDSZ-14 | 2026-09-03 00:08:47 | 47.29687 | 19.74562 | 93° | 53km/h | 15794m | 4.5m/s | -52.9°C | 1.4% | 112.9hPa | 2.6V | 00:00:00 | 00:00:00 | 00:00:00 | |
| PETON7-10 | 2026-09-03 00:08:46 | 47.29688 | 19.74520 | 95° | 60km/h | 15783m | 4.1m/s | -52.9°C | 4.2% | 113.0hPa | 2.6V | 00:00:00 | 00:00:00 | 08:30:00 | |
| PETON7-10 | 2026-09-03 00:08:31 | 47.29705 | 19.74187 | 95° | 64km/h | 15704m | 4.6m/s | -52.3°C | 4.1% | 114.4hPa | 2.7V | 00:00:00 | 00:00:00 | 00:00:00 | |
| GYPAP8-17 | 2026-09-03 00:08:30 | 47.29705 | 19.74187 | 95° | 62km/h | 15704m | 4.6m/s | -52.4°C | 1.4% | 114.4hPa | 2.7V | 00:00:00 | 00:00:00 | 00:00:00 | |
| ATIDSZ-14 | 2026-09-03 00:08:26 | 47.29708 | 19.74096 | 88° | 62km/h | 15683m | 4.8m/s | -52.2°C | 1.4% | 114.8hPa | 2.7V | 00:00:00 | 00:00:00 | 00:00:00 | |
| PETON7-10 | 2026-09-03 00:08:16 | 47.29705 | 19.73831 | 87° | 64km/h | 15630m | 4.6m/s | -51.9°C | 3.8% | 115.7hPa | 2.7V | 00:00:00 | 01:13:50 | 00:00:00 | |
| ATIDSZ-14 | 2026-09-03 00:08:06 | 47.29695 | 19.73617 | 90° | 66km/h | 15587m | 4.6m/s | -52.2°C | 1.4% | 116.6hPa | 2.7V | 00:00:00 | 00:00:00 | 00:00:00 | |
| PETON7-10 | 2026-09-03 00:08:01 | 47.29693 | 19.73470 | 86° | 62km/h | 15555m | 5.3m/s | -52.2°C | 3.9% | 117.1hPa | 2.7V | 00:00:00 | 00:00:00 | 00:00:00 | |
| PETON7-10 | 2026-09-03 00:07:46 | 47.29692 | 19.73125 | 92° | 57km/h | 15480m | 4.1m/s | -53.7°C | 4.3% | 118.5hPa | 2.6V | 00:00:00 | 00:00:00 | 00:00:00 | |
| ATIDSZ-14 | 2026-09-03 00:07:45 | 47.29692 | 19.73125 | 92° | 57km/h | 15480m | 4.2m/s | -53.7°C | 1.5% | 118.5hPa | 2.6V | 00:00:00 | 00:00:00 | 00:00:00 | |
| PETON7-10 | 2026-09-03 00:07:31 | 47.29691 | 19.72813 | 92° | 53km/h | 15408m | 4.6m/s | -53.9°C | 4.4% | 119.8hPa | 2.6V | 00:00:00 | 01:13:05 | 00:00:00 | |
| GYPAP8-17 | 2026-09-03 00:07:25 | 47.29687 | 19.72708 | 88° | 53km/h | 15383m | 4.9m/s | -53.8°C | 1.5% | 120.3hPa | 2.6V | 00:00:00 | 00:00:00 | 00:00:00 | |
| ATIDSZ-14 | 2026-09-03 00:07:24 | 47.29686 | 19.72689 | 89° | 49km/h | 15377m | 6.4m/s | -53.7°C | 1.5% | 120.4hPa | 2.6V | 00:00:00 | 00:00:00 | 00:00:00 | |
| PETON7-10 | 2026-09-03 00:07:16 | 47.29686 | 19.72527 | 88° | 44km/h | 15332m | 6.0m/s | -53.4°C | 4.2% | 121.2hPa | 2.6V | 00:00:00 | 00:00:00 | 00:00:00 | |
| ATIDSZ-14 | 2026-09-03 00:07:04 | 47.29680 | 19.72340 | 91° | 42km/h | 15278m | 4.1m/s | -53.9°C | 1.6% | 122.2hPa | 2.7V | 00:00:00 | 00:00:00 | 00:00:00 | |
| PETON7-10 | 2026-09-03 00:07:00 | 47.29687 | 19.72264 | 97° | 46km/h | 15254m | 5.6m/s | -53.8°C | 4.4% | 122.6hPa | 2.7V | 00:00:00 | 00:00:00 | 00:00:00 | |
| PETON7-10 | 2026-09-03 00:06:45 | 47.29706 | 19.72012 | 99° | 46km/h | 15181m | 4.1m/s | -53.4°C | 4.4% | 124.0hPa | 2.7V | 00:00:00 | 01:12:19 | 00:00:00 | |
| ATIDSZ-14 | 2026-09-03 00:06:43 | 47.29707 | 19.71996 | 101° | 42km/h | 15176m | 6.3m/s | -53.4°C | 1.6% | 124.2hPa | 2.7V | 00:00:00 | 00:00:00 | 00:00:00 | |
| PETON7-10 | 2026-09-03 00:06:30 | 47.29748 | 19.71762 | 106° | 51km/h | 15107m | 5.3m/s | -52.8°C | 4.3% | 125.5hPa | 2.7V | 00:00:00 | 00:00:00 | 08:30:00 | |
| GYPAP8-17 | 2026-09-03 00:06:23 | 47.29771 | 19.71657 | 107° | 53km/h | 15076m | 3.3m/s | -52.7°C | 1.7% | 126.1hPa | 2.6V | 00:00:00 | 00:00:00 | 00:00:00 | |
| PETON7-10 | 2026-09-03 00:06:15 | 47.29810 | 19.71499 | 112° | 51km/h | 15033m | 3.9m/s | -52.4°C | 4.2% | 126.9hPa | 2.6V | 00:00:00 | 00:00:00 | 00:00:00 | |
| PETON7-10 | 2026-09-03 00:06:00 | 47.29885 | 19.71238 | 114° | 49km/h | 14960m | 5.2m/s | -52.2°C | 4.1% | 128.4hPa | 2.6V | 00:00:00 | 01:11:34 | 00:00:00 | |
| PETON7-10 | 2026-09-03 00:05:45 | 47.29962 | 19.70986 | 112° | 53km/h | 14886m | 4.6m/s | -52.1°C | 4.1% | 129.8hPa | 2.6V | 00:00:00 | 00:00:00 | 00:00:00 | |
| ATIDSZ-14 | 2026-09-03 00:05:39 | 47.29987 | 19.70897 | 113° | 55km/h | 14862m | 4.2m/s | -52.1°C | 1.6% | 130.4hPa | 2.6V | 00:00:00 | 00:00:00 | 00:00:00 | |
| PETON7-10 | 2026-09-03 00:05:30 | 47.30032 | 19.70710 | 107° | 60km/h | 14814m | 4.0m/s | -52.0°C | 4.2% | 131.3hPa | 2.6V | 00:00:00 | 00:00:00 | 00:00:00 | |
| GYPAP8-17 | 2026-09-03 00:05:24 | 47.30057 | 19.70608 | 109° | 58km/h | 14789m | 4.7m/s | -52.0°C | 1.6% | 131.9hPa | 2.6V | 00:00:00 | 00:00:00 | 00:00:00 | |
| ATIDSZ-14 | 2026-09-03 00:05:19 | 47.30081 | 19.70507 | 110° | 62km/h | 14765m | 6.4m/s | -51.9°C | 1.6% | 132.3hPa | 2.6V | 00:00:00 | 00:00:00 | 00:00:00 | |
| PETON7-10 | 2026-09-03 00:05:15 | 47.30108 | 19.70391 | 111° | 66km/h | 14739m | 4.3m/s | -51.7°C | 4.0% | 132.8hPa | 2.6V | 00:00:00 | 01:10:49 | 00:00:00 | |
| PETON7-10 | 2026-09-03 00:05:00 | 47.30175 | 19.70034 | 103° | 77km/h | 14660m | 6.4m/s | -53.1°C | 4.5% | 134.4hPa | 2.6V | 00:00:00 | 00:00:00 | 00:00:00 | |
| ATIDSZ-14 | 2026-09-03 00:04:58 | 47.30179 | 19.70006 | 104° | 77km/h | 14654m | 4.4m/s | -53.2°C | 1.8% | 134.6hPa | 2.6V | 00:00:00 | 00:00:00 | 00:00:00 | |
| PETON7-10 | 2026-09-03 00:04:46 | 47.30247 | 19.69615 | 104° | 73km/h | 14583m | 6.0m/s | -53.5°C | 4.7% | 136.1hPa | 2.6V | 00:00:00 | 00:00:00 | 00:00:00 | |
| ATIDSZ-14 | 2026-09-03 00:04:39 | 47.30267 | 19.69449 | 101° | 73km/h | 14554m | 5.2m/s | -53.4°C | 1.9% | 136.7hPa | 2.6V | 00:00:00 | 00:00:00 | 00:00:00 | |
| PETON7-10 | 2026-09-03 00:04:31 | 47.30306 | 19.69215 | 103° | 66km/h | 14510m | 4.5m/s | -53.3°C | 4.6% | 137.6hPa | 2.6V | 00:00:00 | 01:10:04 | 00:00:00 | |
| GYPAP8-17 | 2026-09-03 00:04:19 | 47.30341 | 19.68971 | 104° | 64km/h | 14461m | 5.8m/s | -53.5°C | 1.9% | 138.8hPa | 2.6V | 00:00:00 | 00:00:00 | 00:00:00 | |
| ATIDSZ-14 | 2026-09-03 00:04:17 | 47.30349 | 19.68926 | 106° | 66km/h | 14451m | 6.0m/s | -53.6°C | 1.9% | 138.9hPa | 2.6V | 00:00:00 | 00:00:00 | 00:00:00 | |
| PETON7-10 | 2026-09-03 00:04:16 | 47.30362 | 19.68856 | 107° | 57km/h | 14435m | 4.9m/s | -53.7°C | 4.8% | 139.2hPa | 2.6V | 00:00:00 | 00:00:00 | 08:30:00 | |
| ATIDSZ-14 | 2026-09-03 00:03:56 | 47.30410 | 19.68482 | 101° | 55km/h | 14345m | 4.8m/s | -53.7°C | 1.9% | 141.3hPa | 2.6V | 00:00:00 | 00:00:00 | 00:00:00 | |
| PETON7-10 | 2026-09-03 00:03:44 | 47.30429 | 19.68233 | 91° | 49km/h | 14278m | 5.7m/s | -53.3°C | 4.7% | 142.7hPa | 2.6V | 00:00:00 | 01:09:18 | 00:00:00 | |
| ATIDSZ-14 | 2026-09-03 00:03:38 | 47.30439 | 19.68099 | 103° | 49km/h | 14244m | 5.7m/s | -53.2°C | 1.9% | 143.5hPa | 2.6V | 00:00:00 | 00:00:00 | 00:00:00 | |
| PETON7-10 | 2026-09-03 00:03:29 | 47.30445 | 19.67960 | 90° | 49km/h | 14205m | 5.2m/s | -53.1°C | 4.7% | 144.3hPa | 2.6V | 00:00:00 | 00:00:00 | 00:00:00 | |
| ATIDSZ-14 | 2026-09-03 00:03:17 | 47.30460 | 19.67725 | 98° | 47km/h | 14142m | 5.0m/s | -52.6°C | 1.8% | 145.8hPa | 2.6V | 00:00:00 | 00:00:00 | 00:00:00 | |
| ATIDSZ-14 | 2026-09-03 00:03:00 | 47.30566 | 19.66896 | 101° | 57km/h | 13921m | 4.5m/s | -51.4°C | 1.7% | 150.9hPa | 2.6V | 00:00:00 | 00:00:00 | 00:00:00 | |
| PETON7-10 | 2026-09-03 00:02:58 | 47.30572 | 19.66853 | 104° | 55km/h | 13911m | 2.8m/s | -51.3°C | 4.1% | 151.0hPa | 2.6V | 00:00:00 | 00:00:00 | 00:00:00 | |
| PETON7-10 | 2026-09-03 00:02:36 | 47.30631 | 19.66560 | 109° | 60km/h | 13838m | 5.7m/s | -51.9°C | 4.4% | 152.7hPa | 2.6V | 00:00:00 | 01:07:48 | 00:00:00 | |
| ATIDSZ-14 | 2026-09-03 00:02:29 | 47.30652 | 19.66448 | 105° | 58km/h | 13814m | 4.1m/s | -52.0°C | 1.8% | 153.4hPa | 2.6V | 00:00:00 | 00:00:00 | 00:00:00 | |
| PETON7-10 | 2026-09-03 00:02:16 | 47.30691 | 19.66234 | 111° | 66km/h | 13766m | 5.9m/s | -52.1°C | 4.4% | 154.4hPa | 2.6V | 00:00:00 | 00:00:00 | 08:30:00 | |
| GYPAP8-17 | 2026-09-03 00:02:14 | 47.30696 | 19.66212 | 110° | 64km/h | 13761m | 3.9m/s | -52.2°C | 1.9% | 154.6hPa | 2.7V | 00:00:00 | 00:00:00 | 00:00:00 | |
| ATIDSZ-14 | 2026-09-03 00:02:01 | 47.30742 | 19.65977 | 109° | 69km/h | 13713m | 3.3m/s | -52.2°C | 1.9% | 155.7hPa | 2.7V | 00:00:00 | 00:00:00 | 00:00:00 | |
| PETON7-10 | 2026-09-03 00:01:57 | 47.30763 | 19.65884 | 107° | 62km/h | 13695m | 5.0m/s | -52.5°C | 4.6% | 156.1hPa | 2.7V | 00:00:00 | 00:00:00 | 00:00:00 | |
| PETON7-10 | 2026-09-03 00:01:42 | 47.30820 | 19.65545 | 107° | 60km/h | 13626m | 4.4m/s | -52.7°C | 4.6% | 157.8hPa | 2.7V | 00:00:00 | 01:07:03 | 00:00:00 | |
| ATIDSZ-14 | 2026-09-03 00:01:36 | 47.30833 | 19.65482 | 109° | 60km/h | 13612m | 4.5m/s | -52.7°C | 2.0% | 158.2hPa | 2.7V | 00:00:00 | 00:00:00 | 00:00:00 | |
| PETON7-10 | 2026-09-03 00:01:23 | 47.30906 | 19.65228 | 115° | 62km/h | 13556m | 5.8m/s | -52.4°C | 4.6% | 159.6hPa | 2.7V | 00:00:00 | 00:00:00 | 00:00:00 | |
| ATIDSZ-14 | 2026-09-03 00:01:09 | 47.30947 | 19.65035 | 111° | 60km/h | 13514m | 5.4m/s | -52.3°C | 1.9% | 160.6hPa | 2.7V | 00:00:00 | 00:00:00 | 00:00:00 | |
| PETON7-10 | 2026-09-03 00:01:03 | 47.30980 | 19.64903 | 107° | 66km/h | 13487m | 5.5m/s | -52.2°C | 4.5% | 161.3hPa | 2.7V | 00:00:00 | 00:00:00 | 00:00:00 | |
| GYPAP8-17 | 2026-09-03 00:00:48 | 47.31036 | 19.64542 | 106° | 73km/h | 13413m | 5.5m/s | -51.8°C | 1.9% | 163.2hPa | 2.7V | 00:00:00 | 00:00:00 | 00:00:00 | |
| PETON7-10 | 2026-09-03 00:00:33 | 47.31113 | 19.64150 | 116° | 58km/h | 13319m | 8.1m/s | -51.0°C | 4.1% | 165.5hPa | 2.7V | 00:00:00 | 00:00:00 | 00:00:00 | |
| ATIDSZ-14 | 2026-09-03 00:00:27 | 47.31133 | 19.64064 | 105° | 53km/h | 13289m | 5.4m/s | -50.9°C | 1.8% | 166.2hPa | 2.7V | 00:00:00 | 00:00:00 | 00:00:00 | |
| PETON7-10 | 2026-09-03 00:00:13 | 47.31199 | 19.63859 | 116° | 66km/h | 13216m | 5.5m/s | -51.1°C | 4.3% | 168.0hPa | 2.7V | 00:00:00 | 00:00:00 | 00:00:00 | |
| ATIDSZ-14 | 2026-09-03 00:00:04 | 47.31269 | 19.63672 | 116° | 64km/h | 13161m | 6.4m/s | -51.0°C | 1.8% | 169.6hPa | 2.7V | 00:00:00 | 00:00:00 | 00:00:00 | |
| PETON7-10 | 2026-09-02 23:59:58 | 47.31304 | 19.63526 | 108° | 73km/h | 13123m | 7.8m/s | -50.8°C | 4.2% | 170.5hPa | 2.7V | 00:00:00 | 01:05:32 | 00:00:00 | |
| PETON7-10 | 2026-09-02 23:59:43 | 47.31413 | 19.63155 | 123° | 71km/h | 13028m | 7.9m/s | -50.5°C | 4.1% | 173.0hPa | 2.7V | 00:00:00 | 00:00:00 | 08:30:00 | |
| ATIDSZ-14 | 2026-09-02 23:59:42 | 47.31413 | 19.63155 | 124° | 75km/h | 13028m | 7.9m/s | -50.6°C | 1.8% | 173.1hPa | 2.7V | 00:00:00 | 00:00:00 | 00:00:00 | |
| PETON7-10 | 2026-09-02 23:59:28 | 47.31514 | 19.62787 | 108° | 71km/h | 12931m | 8.1m/s | -50.2°C | 4.1% | 175.5hPa | 2.7V | 00:00:00 | 00:00:00 | 00:00:00 | |
| GYPAP8-17 | 2026-09-02 23:59:27 | 47.31514 | 19.62787 | 109° | 77km/h | 12931m | 8.1m/s | -50.3°C | 1.8% | 175.6hPa | 2.7V | 00:00:00 | 00:00:00 | 00:00:00 | |
| ATIDSZ-14 | 2026-09-02 23:59:21 | 47.31548 | 19.62629 | 106° | 73km/h | 12890m | 7.3m/s | -50.2°C | 1.9% | 176.7hPa | 2.7V | 00:00:00 | 00:00:00 | 00:00:00 | |
| PETON7-10 | 2026-09-02 23:59:12 | 47.31605 | 19.62387 | 112° | 69km/h | 12830m | 4.9m/s | -49.9°C | 4.0% | 178.4hPa | 2.7V | 00:00:00 | 01:04:46 | 00:00:00 | |
| ATIDSZ-14 | 2026-09-02 23:59:01 | 47.31646 | 19.62133 | 105° | 66km/h | 12766m | 6.4m/s | -49.9°C | 1.8% | 180.1hPa | 2.7V | 00:00:00 | 00:00:00 | 00:00:00 | |
| PETON7-10 | 2026-09-02 23:58:57 | 47.31667 | 19.62006 | 103° | 78km/h | 12736m | 8.5m/s | -50.2°C | 4.1% | 181.0hPa | 2.7V | 00:00:00 | 00:00:00 | 00:00:00 | |
| PETON7-10 | 2026-09-02 23:58:42 | 47.31738 | 19.61579 | 104° | 73km/h | 12640m | 4.6m/s | -50.6°C | 4.2% | 183.6hPa | 2.7V | 00:00:00 | 00:00:00 | 00:00:00 | |
| ATIDSZ-14 | 2026-09-02 23:58:41 | 47.31738 | 19.61579 | 104° | 71km/h | 12640m | 4.7m/s | -50.7°C | 1.9% | 183.6hPa | 2.7V | 00:00:00 | 00:00:00 | 00:00:00 | |
| PETON7-10 | 2026-09-02 23:58:27 | 47.31805 | 19.61185 | 104° | 64km/h | 12548m | 8.0m/s | -50.5°C | 4.2% | 186.2hPa | 2.7V | 00:00:00 | 01:04:01 | 00:00:00 | |
| GYPAP8-17 | 2026-09-02 23:58:24 | 47.31814 | 19.61134 | 107° | 71km/h | 12537m | 3.6m/s | -50.7°C | 2.0% | 186.6hPa | 2.7V | 00:00:00 | 00:00:00 | 00:00:00 | |
| ATIDSZ-14 | 2026-09-02 23:58:20 | 47.31831 | 19.61043 | 105° | 57km/h | 12516m | 6.5m/s | -50.7°C | 1.9% | 187.2hPa | 2.7V | 00:00:00 | 00:00:00 | 00:00:00 | |
| PETON7-10 | 2026-09-02 23:58:12 | 47.31855 | 19.60836 | 97° | 69km/h | 12466m | 5.6m/s | -50.4°C | 4.3% | 188.7hPa | 2.7V | 00:00:00 | 00:00:00 | 00:00:00 | |
| ATIDSZ-14 | 2026-09-02 23:58:00 | 47.31897 | 19.60560 | 109° | 73km/h | 12402m | 5.5m/s | -51.2°C | 2.3% | 190.6hPa | 2.7V | 00:00:00 | 00:00:00 | 00:00:00 | |
| PETON7-10 | 2026-09-02 23:57:57 | 47.31919 | 19.60458 | 107° | 66km/h | 12379m | 5.2m/s | -51.2°C | 4.8% | 191.2hPa | 2.7V | 00:00:00 | 00:00:00 | 00:00:00 | |
| PETON7-10 | 2026-09-02 23:57:42 | 47.31965 | 19.60096 | 98° | 58km/h | 12303m | 5.4m/s | -51.2°C | 5.2% | 193.4hPa | 2.7V | 00:00:00 | 01:03:16 | 00:00:00 | |
| ATIDSZ-14 | 2026-09-02 23:57:39 | 47.31967 | 19.60055 | 92° | 51km/h | 12293m | 5.9m/s | -51.2°C | 2.7% | 193.8hPa | 2.7V | 00:00:00 | 00:00:00 | 00:00:00 | |
| PETON7-10 | 2026-09-02 23:57:27 | 47.32005 | 19.59771 | 102° | 51km/h | 12222m | 4.6m/s | -50.7°C | 5.3% | 195.8hPa | 2.7V | 00:00:00 | 00:00:00 | 08:30:00 | |
| GYPAP8-17 | 2026-09-02 23:57:24 | 47.32010 | 19.59736 | 103° | 44km/h | 12213m | 6.0m/s | -50.7°C | 2.9% | 196.2hPa | 2.7V | 00:00:00 | 00:00:00 | 00:00:00 | |
| ATIDSZ-14 | 2026-09-02 23:57:19 | 47.32025 | 19.59645 | 104° | 57km/h | 12183m | 4.3m/s | -50.7°C | 3.2% | 197.0hPa | 2.7V | 00:00:00 | 00:00:00 | 00:00:00 | |
| PETON7-10 | 2026-09-02 23:57:12 | 47.32059 | 19.59495 | 120° | 55km/h | 12138m | 5.7m/s | -51.5°C | 6.3% | 198.3hPa | 2.7V | 00:00:00 | 00:00:00 | 00:00:00 | |
| ATIDSZ-14 | 2026-09-02 23:56:58 | 47.32143 | 19.59261 | 115° | 58km/h | 12069m | 5.9m/s | -51.6°C | 4.3% | 200.5hPa | 2.7V | 00:00:00 | 00:00:00 | 00:00:00 | |
| PETON7-10 | 2026-09-02 23:56:57 | 47.32156 | 19.59219 | 115° | 64km/h | 12059m | 4.5m/s | -51.6°C | 7.1% | 200.7hPa | 2.7V | 00:00:00 | 01:02:31 | 00:00:00 | |
| PETON7-10 | 2026-09-02 23:56:42 | 47.32252 | 19.58897 | 113° | 68km/h | 11970m | 4.8m/s | -52.4°C | 8.3% | 203.5hPa | 2.7V | 00:00:00 | 00:00:00 | 00:00:00 | |
| ATIDSZ-14 | 2026-09-02 23:56:38 | 47.32270 | 19.58831 | 115° | 66km/h | 11956m | 5.1m/s | -52.5°C | 5.6% | 204.0hPa | 2.7V | 00:00:00 | 00:00:00 | 00:00:00 | |
| PETON7-10 | 2026-09-02 23:56:27 | 47.32370 | 19.58560 | 121° | 75km/h | 11899m | 4.6m/s | -52.6°C | 9.9% | 205.8hPa | 2.7V | 00:00:00 | 00:00:00 | 00:00:00 | |
| ATIDSZ-14 | 2026-09-02 23:56:18 | 47.32469 | 19.58358 | 121° | 73km/h | 11858m | 5.2m/s | -52.6°C | 7.5% | 207.1hPa | 2.7V | 00:00:00 | 00:00:00 | 00:00:00 | |
| PETON7-10 | 2026-09-02 23:56:12 | 47.32519 | 19.58211 | 119° | 78km/h | 11831m | 3.3m/s | -52.9°C | 12.2% | 208.0hPa | 2.7V | 00:00:00 | 01:01:46 | 00:00:00 | |
| GYPAP8-17 | 2026-09-02 23:56:08 | 47.32547 | 19.58142 | 125° | 73km/h | 11818m | 5.1m/s | -53.1°C | 8.8% | 208.4hPa | 2.7V | 00:00:00 | 00:00:00 | 00:00:00 | |
| PETON7-10 | 2026-09-02 23:55:57 | 47.32670 | 19.57836 | 122° | 78km/h | 11764m | 4.4m/s | -53.5°C | 14.9% | 210.1hPa | 2.7V | 00:00:00 | 00:00:00 | 00:00:00 | |
| ATIDSZ-14 | 2026-09-02 23:55:56 | 47.32670 | 19.57836 | 123° | 77km/h | 11764m | 4.5m/s | -53.6°C | 10.8% | 210.2hPa | 2.7V | 00:00:00 | 00:00:00 | 00:00:00 | |
| PETON7-10 | 2026-09-02 23:55:42 | 47.32800 | 19.57443 | 112° | 75km/h | 11695m | 5.6m/s | -54.2°C | 17.8% | 212.4hPa | 2.7V | 00:00:00 | 00:00:00 | 00:00:00 | |
| ATIDSZ-14 | 2026-09-02 23:55:36 | 47.32831 | 19.57312 | 111° | 75km/h | 11674m | 4.9m/s | -54.1°C | 13.6% | 213.2hPa | 2.7V | 00:00:00 | 00:00:00 | 00:00:00 | |
| PETON7-10 | 2026-09-02 23:55:27 | 47.32909 | 19.57065 | 110° | 71km/h | 11628m | 4.3m/s | -54.0°C | 19.2% | 214.7hPa | 2.7V | 00:00:00 | 01:01:01 | 00:00:00 | |
| OM5KV | 2026-09-02 23:55:25 | 47.32915 | 19.57041 | 110° | 66km/h | 11622m | 6.2m/s | -54.0°C | 14.7% | 214.9hPa | 2.7V | 00:00:00 | 00:00:00 | 00:00:00 | |
| OM5KV | 2026-09-02 23:55:19 | 47.32954 | 19.56891 | 115° | 71km/h | 11594m | 5.9m/s | -54.2°C | 16.0% | 215.9hPa | 2.7V | 00:00:00 | 00:00:00 | 00:00:00 | |
| ATIDSZ-14 | 2026-09-02 23:55:16 | 47.32979 | 19.56818 | 119° | 73km/h | 11580m | 4.1m/s | -54.4°C | 16.7% | 216.3hPa | 2.7V | 00:00:00 | 00:00:00 | 00:00:00 | |
| PETON7-10 | 2026-09-02 23:55:12 | 47.33018 | 19.56698 | 115° | 73km/h | 11556m | 3.9m/s | -54.3°C | 21.9% | 217.1hPa | 2.7V | 00:00:00 | 00:00:00 | 08:30:00 | |
| OM5KV | 2026-09-02 23:55:09 | 47.33036 | 19.56648 | 121° | 77km/h | 11547m | 5.1m/s | -54.4°C | 16.6% | 217.5hPa | 2.7V | 00:00:00 | 00:00:00 | 00:00:00 | |
| OM5KV | 2026-09-02 23:55:08 | 47.33045 | 19.56624 | 123° | 75km/h | 11542m | 4.2m/s | -54.3°C | 16.5% | 217.6hPa | 2.7V | 00:00:00 | 00:00:00 | 00:00:00 | |
| GYPAP8-17 | 2026-09-02 23:55:05 | 47.33077 | 19.56553 | 125° | 78km/h | 11528m | 5.2m/s | -54.4°C | 16.6% | 218.1hPa | 2.7V | 00:00:00 | 00:00:00 | 00:00:00 | |
| OM5KV | 2026-09-02 23:55:02 | 47.33106 | 19.56481 | 116° | 71km/h | 11513m | 3.5m/s | -54.3°C | 16.8% | 218.7hPa | 2.7V | 00:00:00 | 00:00:00 | 00:00:00 | |
| PETON7-10 | 2026-09-02 23:54:57 | 47.33153 | 19.56339 | 123° | 69km/h | 11485m | 5.1m/s | -54.3°C | 21.7% | 219.5hPa | 2.7V | 00:00:00 | 00:00:00 | 00:00:00 | |
| ATIDSZ-14 | 2026-09-02 23:54:55 | 47.33163 | 19.56317 | 123° | 71km/h | 11480m | 3.9m/s | -54.3°C | 16.6% | 219.7hPa | 2.7V | 00:00:00 | 00:00:00 | 00:00:00 | |
| OM5KV | 2026-09-02 23:54:52 | 47.33191 | 19.56246 | 119° | 77km/h | 11466m | 4.9m/s | -54.2°C | 16.9% | 220.1hPa | 2.7V | 00:00:00 | 00:00:00 | 00:00:00 | |
| OM5KV | 2026-09-02 23:54:51 | 47.33200 | 19.56221 | 118° | 75km/h | 11461m | 5.4m/s | -54.2°C | 17.3% | 220.4hPa | 2.7V | 00:00:00 | 00:00:00 | 00:00:00 | |
| PETON7-10 | 2026-09-02 23:54:42 | 47.33271 | 19.55992 | 118° | 66km/h | 11412m | 4.6m/s | -54.1°C | 23.1% | 222.0hPa | 2.7V | 00:00:00 | 01:00:16 | 00:00:00 | |
| OM5KV | 2026-09-02 23:54:39 | 47.33287 | 19.55944 | 116° | 71km/h | 11403m | 4.6m/s | -54.2°C | 18.2% | 222.3hPa | 2.7V | 00:00:00 | 00:00:00 | 00:00:00 | |
| ATIDSZ-14 | 2026-09-02 23:54:35 | 47.33312 | 19.55853 | 113° | 64km/h | 11384m | 5.1m/s | -54.2°C | 18.6% | 223.0hPa | 2.7V | 00:00:00 | 00:00:00 | 00:00:00 | |
| OM5KV | 2026-09-02 23:54:29 | 47.33350 | 19.55721 | 117° | 64km/h | 11353m | 5.4m/s | -54.2°C | 20.1% | 224.1hPa | 2.7V | 00:00:00 | 00:00:00 | 00:00:00 | |
| PETON7-10 | 2026-09-02 23:54:27 | 47.33371 | 19.55652 | 112° | 69km/h | 11338m | 4.2m/s | -54.1°C | 26.0% | 224.6hPa | 2.7V | 00:00:00 | 00:00:00 | 00:00:00 | |
| OM5KV | 2026-09-02 23:54:26 | 47.33371 | 19.55652 | 113° | 71km/h | 11338m | 4.3m/s | -54.1°C | 20.4% | 224.6hPa | 2.7V | 00:00:00 | 00:00:00 | 00:00:00 | |
| OM5KV | 2026-09-02 23:54:23 | 47.33390 | 19.55574 | 110° | 75km/h | 11322m | 6.1m/s | -54.1°C | 20.7% | 225.1hPa | 2.7V | 00:00:00 | 00:00:00 | 00:00:00 | |
| OM5KV | 2026-09-02 23:54:19 | 47.33412 | 19.55477 | 109° | 64km/h | 11301m | 7.7m/s | -54.0°C | 21.0% | 225.9hPa | 2.7V | 00:00:00 | 00:00:00 | 00:00:00 | |
| OM5KV | 2026-09-02 23:54:16 | 47.33426 | 19.55408 | 108° | 64km/h | 11283m | 6.0m/s | -54.0°C | 21.3% | 226.5hPa | 2.7V | 00:00:00 | 00:00:00 | 00:00:00 | |
| ATIDSZ-14 | 2026-09-02 23:54:15 | 47.33432 | 19.55384 | 112° | 69km/h | 11278m | 4.9m/s | -54.0°C | 21.5% | 226.7hPa | 2.7V | 00:00:00 | 00:00:00 | 00:00:00 | |
| OM5KV | 2026-09-02 23:54:13 | 47.33453 | 19.55313 | 118° | 68km/h | 11262m | 4.7m/s | -54.1°C | 22.4% | 227.3hPa | 2.7V | 00:00:00 | 00:00:00 | 00:00:00 | |
| PETON7-10 | 2026-09-02 23:54:12 | 47.33461 | 19.55292 | 119° | 66km/h | 11257m | 5.5m/s | -54.1°C | 28.3% | 227.4hPa | 2.7V | 00:00:00 | 00:00:00 | 00:00:00 | |
| OM5KV | 2026-09-02 23:54:04 | 47.33514 | 19.55141 | 117° | 69km/h | 11222m | 5.0m/s | -54.1°C | 22.9% | 228.7hPa | 2.7V | 00:00:00 | 00:00:00 | 00:00:00 | |
| GYPAP8-17 | 2026-09-02 23:54:02 | 47.33529 | 19.55096 | 117° | 66km/h | 11212m | 4.6m/s | -54.1°C | 22.9% | 229.1hPa | 2.7V | 00:00:00 | 00:00:00 | 00:00:00 | |
| PETON7-10 | 2026-09-02 23:53:57 | 47.33576 | 19.54970 | 123° | 68km/h | 11184m | 4.6m/s | -53.8°C | 29.2% | 230.1hPa | 2.7V | 00:00:00 | 00:59:31 | 00:00:00 | |
| OM5KV | 2026-09-02 23:53:55 | 47.33586 | 19.54948 | 125° | 69km/h | 11180m | 4.0m/s | -53.9°C | 23.2% | 230.3hPa | 2.7V | 00:00:00 | 00:00:00 | 00:00:00 | |
| ATIDSZ-14 | 2026-09-02 23:53:54 | 47.33595 | 19.54927 | 125° | 69km/h | 11175m | 5.3m/s | -53.8°C | 23.1% | 230.4hPa | 2.7V | 00:00:00 | 00:00:00 | 00:00:00 | |
| OM5KV | 2026-09-02 23:53:49 | 47.33641 | 19.54825 | 125° | 66km/h | 11151m | 4.4m/s | -53.8°C | 23.8% | 231.3hPa | 2.7V | 00:00:00 | 00:00:00 | 00:00:00 | |
| OM5KV | 2026-09-02 23:53:44 | 47.33682 | 19.54718 | 120° | 69km/h | 11127m | 5.9m/s | -53.8°C | 23.7% | 232.2hPa | 2.7V | 00:00:00 | 00:00:00 | 00:00:00 | |
| PETON7-10 | 2026-09-02 23:53:42 | 47.33710 | 19.54650 | 123° | 73km/h | 11112m | 5.3m/s | -53.7°C | 28.9% | 232.6hPa | 2.7V | 00:00:00 | 00:00:00 | 00:00:00 | |
| OM5KV | 2026-09-02 23:53:38 | 47.33740 | 19.54579 | 122° | 73km/h | 11097m | 4.7m/s | -53.6°C | 23.4% | 233.2hPa | 2.7V | 00:00:00 | 00:00:00 | 00:00:00 | |
| ATIDSZ-14 | 2026-09-02 23:53:33 | 47.33787 | 19.54465 | 120° | 75km/h | 11074m | 4.7m/s | -53.6°C | 24.4% | 234.1hPa | 2.7V | 00:00:00 | 00:00:00 | 00:00:00 | |
| OM5KV | 2026-09-02 23:53:32 | 47.33795 | 19.54441 | 120° | 73km/h | 11070m | 4.0m/s | -53.6°C | 24.6% | 234.2hPa | 2.7V | 00:00:00 | 00:00:00 | 00:00:00 | |
| PETON7-10 | 2026-09-02 23:53:27 | 47.33847 | 19.54299 | 115° | 75km/h | 11042m | 4.8m/s | -53.7°C | 31.8% | 235.2hPa | 2.7V | 00:00:00 | 00:00:00 | 00:00:00 | |
| OM5KV | 2026-09-02 23:53:24 | 47.33861 | 19.54250 | 114° | 71km/h | 11032m | 5.5m/s | -54.0°C | 26.1% | 235.6hPa | 2.7V | 00:00:00 | 00:00:00 | 00:00:00 | |
| OM5KV | 2026-09-02 23:53:21 | 47.33881 | 19.54179 | 113° | 68km/h | 11018m | 3.8m/s | -54.3°C | 27.4% | 236.2hPa | 2.7V | 00:00:00 | 00:00:00 | 00:00:00 | |
| OM5KV | 2026-09-02 23:53:19 | 47.33894 | 19.54130 | 112° | 73km/h | 11008m | 4.9m/s | -54.2°C | 27.8% | 236.5hPa | 2.7V | 00:00:00 | 00:00:00 | 00:00:00 | |
| OM5KV | 2026-09-02 23:53:16 | 47.33916 | 19.54051 | 115° | 78km/h | 10994m | 3.9m/s | -54.2°C | 28.2% | 237.0hPa | 2.7V | 00:00:00 | 00:00:00 | 00:00:00 | |
| ATIDSZ-14 | 2026-09-02 23:53:13 | 47.33945 | 19.53970 | 121° | 82km/h | 10980m | 4.8m/s | -54.2°C | 28.2% | 237.5hPa | 2.7V | 00:00:00 | 00:00:00 | 00:00:00 | |
| PETON7-10 | 2026-09-02 23:53:12 | 47.33964 | 19.53919 | 118° | 80km/h | 10971m | 3.7m/s | -54.1°C | 34.9% | 237.9hPa | 2.7V | 00:00:00 | 00:58:46 | 00:00:00 | |
| OM5KV | 2026-09-02 23:53:04 | 47.34027 | 19.53731 | 120° | 86km/h | 10938m | 3.9m/s | -54.0°C | 28.3% | 239.1hPa | 2.7V | 00:00:00 | 00:00:00 | 00:00:00 | |
| PETON7-10 | 2026-09-02 23:52:57 | 47.34101 | 19.53516 | 116° | 77km/h | 10901m | 5.2m/s | -53.8°C | 35.5% | 240.4hPa | 2.7V | 00:00:00 | 00:00:00 | 08:30:00 | |
| OM5KV | 2026-09-02 23:52:56 | 47.34101 | 19.53516 | 116° | 78km/h | 10901m | 5.2m/s | -53.8°C | 29.0% | 240.5hPa | 2.7V | 00:00:00 | 00:00:00 | 00:00:00 | |
| OM5KV | 2026-09-02 23:52:54 | 47.34118 | 19.53462 | 117° | 78km/h | 10891m | 4.4m/s | -53.8°C | 29.1% | 240.9hPa | 2.7V | 00:00:00 | 00:00:00 | 00:00:00 | |
| ATIDSZ-14 | 2026-09-02 23:52:52 | 47.34135 | 19.53410 | 117° | 75km/h | 10880m | 4.0m/s | -53.8°C | 29.6% | 241.3hPa | 2.7V | 00:00:00 | 00:00:00 | 00:00:00 | |
| OM5KV | 2026-09-02 23:52:45 | 47.34197 | 19.53234 | 121° | 77km/h | 10849m | 5.3m/s | -53.6°C | 30.5% | 242.4hPa | 2.7V | 00:00:00 | 00:00:00 | 00:00:00 | |
| OM5KV | 2026-09-02 23:52:43 | 47.34216 | 19.53184 | 119° | 77km/h | 10840m | 5.7m/s | -53.6°C | 30.6% | 242.8hPa | 2.7V | 00:00:00 | 00:00:00 | 00:00:00 | |
| PETON7-10 | 2026-09-02 23:52:42 | 47.34234 | 19.53132 | 116° | 82km/h | 10830m | 3.8m/s | -53.4°C | 37.0% | 243.1hPa | 2.7V | 00:00:00 | 00:00:00 | 00:00:00 | |
| OM5KV | 2026-09-02 23:52:40 | 47.34242 | 19.53106 | 118° | 80km/h | 10826m | 5.7m/s | -53.4°C | 30.8% | 243.3hPa | 2.7V | 00:00:00 | 00:00:00 | 00:00:00 | |
| OM5KV | 2026-09-02 23:52:34 | 47.34306 | 19.52943 | 120° | 82km/h | 10797m | 3.2m/s | -53.2°C | 32.9% | 244.4hPa | 2.7V | 00:00:00 | 00:00:00 | 00:00:00 | |
| OM5KV | 2026-09-02 23:52:32 | 47.34325 | 19.52888 | 118° | 82km/h | 10788m | 5.4m/s | -53.3°C | 33.5% | 244.7hPa | 2.7V | 00:00:00 | 00:00:00 | 00:00:00 | |
| ATIDSZ-14 | 2026-09-02 23:52:31 | 47.34335 | 19.52861 | 117° | 80km/h | 10782m | 6.7m/s | -53.3°C | 34.5% | 244.9hPa | 2.7V | 00:00:00 | 00:00:00 | 00:00:00 | |
| PETON7-10 | 2026-09-02 23:52:27 | 47.34384 | 19.52724 | 120° | 84km/h | 10760m | 4.5m/s | -53.4°C | 46.1% | 245.7hPa | 2.7V | 00:00:00 | 00:58:01 | 00:00:00 | |
| OM5KV | 2026-09-02 23:52:23 | 47.34418 | 19.52641 | 122° | 86km/h | 10747m | 3.7m/s | -53.5°C | 40.4% | 246.3hPa | 2.7V | 00:00:00 | 00:00:00 | 00:00:00 | |
| OM5KV | 2026-09-02 23:52:19 | 47.34463 | 19.52534 | 122° | 82km/h | 10728m | 4.0m/s | -53.6°C | 44.3% | 247.0hPa | 2.7V | 00:00:00 | 00:00:00 | 00:00:00 | |
| OM5KV | 2026-09-02 23:52:13 | 47.34525 | 19.52373 | 119° | 86km/h | 10701m | 3.3m/s | -53.6°C | 48.7% | 248.1hPa | 2.7V | 00:00:00 | 00:00:00 | 00:00:00 | |
| PETON7-10 | 2026-09-02 23:52:12 | 47.34545 | 19.52318 | 120° | 84km/h | 10692m | 3.8m/s | -53.6°C | 58.4% | 248.4hPa | 2.7V | 00:00:00 | 00:00:00 | 00:00:00 | |
| ATIDSZ-14 | 2026-09-02 23:52:11 | 47.34545 | 19.52318 | 121° | 84km/h | 10692m | 3.8m/s | -53.6°C | 49.9% | 248.5hPa | 2.7V | 00:00:00 | 00:00:00 | 00:00:00 | |
| OM5KV | 2026-09-02 23:52:08 | 47.34588 | 19.52209 | 122° | 84km/h | 10673m | 4.2m/s | -53.6°C | 51.7% | 249.1hPa | 2.7V | 00:00:00 | 00:00:00 | 00:00:00 | |
| OM5KV | 2026-09-02 23:52:06 | 47.34599 | 19.52182 | 121° | 84km/h | 10669m | 4.3m/s | -53.6°C | 51.7% | 249.3hPa | 2.7V | 00:00:00 | 00:00:00 | 00:00:00 | |
| PETON7-10 | 2026-09-02 23:51:57 | 47.34699 | 19.51900 | 120° | 93km/h | 10623m | 3.4m/s | -54.0°C | 64.0% | 251.1hPa | 2.7V | 00:00:00 | 00:00:00 | 00:00:00 | |
| OM5KV | 2026-09-02 23:51:56 | 47.34699 | 19.51900 | 121° | 93km/h | 10623m | 3.5m/s | -54.0°C | 54.9% | 251.2hPa | 2.7V | 00:00:00 | 00:00:00 | 00:00:00 | |
| ATIDSZ-14 | 2026-09-02 23:51:51 | 47.34751 | 19.51740 | 118° | 93km/h | 10600m | 5.2m/s | -54.0°C | 54.8% | 252.0hPa | 2.7V | 00:00:00 | 00:00:00 | 00:00:00 | |
| OM5KV | 2026-09-02 23:51:47 | 47.34797 | 19.51619 | 118° | 93km/h | 10580m | 5.3m/s | -53.9°C | 55.3% | 252.8hPa | 2.7V | 00:00:00 | 00:00:00 | 00:00:00 | |
| PETON7-10 | 2026-09-02 23:51:42 | 47.34847 | 19.51430 | 111° | 88km/h | 10546m | 6.8m/s | -53.6°C | 64.6% | 254.1hPa | 2.7V | 00:00:00 | 00:57:16 | 00:00:00 | |
| OM5KV | 2026-09-02 23:51:39 | 47.34863 | 19.51369 | 112° | 86km/h | 10533m | 6.1m/s | -53.5°C | 56.4% | 254.7hPa | 2.7V | 00:00:00 | 00:00:00 | 00:00:00 | |
| ATIDSZ-14 | 2026-09-02 23:51:30 | 47.34934 | 19.51093 | 109° | 86km/h | 10484m | 3.6m/s | -53.1°C | 57.4% | 256.8hPa | 2.7V | 00:00:00 | 00:00:00 | 00:00:00 | |
| OM5KV | 2026-09-02 23:51:29 | 47.34941 | 19.51062 | 108° | 86km/h | 10479m | 7.1m/s | -53.1°C | 56.8% | 257.0hPa | 2.7V | 00:00:00 | 00:00:00 | 00:00:00 | |
| OM5KV | 2026-09-02 23:51:28 | 47.34948 | 19.51032 | 110° | 86km/h | 10472m | 7.1m/s | -53.0°C | 56.7% | 257.2hPa | 2.7V | 00:00:00 | 00:00:00 | 00:00:00 | |
| PETON7-10 | 2026-09-02 23:51:27 | 47.34964 | 19.50970 | 112° | 86km/h | 10462m | 4.4m/s | -52.9°C | 66.1% | 257.6hPa | 2.7V | 00:00:00 | 00:00:00 | 00:00:00 | |
| OM5KV | 2026-09-02 23:51:18 | 47.35018 | 19.50727 | 113° | 88km/h | 10411m | 6.4m/s | -52.5°C | 56.4% | 259.5hPa | 2.9V | 00:00:00 | 00:00:00 | 00:00:00 | |
| OM5KV | 2026-09-02 23:51:17 | 47.35027 | 19.50697 | 117° | 88km/h | 10405m | 5.8m/s | -52.4°C | 56.8% | 259.7hPa | 2.9V | 00:00:00 | 00:00:00 | 00:00:00 | |
| PETON7-10 | 2026-09-02 23:51:12 | 47.35074 | 19.50516 | 108° | 82km/h | 10371m | 4.6m/s | -52.1°C | 64.1% | 261.2hPa | 2.9V | 00:00:00 | 00:00:00 | 00:00:00 | |
| OM5KV | 2026-09-02 23:51:11 | 47.35074 | 19.50516 | 108° | 86km/h | 10371m | 4.7m/s | -52.1°C | 55.4% | 261.2hPa | 2.9V | 00:00:00 | 00:00:00 | 00:00:00 | |
| ATIDSZ-14 | 2026-09-02 23:51:09 | 47.35086 | 19.50455 | 106° | 84km/h | 10359m | 7.4m/s | -52.0°C | 53.0% | 261.6hPa | 2.9V | 00:00:00 | 00:00:00 | 00:00:00 | |
| OM5KV | 2026-09-02 23:51:05 | 47.35104 | 19.50338 | 107° | 78km/h | 10334m | 7.3m/s | -51.8°C | 51.9% | 262.6hPa | 2.9V | 00:00:00 | 00:00:00 | 00:00:00 | |
| OM5KV | 2026-09-02 23:50:59 | 47.35155 | 19.50173 | 114° | 80km/h | 10298m | 6.9m/s | -51.4°C | 50.5% | 264.1hPa | 2.9V | 00:00:00 | 00:00:00 | 00:00:00 | |
| PETON7-10 | 2026-09-02 23:50:56 | 47.35182 | 19.50061 | 109° | 82km/h | 10277m | 5.7m/s | -51.2°C | 58.4% | 264.9hPa | 2.9V | 00:00:00 | 00:56:30 | 00:00:00 | |
| OM5KV | 2026-09-02 23:50:53 | 47.35195 | 19.50003 | 108° | 82km/h | 10267m | 5.2m/s | -51.2°C | 51.0% | 265.4hPa | 2.9V | 00:00:00 | 00:00:00 | 00:00:00 | |
| OM5KV | 2026-09-02 23:50:52 | 47.35201 | 19.49974 | 109° | 82km/h | 10262m | 4.5m/s | -51.1°C | 51.3% | 265.6hPa | 2.9V | 00:00:00 | 00:00:00 | 00:00:00 | |
| ATIDSZ-14 | 2026-09-02 23:50:48 | 47.35232 | 19.49856 | 117° | 89km/h | 10243m | 5.5m/s | -51.0°C | 51.7% | 266.4hPa | 2.9V | 00:00:00 | 00:00:00 | 00:00:00 | |
| PETON7-10 | 2026-09-02 23:50:40 | 47.35306 | 19.49604 | 116° | 82km/h | 10193m | 4.8m/s | -50.5°C | 59.6% | 268.3hPa | 2.9V | 00:00:00 | 00:00:00 | 08:30:00 | |
| OM5KV | 2026-09-02 23:50:34 | 47.35346 | 19.49464 | 113° | 78km/h | 10166m | 5.4m/s | -50.3°C | 51.9% | 269.5hPa | 2.9V | 00:00:00 | 00:00:00 | 00:00:00 | |
| OM5KV | 2026-09-02 23:50:28 | 47.35392 | 19.49295 | 115° | 84km/h | 10139m | 4.2m/s | -50.1°C | 54.3% | 270.7hPa | 2.9V | 00:00:00 | 00:00:00 | 00:00:00 | |
| ATIDSZ-14 | 2026-09-02 23:50:27 | 47.35401 | 19.49266 | 115° | 84km/h | 10135m | 3.7m/s | -50.1°C | 54.5% | 270.8hPa | 2.9V | 00:00:00 | 00:00:00 | 00:00:00 | |
| PETON7-10 | 2026-09-02 23:50:25 | 47.35427 | 19.49180 | 116° | 82km/h | 10121m | 3.3m/s | -50.0°C | 63.2% | 271.3hPa | 2.9V | 00:00:00 | 00:00:00 | 00:00:00 | |
| OM5KV | 2026-09-02 23:50:19 | 47.35471 | 19.49047 | 114° | 77km/h | 10097m | 6.3m/s | -49.8°C | 54.0% | 272.4hPa | 2.9V | 00:00:00 | 00:00:00 | 00:00:00 | |
| GYPAP8-17 | 2026-09-02 23:50:17 | 47.35486 | 19.48994 | 116° | 80km/h | 10086m | 7.0m/s | -49.7°C | 54.1% | 272.8hPa | 2.9V | 00:00:00 | 00:00:00 | 00:00:00 | |
| PETON7-10 | 2026-09-02 23:50:09 | 47.35577 | 19.48745 | 121° | 82km/h | 10040m | 4.1m/s | -49.2°C | 63.3% | 274.7hPa | 2.9V | 00:00:00 | 00:55:43 | 00:00:00 | |
| OE3JTB-15 | 2026-09-02 23:50:06 | 47.35602 | 19.48665 | 108° | 80km/h | 10025m | 4.9m/s | -49.1°C | 62.6% | 275.3hPa | 2.9V | 00:00:00 | 00:00:00 | 00:00:00 | |
| OM5KV | 2026-09-02 23:50:02 | 47.35621 | 19.48580 | 114° | 84km/h | 10006m | 5.2m/s | -49.0°C | 55.0% | 276.1hPa | 2.9V | 00:00:00 | 00:00:00 | 00:00:00 | |
| OM5KV | 2026-09-02 23:49:58 | 47.35661 | 19.48466 | 116° | 89km/h | 9983m | 6.2m/s | -48.8°C | 54.9% | 277.1hPa | 2.9V | 00:00:00 | 00:00:00 | 00:00:00 | |
| OM5KV | 2026-09-02 23:49:55 | 47.35687 | 19.48377 | 113° | 82km/h | 9966m | 7.8m/s | -48.6°C | 53.8% | 277.8hPa | 2.9V | 00:00:00 | 00:00:00 | 00:00:00 | |
| PETON7-10 | 2026-09-02 23:49:54 | 47.35701 | 19.48325 | 113° | 78km/h | 9952m | 3.8m/s | -48.5°C | 62.0% | 278.3hPa | 2.9V | 00:00:00 | 00:00:00 | 00:00:00 | |
| OM5KV | 2026-09-02 23:49:48 | 47.35743 | 19.48195 | 117° | 84km/h | 9927m | 6.5m/s | -48.3°C | 54.0% | 279.4hPa | 2.9V | 00:00:00 | 00:00:00 | 00:00:00 | |
| ATIDSZ-14 | 2026-09-02 23:49:45 | 47.35768 | 19.48108 | 111° | 84km/h | 9911m | 4.9m/s | -48.1°C | 54.3% | 280.2hPa | 2.9V | 00:00:00 | 00:00:00 | 00:00:00 | |
| PETON7-10 | 2026-09-02 23:49:39 | 47.35820 | 19.47922 | 114° | 84km/h | 9877m | 6.2m/s | -47.8°C | 59.1% | 281.6hPa | 2.9V | 00:00:00 | 00:00:00 | 00:00:00 | |
| OE3JTB-15 | 2026-09-02 23:49:37 | 47.35837 | 19.47863 | 114° | 84km/h | 9864m | 6.3m/s | -47.7°C | 58.6% | 282.1hPa | 2.9V | 00:00:00 | 00:55:11 | 00:00:00 | |
| OM5KV | 2026-09-02 23:49:33 | 47.35863 | 19.47773 | 112° | 86km/h | 9849m | 4.7m/s | -47.6°C | 53.0% | 282.9hPa | 2.9V | 00:00:00 | 00:00:00 | 00:00:00 | |
| OM5KV | 2026-09-02 23:49:31 | 47.35878 | 19.47714 | 112° | 82km/h | 9841m | 4.3m/s | -47.5°C | 52.6% | 283.2hPa | 2.9V | 00:00:00 | 00:00:00 | 00:00:00 | |
| PETON7-10 | 2026-09-02 23:49:24 | 47.35944 | 19.47495 | 110° | 80km/h | 9805m | 7.1m/s | -47.1°C | 58.4% | 284.7hPa | 2.9V | 00:00:00 | 00:54:58 | 00:00:00 | |
| OM5KV | 2026-09-02 23:49:18 | 47.35978 | 19.47353 | 108° | 86km/h | 9780m | 5.9m/s | -46.9°C | 51.4% | 285.8hPa | 2.9V | 00:00:00 | 00:00:00 | 00:00:00 | |
| OM5KV | 2026-09-02 23:49:16 | 47.35990 | 19.47293 | 109° | 84km/h | 9770m | 3.2m/s | -46.8°C | 51.5% | 286.3hPa | 2.9V | 00:00:00 | 00:00:00 | 00:00:00 | |
| PETON7-10 | 2026-09-02 23:49:09 | 47.36044 | 19.47072 | 112° | 78km/h | 9730m | 4.1m/s | -46.4°C | 56.4% | 287.9hPa | 2.9V | 00:00:00 | 00:00:00 | 00:00:00 | |
| GYPAP8-17 | 2026-09-02 23:49:07 | 47.36052 | 19.47043 | 113° | 86km/h | 9725m | 5.2m/s | -46.4°C | 49.5% | 288.2hPa | 2.9V | 00:00:00 | 00:00:00 | 00:00:00 | |
| ATIDSZ-14 | 2026-09-02 23:49:03 | 47.36086 | 19.46935 | 116° | 77km/h | 9704m | 6.9m/s | -46.2°C | 49.0% | 289.1hPa | 2.9V | 00:00:00 | 00:00:00 | 00:00:00 | |
| OM5KV | 2026-09-02 23:49:02 | 47.36094 | 19.46909 | 114° | 77km/h | 9698m | 5.0m/s | -46.2°C | 49.4% | 289.4hPa | 2.9V | 00:00:00 | 00:00:00 | 00:00:00 | |
| OM5KV | 2026-09-02 23:48:56 | 47.36143 | 19.46756 | 119° | 84km/h | 9666m | 4.0m/s | -45.8°C | 49.5% | 290.8hPa | 2.9V | 00:00:00 | 00:00:00 | 00:00:00 | |
| PETON7-10 | 2026-09-02 23:48:54 | 47.36171 | 19.46669 | 113° | 78km/h | 9653m | 5.8m/s | -45.7°C | 54.6% | 291.3hPa | 2.9V | 00:00:00 | 00:00:00 | 00:00:00 | |
| ATIDSZ-14 | 2026-09-02 23:48:42 | 47.36239 | 19.46363 | 116° | 78km/h | 9584m | 4.5m/s | -45.1°C | 47.8% | 294.3hPa | 2.9V | 00:00:00 | 00:00:00 | 00:00:00 | |
| OE3JTB-15 | 2026-09-02 23:48:40 | 47.36260 | 19.46286 | 108° | 75km/h | 9568m | 5.5m/s | -44.9°C | 53.2% | 295.0hPa | 2.9V | 00:00:00 | 00:00:00 | 00:00:00 | |
| PETON7-10 | 2026-09-02 23:48:39 | 47.36265 | 19.46260 | 104° | 77km/h | 9562m | 5.9m/s | -44.9°C | 53.1% | 295.3hPa | 2.7V | 00:00:00 | 00:54:13 | 00:00:00 | |
| OM5KV | 2026-09-02 23:48:38 | 47.36266 | 19.46260 | 104° | 73km/h | 9562m | 6.0m/s | -44.9°C | 47.0% | 295.3hPa | 2.7V | 00:00:00 | 00:00:00 | 00:00:00 | |
| OM5KV | 2026-09-02 23:48:32 | 47.36291 | 19.46097 | 108° | 78km/h | 9531m | 7.0m/s | -44.6°C | 47.9% | 296.7hPa | 2.7V | 00:00:00 | 00:00:00 | 00:00:00 | |
| OM5KV | 2026-09-02 23:48:27 | 47.36332 | 19.45958 | 119° | 77km/h | 9499m | 5.3m/s | -44.4°C | 49.5% | 298.0hPa | 2.7V | 00:00:00 | 00:00:00 | 00:00:00 | |
| OM5KV | 2026-09-02 23:48:26 | 47.36341 | 19.45932 | 116° | 75km/h | 9495m | 3.8m/s | -44.4°C | 49.8% | 298.3hPa | 2.7V | 00:00:00 | 00:00:00 | 00:00:00 | |
| PETON7-10 | 2026-09-02 23:48:24 | 47.36358 | 19.45851 | 101° | 80km/h | 9479m | 6.5m/s | -44.2°C | 53.5% | 298.9hPa | 2.7V | 00:00:00 | 00:00:00 | 08:30:00 | |
| ATIDSZ-14 | 2026-09-02 23:48:21 | 47.36364 | 19.45792 | 100° | 84km/h | 9466m | 6.8m/s | -44.1°C | 47.6% | 299.7hPa | 2.7V | 00:00:00 | 00:00:00 | 00:00:00 | |
| OM5KV | 2026-09-02 23:48:14 | 47.36417 | 19.45592 | 116° | 82km/h | 9421m | 7.3m/s | -43.8°C | 48.3% | 301.7hPa | 2.7V | 00:00:00 | 00:00:00 | 00:00:00 | |
| PETON7-10 | 2026-09-02 23:48:09 | 47.36462 | 19.45425 | 109° | 80km/h | 9388m | 5.9m/s | -43.4°C | 53.7% | 303.1hPa | 2.7V | 00:00:00 | 00:00:00 | 00:00:00 | |
| OM5KV | 2026-09-02 23:48:08 | 47.36462 | 19.45425 | 110° | 78km/h | 9388m | 6.0m/s | -43.5°C | 47.9% | 303.2hPa | 2.7V | 00:00:00 | 00:00:00 | 00:00:00 | |
| GYPAP8-17 | 2026-09-02 23:48:04 | 47.36486 | 19.45313 | 109° | 77km/h | 9368m | 5.6m/s | -43.3°C | 0% | 304.0hPa | 2.7V | 00:00:00 | 00:00:00 | 00:00:00 | |
| ATIDSZ-14 | 2026-09-02 23:48:00 | 47.36517 | 19.45209 | 116° | 80km/h | 9348m | 4.6m/s | -43.1°C | 48.7% | 304.9hPa | 2.7V | 00:00:00 | 00:00:00 | 00:00:00 | |
| OM5KV | 2026-09-02 23:47:57 | 47.36544 | 19.45126 | 113° | 84km/h | 9333m | 5.5m/s | -43.0°C | 48.1% | 305.5hPa | 2.7V | 00:00:00 | 00:00:00 | 00:00:00 | |
| PETON7-10 | 2026-09-02 23:47:54 | 47.36570 | 19.45003 | 108° | 82km/h | 9309m | 6.4m/s | -42.7°C | 51.9% | 306.5hPa | 2.7V | 00:00:00 | 00:53:28 | 00:00:00 | |
| OM5KV | 2026-09-02 23:47:52 | 47.36577 | 19.44974 | 111° | 78km/h | 9302m | 6.7m/s | -42.7°C | 46.1% | 306.9hPa | 2.7V | 00:00:00 | 00:00:00 | 00:00:00 | |
| OM5KV | 2026-09-02 23:47:51 | 47.36585 | 19.44947 | 115° | 78km/h | 9296m | 3.8m/s | -42.6°C | 45.9% | 307.1hPa | 2.7V | 00:00:00 | 00:00:00 | 00:00:00 | |
| OM5KV | 2026-09-02 23:47:46 | 47.36632 | 19.44813 | 119° | 82km/h | 9267m | 4.3m/s | -42.4°C | 47.3% | 308.4hPa | 2.7V | 00:00:00 | 00:00:00 | 00:00:00 | |
| OM5KV | 2026-09-02 23:47:40 | 47.36675 | 19.44642 | 107° | 80km/h | 9238m | 5.2m/s | -42.1°C | 48.9% | 309.8hPa | 2.7V | 00:00:00 | 00:00:00 | 00:00:00 | |
| PETON7-10 | 2026-09-02 23:47:39 | 47.36687 | 19.44588 | 106° | 86km/h | 9231m | 5.1m/s | -42.0°C | 53.7% | 310.2hPa | 2.7V | 00:00:00 | 00:00:00 | 00:00:00 | |
| OM5KV | 2026-09-02 23:47:35 | 47.36703 | 19.44509 | 112° | 80km/h | 9214m | 4.0m/s | -41.9°C | 49.2% | 311.0hPa | 2.9V | 00:00:00 | 00:00:00 | 00:00:00 | |
| OM5KV | 2026-09-02 23:47:29 | 47.36760 | 19.44325 | 115° | 93km/h | 9177m | 4.7m/s | -41.6°C | 50.1% | 312.6hPa | 2.9V | 00:00:00 | 00:00:00 | 00:00:00 | |
| OM5KV | 2026-09-02 23:47:27 | 47.36779 | 19.44263 | 116° | 88km/h | 9166m | 5.3m/s | -41.5°C | 50.3% | 313.1hPa | 2.9V | 00:00:00 | 00:00:00 | 00:00:00 | |
| PETON7-10 | 2026-09-02 23:47:24 | 47.36814 | 19.44145 | 109° | 86km/h | 9143m | 7.1m/s | -41.2°C | 56.1% | 314.0hPa | 2.9V | 00:00:00 | 00:00:00 | 00:00:00 | |
| OM5KV | 2026-09-02 23:47:23 | 47.36814 | 19.44145 | 110° | 86km/h | 9143m | 7.1m/s | -41.2°C | 50.5% | 314.1hPa | 2.9V | 00:00:00 | 00:00:00 | 00:00:00 | |
| OM5KV | 2026-09-02 23:47:21 | 47.36829 | 19.44083 | 111° | 86km/h | 9129m | 5.7m/s | -41.1°C | 52.3% | 314.8hPa | 2.9V | 00:00:00 | 00:00:00 | 00:00:00 | |
| ATIDSZ-14 | 2026-09-02 23:47:19 | 47.36845 | 19.44024 | 113° | 84km/h | 9119m | 4.4m/s | -41.1°C | 53.2% | 315.3hPa | 2.9V | 00:00:00 | 00:00:00 | 00:00:00 | |
| OM5KV | 2026-09-02 23:47:15 | 47.36875 | 19.43901 | 106° | 88km/h | 9096m | 4.8m/s | -40.9°C | 51.9% | 316.3hPa | 2.9V | 00:00:00 | 00:00:00 | 00:00:00 | |
| OM5KV | 2026-09-02 23:47:13 | 47.36894 | 19.43810 | 111° | 80km/h | 9081m | 3.1m/s | -40.7°C | 52.9% | 317.1hPa | 2.9V | 00:00:00 | 00:00:00 | 00:00:00 | |
| PETON7-10 | 2026-09-02 23:47:09 | 47.36924 | 19.43695 | 113° | 80km/h | 9056m | 5.2m/s | -40.5°C | 56.9% | 318.2hPa | 2.9V | 00:00:00 | 00:52:43 | 00:00:00 | |
| OM5KV | 2026-09-02 23:47:02 | 47.36980 | 19.43522 | 115° | 71km/h | 9025m | 3.9m/s | -40.2°C | 50.9% | 319.7hPa | 2.9V | 00:00:00 | 00:00:00 | 00:00:00 | |
| OM5KV | 2026-09-02 23:47:01 | 47.36987 | 19.43498 | 115° | 69km/h | 9020m | 5.5m/s | -40.2°C | 51.3% | 320.0hPa | 2.9V | 00:00:00 | 00:00:00 | 00:00:00 | |
| GYPAP8-17 | 2026-09-02 23:47:00 | 47.36994 | 19.43474 | 112° | 71km/h | 9014m | 6.3m/s | -40.1°C | 0% | 320.3hPa | 2.9V | 00:00:00 | 00:00:00 | 00:00:00 | |
| ATIDSZ-14 | 2026-09-02 23:46:58 | 47.37010 | 19.43420 | 116° | 82km/h | 9003m | 7.0m/s | -40.0°C | 51.4% | 320.7hPa | 2.9V | 00:00:00 | 00:00:00 | 00:00:00 | |
| PETON7-10 | 2026-09-02 23:46:54 | 47.37056 | 19.43284 | 118° | 80km/h | 8972m | 7.5m/s | -39.7°C | 59.5% | 322.1hPa | 2.9V | 00:00:00 | 00:00:00 | 00:00:00 | |
| OM5KV | 2026-09-02 23:46:51 | 47.37075 | 19.43231 | 118° | 84km/h | 8961m | 3.7m/s | -39.6°C | 54.3% | 322.8hPa | 2.7V | 00:00:00 | 00:00:00 | 00:00:00 | |
| OM5KV | 2026-09-02 23:46:48 | 47.37099 | 19.43140 | 107° | 93km/h | 8943m | 5.3m/s | -39.5°C | 52.9% | 323.6hPa | 2.7V | 00:00:00 | 00:00:00 | 00:00:00 | |
| OM5KV | 2026-09-02 23:46:45 | 47.37115 | 19.43043 | 102° | 88km/h | 8930m | 3.9m/s | -39.3°C | 51.5% | 324.2hPa | 2.7V | 00:00:00 | 00:00:00 | 00:00:00 | |
| OM5KV | 2026-09-02 23:46:42 | 47.37127 | 19.42957 | 106° | 71km/h | 8913m | 5.3m/s | -39.2°C | 51.7% | 325.0hPa | 2.7V | 00:00:00 | 00:00:00 | 00:00:00 | |
| PETON7-10 | 2026-09-02 23:46:39 | 47.37155 | 19.42857 | 118° | 77km/h | 8889m | 5.3m/s | -38.9°C | 59.3% | 326.1hPa | 2.7V | 00:00:00 | 00:00:00 | 00:00:00 | |
| ATIDSZ-14 | 2026-09-02 23:46:37 | 47.37163 | 19.42832 | 117° | 73km/h | 8885m | 3.1m/s | -38.9°C | 54.3% | 326.3hPa | 2.7V | 00:00:00 | 00:00:00 | 00:00:00 | |
| OM5KV | 2026-09-02 23:46:36 | 47.37171 | 19.42808 | 116° | 73km/h | 8881m | 5.1m/s | -38.9°C | 54.2% | 326.5hPa | 2.7V | 00:00:00 | 00:00:00 | 00:00:00 | |
| OM5KV | 2026-09-02 23:46:34 | 47.37186 | 19.42757 | 114° | 77km/h | 8872m | 4.4m/s | -38.8°C | 54.6% | 326.9hPa | 2.7V | 00:00:00 | 00:00:00 | 00:00:00 | |
| OM5KV | 2026-09-02 23:46:28 | 47.37225 | 19.42586 | 107° | 82km/h | 8845m | 5.9m/s | -38.5°C | 54.0% | 328.3hPa | 2.7V | 00:00:00 | 00:00:00 | 00:00:00 | |
| OM5KV | 2026-09-02 23:46:25 | 47.37242 | 19.42506 | 113° | 68km/h | 8829m | 4.3m/s | -38.4°C | 53.7% | 329.0hPa | 2.7V | 00:00:00 | 00:00:00 | 00:00:00 | |
| PETON7-10 | 2026-09-02 23:46:24 | 47.37256 | 19.42460 | 114° | 77km/h | 8818m | 6.8m/s | -38.2°C | 58.8% | 329.3hPa | 2.7V | 00:00:00 | 00:51:58 | 00:00:00 | |
| ATIDSZ-14 | 2026-09-02 23:46:17 | 47.37309 | 19.42277 | 116° | 77km/h | 8775m | 6.4m/s | -37.9°C | 52.7% | 331.5hPa | 2.7V | 00:00:00 | 00:00:00 | 00:00:00 | |
| OM5KV | 2026-09-02 23:46:16 | 47.37309 | 19.42277 | 116° | 77km/h | 8775m | 6.4m/s | -37.9°C | 52.7% | 331.5hPa | 2.7V | 00:00:00 | 00:00:00 | 00:00:00 | |
| OM5KV | 2026-09-02 23:46:13 | 47.37331 | 19.42204 | 111° | 71km/h | 8757m | 5.7m/s | -37.7°C | 52.6% | 332.3hPa | 2.7V | 00:00:00 | 00:00:00 | 00:00:00 | |
| OM5KV | 2026-09-02 23:46:10 | 47.37350 | 19.42121 | 110° | 88km/h | 8740m | 6.0m/s | -37.5°C | 51.7% | 333.2hPa | 2.7V | 00:00:00 | 00:00:00 | 00:00:00 | |
| PETON7-10 | 2026-09-02 23:46:09 | 47.37364 | 19.42057 | 109° | 77km/h | 8728m | 4.9m/s | -37.4°C | 55.6% | 333.7hPa | 2.7V | 00:00:00 | 00:00:00 | 08:30:00 | |
| OM5KV | 2026-09-02 23:46:04 | 47.37388 | 19.41930 | 106° | 82km/h | 8706m | 5.1m/s | -37.2°C | 50.9% | 334.8hPa | 2.9V | 00:00:00 | 00:00:00 | 00:00:00 | |
| GYPAP8-17 | 2026-09-02 23:46:00 | 47.37410 | 19.41825 | 110° | 68km/h | 8683m | 3.1m/s | -37.0°C | 0% | 335.9hPa | 2.9V | 00:00:00 | 00:00:00 | 00:00:00 | |
| ATIDSZ-14 | 2026-09-02 23:45:58 | 47.37439 | 19.41729 | 117° | 77km/h | 8666m | 4.1m/s | -36.8°C | 49.3% | 336.9hPa | 2.9V | 00:00:00 | 00:00:00 | 00:00:00 | |
| PETON7-10 | 2026-09-02 23:45:54 | 47.37461 | 19.41648 | 109° | 78km/h | 8648m | 6.4m/s | -36.6°C | 53.3% | 337.7hPa | 2.9V | 00:00:00 | 00:00:00 | 00:00:00 | |
| OM5KV | 2026-09-02 23:45:51 | 47.37473 | 19.41587 | 107° | 88km/h | 8637m | 5.1m/s | -36.5°C | 49.5% | 338.3hPa | 2.9V | 00:00:00 | 00:00:00 | 00:00:00 | |
| OE3JTB-15 | 2026-09-02 23:45:44 | 47.37547 | 19.41314 | 117° | 77km/h | 8578m | 4.3m/s | -36.1°C | 64.0% | 341.1hPa | 2.9V | 00:00:00 | 00:51:16 | 00:00:00 | |
| OM5KV | 2026-09-02 23:45:40 | 47.37555 | 19.41289 | 111° | 73km/h | 8573m | 3.4m/s | -36.1°C | 59.6% | 341.3hPa | 2.9V | 00:00:00 | 00:00:00 | 00:00:00 | |
| OM5KV | 2026-09-02 23:45:39 | 47.37560 | 19.41263 | 108° | 77km/h | 8569m | 6.6m/s | -36.1°C | 60.2% | 341.6hPa | 2.9V | 00:00:00 | 00:00:00 | 00:00:00 | |
| PETON7-10 | 2026-09-02 23:45:38 | 47.37569 | 19.41207 | 101° | 80km/h | 8555m | 7.4m/s | -36.1°C | 66.8% | 342.1hPa | 2.9V | 00:00:00 | 00:51:12 | 00:00:00 | |
| ATIDSZ-14 | 2026-09-02 23:45:35 | 47.37575 | 19.41151 | 102° | 73km/h | 8540m | 6.4m/s | -36.2°C | 63.0% | 343.0hPa | 2.9V | 00:00:00 | 00:00:00 | 00:00:00 | |
| OM5KV | 2026-09-02 23:45:34 | 47.37580 | 19.41124 | 105° | 77km/h | 8534m | 4.5m/s | -36.1°C | 63.6% | 343.3hPa | 2.9V | 00:00:00 | 00:00:00 | 00:00:00 | |
| OM5KV | 2026-09-02 23:45:29 | 47.37617 | 19.40991 | 119° | 77km/h | 8510m | 3.6m/s | -35.9°C | 62.2% | 344.4hPa | 2.9V | 00:00:00 | 00:00:00 | 00:00:00 | |
| OM5KV | 2026-09-02 23:45:23 | 47.37664 | 19.40816 | 109° | 86km/h | 8476m | 7.7m/s | -35.7°C | 61.7% | 346.1hPa | 2.9V | 00:00:00 | 00:00:00 | 00:00:00 | |
| OM5KV | 2026-09-02 23:45:22 | 47.37671 | 19.40785 | 110° | 88km/h | 8469m | 6.3m/s | -35.8°C | 62.8% | 346.5hPa | 2.9V | 00:00:00 | 00:00:00 | 00:00:00 | |
| OM5KV | 2026-09-02 23:45:17 | 47.37717 | 19.40600 | 113° | 88km/h | 8433m | 4.8m/s | -35.7°C | 64.0% | 348.3hPa | 2.9V | 00:00:00 | 00:00:00 | 00:00:00 | |
| ATIDSZ-14 | 2026-09-02 23:45:14 | 47.37734 | 19.40541 | 115° | 84km/h | 8423m | 4.6m/s | -35.6°C | 65.4% | 348.8hPa | 2.9V | 00:00:00 | 00:00:00 | 00:00:00 | |
| OM5KV | 2026-09-02 23:45:11 | 47.37760 | 19.40454 | 112° | 84km/h | 8409m | 4.6m/s | -35.6°C | 70.0% | 349.5hPa | 2.9V | 00:00:00 | 00:00:00 | 00:00:00 | |
| OM5KV | 2026-09-02 23:45:10 | 47.37767 | 19.40425 | 110° | 82km/h | 8404m | 5.1m/s | -35.5°C | 70.3% | 349.8hPa | 2.9V | 00:00:00 | 00:00:00 | 00:00:00 | |
| OM5KV | 2026-09-02 23:45:06 | 47.37806 | 19.40290 | 113° | 71km/h | 8378m | 2.8m/s | -35.3°C | 71.9% | 351.1hPa | 2.9V | 00:00:00 | 00:00:00 | 00:00:00 | |
| OM5KV | 2026-09-02 23:45:05 | 47.37813 | 19.40265 | 115° | 75km/h | 8374m | 5.1m/s | -35.3°C | 71.4% | 351.3hPa | 2.9V | 00:00:00 | 00:00:00 | 00:00:00 | |
| GYPAP8-17 | 2026-09-02 23:44:55 | 47.37880 | 19.40014 | 105° | 84km/h | 8327m | 5.0m/s | -34.9°C | 0% | 353.7hPa | 2.9V | 00:00:00 | 00:00:00 | 00:00:00 | |
| ATIDSZ-14 | 2026-09-02 23:44:54 | 47.37884 | 19.39983 | 103° | 86km/h | 8323m | 3.3m/s | -34.9°C | 74.9% | 353.9hPa | 2.9V | 00:00:00 | 00:00:00 | 00:00:00 | |
| OM5KV | 2026-09-02 23:44:48 | 47.37925 | 19.39808 | 117° | 89km/h | 8288m | 6.1m/s | -34.5°C | 72.5% | 355.7hPa | 2.9V | 00:00:00 | 00:00:00 | 00:00:00 | |
| OM5KV | 2026-09-02 23:44:42 | 47.37985 | 19.39628 | 118° | 88km/h | 8250m | 5.7m/s | -34.2°C | 73.0% | 357.6hPa | 2.9V | 00:00:00 | 00:00:00 | 00:00:00 | |
| OM5KV | 2026-09-02 23:44:41 | 47.37995 | 19.39599 | 117° | 84km/h | 8245m | 5.6m/s | -34.2°C | 73.3% | 357.9hPa | 2.9V | 00:00:00 | 00:00:00 | 00:00:00 | |
| ATIDSZ-14 | 2026-09-02 23:44:33 | 47.38049 | 19.39381 | 115° | 80km/h | 8208m | 5.2m/s | -33.9°C | 75.3% | 359.8hPa | 2.9V | 00:00:00 | 00:00:00 | 00:00:00 | |
| OM5KV | 2026-09-02 23:44:31 | 47.38069 | 19.39322 | 118° | 89km/h | 8198m | 7.4m/s | -33.8°C | 73.8% | 360.3hPa | 2.9V | 00:00:00 | 00:00:00 | 00:00:00 | |
| PETON7-10 | 2026-09-02 23:44:27 | 47.38112 | 19.39182 | 108° | 80km/h | 8163m | 4.8m/s | -33.5°C | 81.6% | 361.9hPa | 2.9V | 00:00:00 | 00:00:00 | 00:00:00 | |
| OM5KV | 2026-09-02 23:44:24 | 47.38123 | 19.39127 | 110° | 84km/h | 8153m | 4.0m/s | -33.4°C | 77.3% | 362.5hPa | 2.9V | 00:00:00 | 00:00:00 | 00:00:00 | |
| ATIDSZ-14 | 2026-09-02 23:44:13 | 47.38225 | 19.38825 | 124° | 68km/h | 8101m | 4.0m/s | -33.0°C | 78.6% | 365.2hPa | 2.9V | 00:00:00 | 00:00:00 | 00:00:00 | |
| PETON7-10 | 2026-09-02 23:44:12 | 47.38242 | 19.38778 | 113° | 84km/h | 8093m | 4.0m/s | -32.9°C | 84.8% | 365.6hPa | 2.9V | 00:00:00 | 00:00:00 | 00:00:00 | |
| OM5KV | 2026-09-02 23:44:06 | 47.38275 | 19.38625 | 110° | 89km/h | 8061m | 5.8m/s | -32.6°C | 77.5% | 367.4hPa | 2.9V | 00:00:00 | 00:00:00 | 00:00:00 | |
| OM5KV | 2026-09-02 23:44:02 | 47.38312 | 19.38508 | 124° | 84km/h | 8033m | 4.4m/s | -32.4°C | 77.1% | 368.6hPa | 2.9V | 00:00:00 | 00:00:00 | 00:00:00 | |
| OM5KV | 2026-09-02 23:43:59 | 47.38345 | 19.38433 | 123° | 78km/h | 8020m | 4.3m/s | -32.3°C | 77.0% | 369.5hPa | 2.9V | 00:00:00 | 00:00:00 | 00:00:00 | |
| PETON7-10 | 2026-09-02 23:43:56 | 47.38389 | 19.38329 | 123° | 84km/h | 7995m | 7.6m/s | -32.0°C | 77.9% | 370.6hPa | 2.9V | 00:00:00 | 00:49:30 | 00:00:00 | |
| ATIDSZ-14 | 2026-09-02 23:43:53 | 47.38411 | 19.38276 | 122° | 84km/h | 7982m | 5.7m/s | -32.0°C | 72.3% | 371.4hPa | 2.9V | 00:00:00 | 00:00:00 | 00:00:00 | |
| OM5KV | 2026-09-02 23:43:49 | 47.38451 | 19.38173 | 117° | 80km/h | 7960m | 4.9m/s | -31.8°C | 73.7% | 372.7hPa | 2.9V | 00:00:00 | 00:00:00 | 00:00:00 | |
| OM5KV | 2026-09-02 23:43:46 | 47.38476 | 19.38090 | 116° | 84km/h | 7946m | 5.6m/s | -31.7°C | 72.9% | 373.4hPa | 2.9V | 00:00:00 | 00:00:00 | 00:00:00 | |
| PETON7-10 | 2026-09-02 23:43:41 | 47.38525 | 19.37910 | 116° | 80km/h | 7917m | 5.6m/s | -31.4°C | 76.4% | 374.9hPa | 2.9V | 00:00:00 | 00:00:00 | 00:00:00 | |
| OM5KV | 2026-09-02 23:43:40 | 47.38526 | 19.37910 | 116° | 86km/h | 7917m | 5.6m/s | -31.5°C | 71.5% | 374.9hPa | 2.9V | 00:00:00 | 00:00:00 | 00:00:00 | |
| OM5KV | 2026-09-02 23:43:37 | 47.38556 | 19.37832 | 123° | 75km/h | 7903m | 6.3m/s | -31.4°C | 71.7% | 375.6hPa | 2.9V | 00:00:00 | 00:00:00 | 00:00:00 | |
| OM5KV | 2026-09-02 23:43:34 | 47.38582 | 19.37758 | 114° | 77km/h | 7887m | 5.5m/s | -31.3°C | 72.7% | 376.5hPa | 2.9V | 00:00:00 | 00:00:00 | 00:00:00 | |
| ATIDSZ-14 | 2026-09-02 23:43:32 | 47.38600 | 19.37705 | 119° | 78km/h | 7871m | 7.5m/s | -31.2°C | 72.0% | 377.3hPa | 2.9V | 00:00:00 | 00:00:00 | 00:00:00 | |
| OM5KV | 2026-09-02 23:43:30 | 47.38620 | 19.37650 | 120° | 89km/h | 7857m | 5.7m/s | -31.1°C | 71.1% | 377.9hPa | 2.9V | 00:00:00 | 00:00:00 | 00:00:00 | |
| GYPAP8-17 | 2026-09-02 23:43:28 | 47.38641 | 19.37589 | 116° | 91km/h | 7849m | 3.2m/s | -31.1°C | 0% | 378.5hPa | 2.9V | 00:00:00 | 00:00:00 | 00:00:00 | |
| PETON7-10 | 2026-09-02 23:43:26 | 47.38667 | 19.37506 | 114° | 71km/h | 7835m | 5.4m/s | -31.0°C | 75.3% | 379.3hPa | 2.9V | 00:00:00 | 00:00:00 | 00:00:00 | |
| OM5KV | 2026-09-02 23:43:24 | 47.38673 | 19.37482 | 112° | 66km/h | 7829m | 6.1m/s | -31.0°C | 69.9% | 379.5hPa | 2.9V | 00:00:00 | 00:00:00 | 00:00:00 | |
| OM5KV | 2026-09-02 23:43:23 | 47.38678 | 19.37459 | 107° | 66km/h | 7823m | 7.1m/s | -31.0°C | 69.9% | 379.9hPa | 2.9V | 00:00:00 | 00:00:00 | 00:00:00 | |
| OM5KV | 2026-09-02 23:43:18 | 47.38707 | 19.37327 | 118° | 77km/h | 7797m | 6.0m/s | -30.8°C | 74.4% | 381.3hPa | 2.9V | 00:00:00 | 00:00:00 | 00:00:00 | |
| OM5KV | 2026-09-02 23:43:17 | 47.38717 | 19.37301 | 123° | 78km/h | 7791m | 4.8m/s | -30.7°C | 74.5% | 381.5hPa | 2.9V | 00:00:00 | 00:00:00 | 00:00:00 | |
| OM5KV | 2026-09-02 23:43:12 | 47.38761 | 19.37184 | 111° | 66km/h | 7766m | 5.5m/s | -30.4°C | 73.7% | 383.0hPa | 2.9V | 00:00:00 | 00:00:00 | 00:00:00 | |
| PETON7-10 | 2026-09-02 23:43:11 | 47.38772 | 19.37139 | 115° | 68km/h | 7753m | 9.1m/s | -30.3°C | 80.5% | 383.5hPa | 2.9V | 00:00:00 | 00:48:45 | 00:00:00 | |
| OM5KV | 2026-09-02 23:43:01 | 47.38863 | 19.36953 | 124° | 69km/h | 7704m | 5.4m/s | -29.9°C | 77.0% | 386.2hPa | 2.9V | 00:00:00 | 00:00:00 | 00:00:00 | |
| OM5KV | 2026-09-02 23:43:00 | 47.38873 | 19.36931 | 121° | 71km/h | 7698m | 6.0m/s | -29.9°C | 77.1% | 386.6hPa | 2.9V | 00:00:00 | 00:00:00 | 00:00:00 | |
| PETON7-10 | 2026-09-02 23:42:56 | 47.38903 | 19.36823 | 112° | 66km/h | 7669m | 3.9m/s | -29.6°C | 83.8% | 388.1hPa | 2.9V | 00:00:00 | 00:00:00 | 08:30:00 | |
| OM5KV | 2026-09-02 23:42:55 | 47.38903 | 19.36823 | 112° | 58km/h | 7669m | 3.9m/s | -29.7°C | 78.9% | 388.1hPa | 2.9V | 00:00:00 | 00:00:00 | 00:00:00 | |
| OM5KV | 2026-09-02 23:42:54 | 47.38909 | 19.36803 | 113° | 57km/h | 7665m | 4.7m/s | -29.6°C | 79.7% | 388.3hPa | 2.9V | 00:00:00 | 00:00:00 | 00:00:00 | |
| ATIDSZ-14 | 2026-09-02 23:42:51 | 47.38933 | 19.36742 | 125° | 66km/h | 7651m | 5.7m/s | -29.5°C | 78.1% | 389.0hPa | 2.9V | 00:00:00 | 00:00:00 | 00:00:00 | |
| OM5KV | 2026-09-02 23:42:48 | 47.38957 | 19.36682 | 115° | 62km/h | 7628m | 5.7m/s | -29.3°C | 77.9% | 390.2hPa | 2.9V | 00:00:00 | 00:00:00 | 00:00:00 | |
| OM5KV | 2026-09-02 23:42:47 | 47.38963 | 19.36660 | 110° | 64km/h | 7622m | 6.6m/s | -29.2°C | 77.3% | 390.6hPa | 2.9V | 00:00:00 | 00:00:00 | 00:00:00 | |
| PETON7-10 | 2026-09-02 23:42:41 | 47.39006 | 19.36490 | 112° | 62km/h | 7583m | 5.8m/s | -28.9°C | 82.5% | 392.9hPa | 2.9V | 00:00:00 | 00:00:00 | 00:00:00 | |
| GYPAP8-17 | 2026-09-02 23:42:32 | 47.39065 | 19.36326 | 117° | 69km/h | 7538m | 6.8m/s | -28.5°C | 0% | 395.3hPa | 2.9V | 00:00:00 | 00:00:00 | 00:00:00 | |
| ATIDSZ-14 | 2026-09-02 23:42:30 | 47.39081 | 19.36282 | 120° | 66km/h | 7527m | 3.7m/s | -28.4°C | 77.1% | 396.0hPa | 2.9V | 00:00:00 | 00:00:00 | 00:00:00 | |
| OM5KV | 2026-09-02 23:42:29 | 47.39088 | 19.36260 | 117° | 62km/h | 7522m | 4.9m/s | -28.4°C | 76.4% | 396.1hPa | 2.9V | 00:00:00 | 00:00:00 | 00:00:00 | |
| PETON7-10 | 2026-09-02 23:42:26 | 47.39105 | 19.36170 | 103° | 69km/h | 7504m | 5.0m/s | -28.2°C | 80.7% | 397.0hPa | 2.9V | 00:00:00 | 00:48:00 | 00:00:00 | |
| OM5KV | 2026-09-02 23:42:25 | 47.39105 | 19.36170 | 104° | 66km/h | 7504m | 5.1m/s | -28.2°C | 76.2% | 397.1hPa | 2.9V | 00:00:00 | 00:00:00 | 00:00:00 | |
| OM5KV | 2026-09-02 23:42:22 | 47.39121 | 19.36090 | 111° | 78km/h | 7493m | 4.5m/s | -28.1°C | 75.0% | 397.7hPa | 2.9V | 00:00:00 | 00:00:00 | 00:00:00 | |
| OM5KV | 2026-09-02 23:42:16 | 47.39162 | 19.35934 | 115° | 64km/h | 7458m | 5.9m/s | -27.9°C | 81.8% | 399.7hPa | 2.9V | 00:00:00 | 00:00:00 | 00:00:00 | |
| GYPAP8-17 | 2026-09-02 23:42:13 | 47.39181 | 19.35845 | 107° | 64km/h | 7436m | 5.0m/s | -27.7°C | 0% | 401.0hPa | 2.9V | 00:00:00 | 00:00:00 | 00:00:00 | |
| PETON7-10 | 2026-09-02 23:42:11 | 47.39193 | 19.35799 | 118° | 68km/h | 7425m | 4.7m/s | -27.6°C | 86.7% | 401.6hPa | 2.9V | 00:00:00 | 00:00:00 | 00:00:00 | |
| OM5KV | 2026-09-02 23:42:10 | 47.39193 | 19.35799 | 119° | 68km/h | 7425m | 4.8m/s | -27.6°C | 82.0% | 401.6hPa | 2.9V | 00:00:00 | 00:00:00 | 00:00:00 | |
| ATIDSZ-14 | 2026-09-02 23:42:09 | 47.39202 | 19.35777 | 123° | 68km/h | 7420m | 5.3m/s | -27.6°C | 81.1% | 401.8hPa | 2.9V | 00:00:00 | 00:00:00 | 00:00:00 | |
| OM5KV | 2026-09-02 23:42:04 | 47.39244 | 19.35668 | 114° | 69km/h | 7389m | 5.8m/s | -27.4°C | 83.7% | 403.5hPa | 2.9V | 00:00:00 | 00:00:00 | 00:00:00 | |
| OM5KV | 2026-09-02 23:41:57 | 47.39284 | 19.35497 | 105° | 64km/h | 7354m | 5.3m/s | -27.1°C | 84.2% | 405.5hPa | 2.9V | 00:00:00 | 00:00:00 | 00:00:00 | |
| PETON7-10 | 2026-09-02 23:41:56 | 47.39292 | 19.35452 | 105° | 64km/h | 7345m | 5.5m/s | 0°C | 0% | 0hPa | 2.9V | 00:00:00 | 00:00:00 | 00:00:00 | |
| OM5KV | 2026-09-02 23:41:52 | 47.39307 | 19.35388 | 110° | 62km/h | 7331m | 5.7m/s | -26.8°C | 83.9% | 406.9hPa | 2.9V | 00:00:00 | 00:00:00 | 00:00:00 | |
| OM5KV | 2026-09-02 23:41:51 | 47.39312 | 19.35366 | 106° | 62km/h | 7326m | 6.3m/s | -26.8°C | 84.5% | 407.3hPa | 2.9V | 00:00:00 | 00:00:00 | 00:00:00 | |
| ATIDSZ-14 | 2026-09-02 23:41:49 | 47.39321 | 19.35320 | 109° | 68km/h | 7315m | 5.4m/s | -26.7°C | 85.8% | 407.9hPa | 2.9V | 00:00:00 | 00:00:00 | 00:00:00 | |
| OM5KV | 2026-09-02 23:41:46 | 47.39335 | 19.35246 | 100° | 71km/h | 7301m | 5.0m/s | -26.6°C | 85.2% | 408.6hPa | 2.9V | 00:00:00 | 00:00:00 | 00:00:00 | |
| OM5KV | 2026-09-02 23:41:45 | 47.39338 | 19.35219 | 100° | 71km/h | 7296m | 3.7m/s | -26.6°C | 85.9% | 408.8hPa | 2.9V | 00:00:00 | 00:00:00 | 00:00:00 | |
| PETON7-10 | 2026-09-02 23:41:41 | 47.39358 | 19.35104 | 109° | 66km/h | 7270m | 6.2m/s | 0°C | 0% | 0hPa | 2.9V | 00:00:00 | 00:47:15 | 00:00:00 | |
| OM5KV | 2026-09-02 23:41:36 | 47.39381 | 19.35014 | 114° | 77km/h | 7248m | 5.9m/s | -26.3°C | 87.8% | 411.6hPa | 2.9V | 00:00:00 | 00:00:00 | 00:00:00 | |
| OM5KV | 2026-09-02 23:41:30 | 47.39430 | 19.34858 | 111° | 66km/h | 7220m | 5.4m/s | -26.1°C | 88.3% | 413.0hPa | 2.9V | 00:00:00 | 00:00:00 | 00:00:00 | |
| OM5KV | 2026-09-02 23:41:28 | 47.39438 | 19.34816 | 105° | 55km/h | 7207m | 6.2m/s | -26.0°C | 86.5% | 413.6hPa | 2.9V | 00:00:00 | 00:00:00 | 00:00:00 | |
| PETON7-10 | 2026-09-02 23:41:26 | 47.39449 | 19.34760 | 108° | 58km/h | 7190m | 4.5m/s | 0°C | 0% | 0hPa | 2.9V | 00:00:00 | 00:00:00 | 00:00:00 | |
| OM5KV | 2026-09-02 23:41:19 | 47.39480 | 19.34624 | 103° | 62km/h | 7160m | 3.8m/s | -25.5°C | 83.9% | 416.6hPa | 2.9V | 00:00:00 | 00:00:00 | 00:00:00 | |
| OM5KV | 2026-09-02 23:41:13 | 47.39494 | 19.34505 | 109° | 53km/h | 7132m | 4.8m/s | -25.2°C | 83.0% | 418.2hPa | 2.9V | 00:00:00 | 00:00:00 | 00:00:00 | |
| OM5KV | 2026-09-02 23:41:12 | 47.39499 | 19.34486 | 109° | 57km/h | 7127m | 5.4m/s | -25.2°C | 83.2% | 418.4hPa | 2.9V | 00:00:00 | 00:00:00 | 00:00:00 | |
| PETON7-10 | 2026-09-02 23:41:11 | 47.39508 | 19.34442 | 108° | 62km/h | 7119m | 4.9m/s | 0°C | 0% | 0hPa | 2.9V | 00:00:00 | 00:00:00 | 00:00:00 | |
| GYPAP8-17 | 2026-09-02 23:41:09 | 47.39512 | 19.34420 | 111° | 62km/h | 7114m | 4.0m/s | 0°C | 0% | 419.3hPa | 2.9V | 00:00:00 | 00:00:00 | 00:00:00 | |
| ATIDSZ-14 | 2026-09-02 23:41:08 | 47.39518 | 19.34399 | 112° | 58km/h | 7110m | 5.4m/s | -25.0°C | 83.6% | 419.6hPa | 2.9V | 00:00:00 | 00:00:00 | 00:00:00 | |
| OM5KV | 2026-09-02 23:41:01 | 47.39576 | 19.34255 | 122° | 69km/h | 7079m | 5.1m/s | -24.7°C | 80.6% | 421.4hPa | 2.9V | 00:00:00 | 00:00:00 | 00:00:00 | |
| OE3JTB-15 | 2026-09-02 23:41:00 | 47.39593 | 19.34212 | 121° | 55km/h | 7067m | 6.8m/s | -24.6°C | 83.7% | 422.0hPa | 2.9V | 00:00:00 | 00:00:00 | 00:00:00 | |
| PETON7-10 | 2026-09-02 23:40:56 | 47.39610 | 19.34142 | 96° | 60km/h | 7044m | 5.7m/s | 0°C | 0% | 0hPa | 0V | 00:00:00 | 00:46:30 | 00:00:00 | |
| OM5KV | 2026-09-02 23:40:50 | 47.39632 | 19.34033 | 112° | 62km/h | 7016m | 5.8m/s | -24.2°C | 76.4% | 425.0hPa | 0V | 00:00:00 | 00:00:00 | 00:00:00 | |
| ATIDSZ-14 | 2026-09-02 23:40:48 | 47.39640 | 19.33990 | 99° | 58km/h | 7002m | 6.8m/s | -24.1°C | 75.2% | 425.8hPa | 0V | 00:00:00 | 00:00:00 | 00:00:00 | |
| OM5KV | 2026-09-02 23:40:45 | 47.39641 | 19.33924 | 94° | 57km/h | 6985m | 6.2m/s | -23.9°C | 74.6% | 426.9hPa | 0V | 00:00:00 | 00:00:00 | 00:00:00 | |
| PETON7-10 | 2026-09-02 23:40:41 | 47.39667 | 19.33817 | 116° | 58km/h | 6956m | 4.7m/s | 0°C | 0% | 0hPa | 0V | 00:00:00 | 00:00:00 | 00:00:00 | |
| OM5KV | 2026-09-02 23:40:39 | 47.39678 | 19.33775 | 106° | 58km/h | 6946m | 4.4m/s | -23.7°C | 78.4% | 429.2hPa | 0V | 00:00:00 | 00:00:00 | 00:00:00 | |
| OM5KV | 2026-09-02 23:40:33 | 47.39692 | 19.33680 | 115° | 46km/h | 6915m | 4.9m/s | -23.4°C | 79.0% | 430.9hPa | 0V | 00:00:00 | 00:00:00 | 00:00:00 | |
| OM5KV | 2026-09-02 23:40:28 | 47.39720 | 19.33600 | 115° | 53km/h | 6884m | 6.8m/s | -23.2°C | 78.7% | 432.7hPa | 0V | 00:00:00 | 00:00:00 | 00:00:00 | |
| OE3JTB-15 | 2026-09-02 23:40:27 | 47.39730 | 19.33562 | 110° | 57km/h | 6874m | 4.8m/s | 0°C | 0% | 0hPa | 0V | 00:00:00 | 00:00:00 | 00:00:00 | |
| OM5KV | 2026-09-02 23:40:26 | 47.39730 | 19.33562 | 111° | 53km/h | 6874m | 4.9m/s | -23.1°C | 78.2% | 433.3hPa | 0V | 00:00:00 | 00:00:00 | 00:00:00 | |
| OM5KV | 2026-09-02 23:40:17 | 47.39781 | 19.33388 | 103° | 68km/h | 6823m | 7.5m/s | -22.6°C | 73.6% | 436.3hPa | 0V | 00:00:00 | 00:00:00 | 00:00:00 | |
| OM5KV | 2026-09-02 23:40:15 | 47.39788 | 19.33342 | 104° | 57km/h | 6809m | 6.5m/s | -22.5°C | 73.8% | 437.1hPa | 0V | 00:00:00 | 00:00:00 | 00:00:00 | |
| OM5KV | 2026-09-02 23:40:11 | 47.39802 | 19.33274 | 108° | 46km/h | 6784m | 6.0m/s | -22.4°C | 74.9% | 438.6hPa | 0V | 00:00:00 | 00:00:00 | 00:00:00 | |
| ATIDSZ-14 | 2026-09-02 23:40:08 | 47.39819 | 19.33199 | 113° | 58km/h | 6764m | 5.8m/s | -22.3°C | 76.9% | 439.7hPa | 0V | 00:00:00 | 00:00:00 | 00:00:00 | |
| OM5KV | 2026-09-02 23:40:05 | 47.39829 | 19.33156 | 110° | 64km/h | 6755m | 4.7m/s | -22.2°C | 77.2% | 440.2hPa | 0V | 00:00:00 | 00:00:00 | 00:00:00 | |
| OM5KV | 2026-09-02 23:40:03 | 47.39838 | 19.33110 | 103° | 68km/h | 6745m | 2.5m/s | -22.1°C | 77.0% | 440.8hPa | 0V | 00:00:00 | 00:00:00 | 00:00:00 | |
| GYPAP8-17 | 2026-09-02 23:40:00 | 47.39857 | 19.33020 | 118° | 55km/h | 6727m | 3.9m/s | 0°C | 0% | 0hPa | 0V | 00:00:00 | 00:00:00 | 00:00:00 | |
| OE3JTB-15 | 2026-09-02 23:39:58 | 47.39870 | 19.32989 | 124° | 37km/h | 6714m | 9.0m/s | 0°C | 0% | 0hPa | 0V | 00:00:00 | 00:45:32 | 00:00:00 | |
| OM5KV | 2026-09-02 23:39:53 | 47.39882 | 19.32939 | 101° | 37km/h | 6688m | 5.7m/s | -21.6°C | 76.9% | 444.2hPa | 0V | 00:00:00 | 00:00:00 | 00:00:00 | |
| OM5KV | 2026-09-02 23:39:52 | 47.39884 | 19.32925 | 104° | 40km/h | 6682m | 6.2m/s | -21.5°C | 77.9% | 444.5hPa | 0V | 00:00:00 | 00:00:00 | 00:00:00 | |
| OM5KV | 2026-09-02 23:39:47 | 47.39906 | 19.32824 | 112° | 60km/h | 6653m | 8.1m/s | -21.3°C | 82.2% | 446.4hPa | 0V | 00:00:00 | 00:00:00 | 00:00:00 | |
| OM5KV | 2026-09-02 23:39:46 | 47.39911 | 19.32804 | 113° | 53km/h | 6646m | 6.4m/s | -21.3°C | 82.2% | 446.9hPa | 0V | 00:00:00 | 00:00:00 | 00:00:00 | |
| OM5KV | 2026-09-02 23:39:42 | 47.39930 | 19.32727 | 102° | 60km/h | 6621m | 5.5m/s | -21.1°C | 79.6% | 448.4hPa | 0V | 00:00:00 | 00:00:00 | 00:00:00 | |
| OM5KV | 2026-09-02 23:39:40 | 47.39933 | 19.32684 | 94° | 57km/h | 6610m | 3.9m/s | -21.0°C | 79.3% | 449.1hPa | 0V | 00:00:00 | 00:00:00 | 00:00:00 | |
| OM5KV | 2026-09-02 23:39:34 | 47.39948 | 19.32567 | 106° | 57km/h | 6581m | 7.3m/s | -20.8°C | 79.6% | 450.7hPa | 0V | 00:00:00 | 00:00:00 | 00:00:00 | |
| OM5KV | 2026-09-02 23:39:31 | 47.39950 | 19.32506 | 86° | 58km/h | 6558m | 8.6m/s | -20.6°C | 82.4% | 452.0hPa | 0V | 00:00:00 | 00:00:00 | 00:00:00 | |
| OM5KV | 2026-09-02 23:39:28 | 47.39944 | 19.32445 | 85° | 53km/h | 6540m | 5.1m/s | -20.5°C | 83.0% | 453.1hPa | 0V | 00:00:00 | 00:00:00 | 00:00:00 | |
| ATIDSZ-14 | 2026-09-02 23:39:26 | 47.39942 | 19.32409 | 87° | 44km/h | 6529m | 5.9m/s | -20.4°C | 82.8% | 453.9hPa | 0V | 00:00:00 | 00:00:00 | 00:00:00 | |
| OM5KV | 2026-09-02 23:39:25 | 47.39942 | 19.32394 | 93° | 40km/h | 6523m | 5.3m/s | -20.4°C | 82.2% | 454.2hPa | 0V | 00:00:00 | 00:00:00 | 00:00:00 | |
| OM5KV | 2026-09-02 23:39:23 | 47.39946 | 19.32363 | 107° | 42km/h | 6514m | 7.0m/s | -20.3°C | 81.4% | 454.9hPa | 0V | 00:00:00 | 00:00:00 | 00:00:00 | |
| OM5KV | 2026-09-02 23:39:17 | 47.39969 | 19.32273 | 112° | 33km/h | 6478m | 3.9m/s | -19.9°C | 78.3% | 457.0hPa | 0V | 00:00:00 | 00:00:00 | 00:00:00 | |
| OE3JTB-15 | 2026-09-02 23:39:12 | 47.39976 | 19.32178 | 95° | 49km/h | 6447m | 6.5m/s | 0°C | 0% | 0hPa | 0V | 00:00:00 | 00:00:00 | 00:00:00 | |
| OM5KV | 2026-09-02 23:39:09 | 47.39981 | 19.32135 | 105° | 57km/h | 6434m | 5.2m/s | -19.6°C | 76.9% | 459.6hPa | 0V | 00:00:00 | 00:00:00 | 00:00:00 | |
| ATIDSZ-14 | 2026-09-02 23:39:05 | 47.39996 | 19.32068 | 108° | 46km/h | 6414m | 7.6m/s | -19.4°C | 75.0% | 460.7hPa | 0V | 00:00:00 | 00:00:00 | 00:00:00 | |
| OM5KV | 2026-09-02 23:39:03 | 47.40000 | 19.32032 | 96° | 55km/h | 6402m | 4.0m/s | -19.3°C | 74.2% | 461.6hPa | 0V | 00:00:00 | 00:00:00 | 00:00:00 | |
| OM5KV | 2026-09-02 23:38:57 | 47.40011 | 19.31919 | 98° | 47km/h | 6363m | 6.9m/s | -19.0°C | 72.1% | 463.9hPa | 0V | 00:00:00 | 00:00:00 | 00:00:00 | |
| OM5KV | 2026-09-02 23:38:56 | 47.40012 | 19.31901 | 92° | 47km/h | 6358m | 4.5m/s | -18.9°C | 72.7% | 464.3hPa | 0V | 00:00:00 | 00:00:00 | 00:00:00 | |
| OM5KV | 2026-09-02 23:38:50 | 47.40024 | 19.31809 | 117° | 46km/h | 6329m | 4.2m/s | -18.7°C | 73.1% | 466.2hPa | 0V | 00:00:00 | 00:00:00 | 00:00:00 | |
| OM5KV | 2026-09-02 23:38:46 | 47.40043 | 19.31752 | 111° | 46km/h | 6313m | 5.2m/s | -18.7°C | 76.5% | 467.2hPa | 0V | 00:00:00 | 00:00:00 | 00:00:00 | |
| OM5KV | 2026-09-02 23:38:45 | 47.40046 | 19.31735 | 102° | 47km/h | 6307m | 5.0m/s | -18.6°C | 76.6% | 467.6hPa | 0V | 00:00:00 | 00:00:00 | 00:00:00 | |
| ATIDSZ-14 | 2026-09-02 23:38:44 | 47.40048 | 19.31718 | 97° | 49km/h | 6301m | 7.5m/s | -18.6°C | 75.9% | 468.0hPa | 0V | 00:00:00 | 00:00:00 | 00:00:00 | |
| OM5KV | 2026-09-02 23:38:39 | 47.40044 | 19.31629 | 89° | 40km/h | 6268m | 5.1m/s | -18.3°C | 75.4% | 469.9hPa | 0V | 00:00:00 | 00:00:00 | 00:00:00 | |
| OM5KV | 2026-09-02 23:38:34 | 47.40045 | 19.31554 | 87° | 42km/h | 6234m | 6.4m/s | -18.3°C | 76.5% | 472.1hPa | 0V | 00:00:00 | 00:00:00 | 00:00:00 | |
| OM5KV | 2026-09-02 23:38:27 | 47.40050 | 19.31433 | 93° | 49km/h | 6201m | 5.1m/s | -18.0°C | 74.8% | 474.4hPa | 0V | 00:00:00 | 00:00:00 | 00:00:00 | |
| ATIDSZ-14 | 2026-09-02 23:38:23 | 47.40048 | 19.31376 | 94° | 35km/h | 6178m | 6.7m/s | -17.9°C | 74.4% | 475.8hPa | 0V | 00:00:00 | 00:00:00 | 00:00:00 | |
| OM5KV | 2026-09-02 23:38:22 | 47.40050 | 19.31363 | 109° | 37km/h | 6171m | 5.8m/s | -17.9°C | 74.8% | 476.2hPa | 0V | 00:00:00 | 00:00:00 | 00:00:00 | |
| OM5KV | 2026-09-02 23:38:16 | 47.40068 | 19.31283 | 95° | 38km/h | 6142m | 4.8m/s | -17.9°C | 73.9% | 478.0hPa | 0V | 00:00:00 | 00:00:00 | 00:00:00 | |
| OM5KV | 2026-09-02 23:38:15 | 47.40069 | 19.31268 | 98° | 42km/h | 6136m | 7.0m/s | -17.8°C | 73.6% | 478.4hPa | 0V | 00:00:00 | 00:00:00 | 00:00:00 | |
| OM5KV | 2026-09-02 23:38:09 | 47.40086 | 19.31152 | 100° | 55km/h | 6104m | 5.3m/s | -17.6°C | 73.6% | 480.5hPa | 0V | 00:00:00 | 00:00:00 | 00:00:00 | |
| ATIDSZ-14 | 2026-09-02 23:38:03 | 47.40080 | 19.31040 | 85° | 46km/h | 6069m | 7.3m/s | -17.5°C | 77.6% | 482.7hPa | 0V | 00:00:00 | 00:00:00 | 00:00:00 | |
| OM5KV | 2026-09-02 23:37:58 | 47.40083 | 19.30952 | 98° | 64km/h | 6046m | 7.0m/s | -17.7°C | 81.5% | 484.3hPa | 0V | 00:00:00 | 00:00:00 | 00:00:00 | |
| GYPAP8-17 | 2026-09-02 23:37:54 | 47.40088 | 19.30860 | 93° | 55km/h | 6023m | 6.0m/s | 0°C | 0% | 0hPa | 0V | 00:00:00 | 00:00:00 | 00:00:00 | |
| OM5KV | 2026-09-02 23:37:52 | 47.40091 | 19.30823 | 102° | 46km/h | 6011m | 5.9m/s | -17.5°C | 78.5% | 486.6hPa | 0V | 00:00:00 | 00:00:00 | 00:00:00 | |
| OM5KV | 2026-09-02 23:37:51 | 47.40093 | 19.30807 | 103° | 42km/h | 6006m | 4.7m/s | -17.5°C | 77.9% | 486.8hPa | 0V | 00:00:00 | 00:00:00 | 00:00:00 | |
| ATIDSZ-14 | 2026-09-02 23:37:41 | 47.40103 | 19.30621 | 102° | 40km/h | 5944m | 5.7m/s | -17.0°C | 67.3% | 490.9hPa | 0V | 00:00:00 | 00:00:00 | 00:00:00 | |
| OM5KV | 2026-09-02 23:37:40 | 47.40105 | 19.30606 | 106° | 42km/h | 5939m | 6.0m/s | -16.9°C | 67.2% | 491.2hPa | 0V | 00:00:00 | 00:00:00 | 00:00:00 | |
| OM5KV | 2026-09-02 23:37:34 | 47.40129 | 19.30496 | 102° | 53km/h | 5904m | 5.1m/s | -16.7°C | 64.6% | 493.4hPa | 0V | 00:00:00 | 00:00:00 | 00:00:00 | |
| OM5KV | 2026-09-02 23:37:28 | 47.40141 | 19.30393 | 105° | 47km/h | 5869m | 5.5m/s | -16.4°C | 63.7% | 495.9hPa | 0V | 00:00:00 | 00:00:00 | 00:00:00 | |
| OM5KV | 2026-09-02 23:37:23 | 47.40150 | 19.30294 | 87° | 57km/h | 5846m | 5.1m/s | -16.2°C | 63.9% | 497.3hPa | 0V | 00:00:00 | 00:00:00 | 00:00:00 | |
| ATIDSZ-14 | 2026-09-02 23:37:21 | 47.40147 | 19.30253 | 87° | 57km/h | 5835m | 6.7m/s | -16.1°C | 62.5% | 498.1hPa | 0V | 00:00:00 | 00:00:00 | 00:00:00 | |
| OM5KV | 2026-09-02 23:37:17 | 47.40153 | 19.30159 | 103° | 68km/h | 5812m | 7.0m/s | -16.0°C | 58.8% | 499.5hPa | 0V | 00:00:00 | 00:00:00 | 00:00:00 | |
| OM5KV | 2026-09-02 23:37:11 | 47.40169 | 19.30050 | 95° | 33km/h | 5777m | 7.2m/s | -15.9°C | 58.1% | 501.8hPa | 0V | 00:00:00 | 00:00:00 | 00:00:00 | |
| OM5KV | 2026-09-02 23:37:06 | 47.40172 | 19.29983 | 101° | 38km/h | 5754m | 6.4m/s | -15.7°C | 55.3% | 503.5hPa | 0V | 00:00:00 | 00:00:00 | 00:00:00 | |
| OM5KV | 2026-09-02 23:37:05 | 47.40174 | 19.29969 | 106° | 42km/h | 5749m | 4.9m/s | -15.7°C | 54.9% | 504.0hPa | 0V | 00:00:00 | 00:00:00 | 00:00:00 | |
| ATIDSZ-14 | 2026-09-02 23:37:01 | 47.40184 | 19.29899 | 93° | 49km/h | 5725m | 5.9m/s | -15.5°C | 40.9% | 505.3hPa | 0V | 00:00:00 | 00:00:00 | 00:00:00 | |
| OM5KV | 2026-09-02 23:37:00 | 47.40184 | 19.29881 | 86° | 47km/h | 5720m | 5.5m/s | -15.5°C | 37.5% | 505.7hPa | 0V | 00:00:00 | 00:00:00 | 00:00:00 | |
| OM5KV | 2026-09-02 23:36:55 | 47.40178 | 19.29769 | 101° | 49km/h | 5694m | 7.0m/s | -15.3°C | 33.2% | 507.4hPa | 0V | 00:00:00 | 00:00:00 | 00:00:00 | |
| OM5KV | 2026-09-02 23:36:48 | 47.40203 | 19.29672 | 101° | 47km/h | 5663m | 4.6m/s | -15.0°C | 30.2% | 509.6hPa | 0V | 00:00:00 | 00:00:00 | 00:00:00 | |
| ATIDSZ-14 | 2026-09-02 23:36:41 | 47.40216 | 19.29568 | 122° | 44km/h | 5624m | 5.0m/s | -14.7°C | 25.9% | 512.1hPa | 0V | 00:00:00 | 00:00:00 | 00:00:00 | |
| OM5KV | 2026-09-02 23:36:37 | 47.40233 | 19.29501 | 100° | 53km/h | 5608m | 4.6m/s | -14.6°C | 22.3% | 513.2hPa | 0V | 00:00:00 | 00:00:00 | 00:00:00 | |
| OM5KV | 2026-09-02 23:36:35 | 47.40235 | 19.29461 | 94° | 55km/h | 5598m | 6.3m/s | -14.6°C | 20.4% | 513.8hPa | 0V | 00:00:00 | 00:00:00 | 00:00:00 | |
| OM5KV | 2026-09-02 23:36:29 | 47.40233 | 19.29351 | 93° | 42km/h | 5569m | 4.3m/s | -14.4°C | 18.8% | 515.6hPa | 0V | 00:00:00 | 00:00:00 | 00:00:00 | |
| OM5KV | 2026-09-02 23:36:24 | 47.40238 | 19.29275 | 100° | 38km/h | 5541m | 4.5m/s | -14.4°C | 29.2% | 517.5hPa | 0V | 00:00:00 | 00:00:00 | 00:00:00 | |
| ATIDSZ-14 | 2026-09-02 23:36:20 | 47.40247 | 19.29214 | 100° | 47km/h | 5524m | 5.6m/s | -14.5°C | 43.2% | 518.9hPa | 0V | 00:00:00 | 00:00:00 | 00:00:00 | |
| OM5KV | 2026-09-02 23:36:18 | 47.40251 | 19.29177 | 102° | 51km/h | 5513m | 4.8m/s | -14.4°C | 41.8% | 519.7hPa | 0V | 00:00:00 | 00:00:00 | 00:00:00 | |
| OM5KV | 2026-09-02 23:36:07 | 47.40278 | 19.28967 | 115° | 51km/h | 5464m | 5.8m/s | -14.3°C | 34.6% | 523.0hPa | 0V | 00:00:00 | 00:00:00 | 00:00:00 | |
| OM5KV | 2026-09-02 23:36:01 | 47.40304 | 19.28836 | 100° | 60km/h | 5437m | 3.6m/s | -14.1°C | 34.2% | 525.0hPa | 0V | 00:00:00 | 00:00:00 | 00:00:00 | |
| ATIDSZ-14 | 2026-09-02 23:36:00 | 47.40306 | 19.28813 | 97° | 62km/h | 5433m | 4.1m/s | -14.0°C | 33.7% | 525.2hPa | 0V | 00:00:00 | 00:00:00 | 00:00:00 | |
| OM5KV | 2026-09-02 23:35:56 | 47.40317 | 19.28720 | 108° | 69km/h | 5414m | 4.0m/s | -13.9°C | 31.5% | 526.5hPa | 0V | 00:00:00 | 00:00:00 | 00:00:00 | |
| OM5KV | 2026-09-02 23:35:50 | 47.40343 | 19.28602 | 98° | 49km/h | 5384m | 7.8m/s | -13.8°C | 41.8% | 528.6hPa | 0V | 00:00:00 | 00:00:00 | 00:00:00 | |
| ATIDSZ-14 | 2026-09-02 23:35:40 | 47.40353 | 19.28407 | 116° | 42km/h | 5342m | 5.3m/s | -13.6°C | 55.4% | 531.7hPa | 0V | 00:00:00 | 00:00:00 | 00:00:00 | |
| OM5KV | 2026-09-02 23:35:34 | 47.40392 | 19.28302 | 109° | 60km/h | 5315m | 5.5m/s | -13.5°C | 55.4% | 533.4hPa | 0V | 00:00:00 | 00:00:00 | 00:00:00 | |
| OM5KV | 2026-09-02 23:35:33 | 47.40395 | 19.28280 | 101° | 58km/h | 5309m | 6.6m/s | -13.4°C | 55.9% | 533.9hPa | 0V | 00:00:00 | 00:00:00 | 00:00:00 | |
| OM5KV | 2026-09-02 23:35:28 | 47.40406 | 19.28195 | 112° | 42km/h | 5285m | 5.8m/s | -13.3°C | 59.7% | 535.7hPa | 0V | 00:00:00 | 00:00:00 | 00:00:00 | |
| OM5KV | 2026-09-02 23:35:23 | 47.40417 | 19.28102 | 99° | 53km/h | 5254m | 7.4m/s | -13.1°C | 59.7% | 537.8hPa | 0V | 00:00:00 | 00:00:00 | 00:00:00 | |
| OM5KV | 2026-09-02 23:35:22 | 47.40420 | 19.28083 | 106° | 49km/h | 5248m | 5.6m/s | -13.0°C | 60.5% | 538.2hPa | 0V | 00:00:00 | 00:00:00 | 00:00:00 | |
| ATIDSZ-14 | 2026-09-02 23:35:19 | 47.40435 | 19.28039 | 125° | 44km/h | 5235m | 5.0m/s | -12.9°C | 61.1% | 539.2hPa | 0V | 00:00:00 | 00:00:00 | 00:00:00 | |
| OM5KV | 2026-09-02 23:35:17 | 47.40445 | 19.28009 | 111° | 44km/h | 5225m | 3.9m/s | -12.8°C | 63.6% | 539.8hPa | 0V | 00:00:00 | 00:00:00 | 00:00:00 | |
| OM5KV | 2026-09-02 23:35:12 | 47.40453 | 19.27931 | 107° | 42km/h | 5200m | 2.8m/s | -12.6°C | 64.6% | 541.6hPa | 0V | 00:00:00 | 00:00:00 | 00:00:00 | |
| OM5KV | 2026-09-02 23:35:06 | 47.40476 | 19.27824 | 98° | 60km/h | 5172m | 5.2m/s | -12.4°C | 64.8% | 543.4hPa | 0V | 00:00:00 | 00:00:00 | 00:00:00 | |
| OM5KV | 2026-09-02 23:35:05 | 47.40477 | 19.27803 | 93° | 57km/h | 5166m | 7.0m/s | -12.3°C | 64.6% | 543.8hPa | 0V | 00:00:00 | 00:00:00 | 00:00:00 | |
| OM5KV | 2026-09-02 23:34:59 | 47.40496 | 19.27706 | 123° | 51km/h | 5134m | 5.0m/s | -12.1°C | 64.3% | 546.2hPa | 0V | 00:00:00 | 00:00:00 | 00:00:00 | |
| ATIDSZ-14 | 2026-09-02 23:34:58 | 47.40504 | 19.27690 | 125° | 53km/h | 5130m | 4.1m/s | -12.0°C | 64.0% | 546.5hPa | 0V | 00:00:00 | 00:00:00 | 00:00:00 | |
| OM5KV | 2026-09-02 23:34:54 | 47.40529 | 19.27636 | 126° | 35km/h | 5109m | 6.7m/s | -11.8°C | 62.0% | 547.9hPa | 0V | 00:00:00 | 00:00:00 | 00:00:00 | |
| OM5KV | 2026-09-02 23:34:42 | 47.40579 | 19.27449 | 118° | 40km/h | 5049m | 5.6m/s | -11.4°C | 62.2% | 552.3hPa | 0V | 00:00:00 | 00:00:00 | 00:00:00 | |
| OM5KV | 2026-09-02 23:34:36 | 47.40607 | 19.27342 | 100° | 53km/h | 5018m | 7.4m/s | -11.1°C | 43.3% | 554.5hPa | 0V | 00:00:00 | 00:00:00 | 00:00:00 | |
| OM5KV | 2026-09-02 23:34:25 | 47.40646 | 19.27167 | 109° | 57km/h | 4966m | 5.2m/s | -10.7°C | 32.5% | 558.4hPa | 0V | 00:00:00 | 00:00:00 | 00:00:00 | |
| OM5KV | 2026-09-02 23:34:23 | 47.40652 | 19.27128 | 102° | 53km/h | 4957m | 4.7m/s | -10.8°C | 46.0% | 559.1hPa | 0V | 00:00:00 | 00:00:00 | 00:00:00 | |
| OM5KV | 2026-09-02 23:34:17 | 47.40664 | 19.27012 | 102° | 55km/h | 4927m | 4.9m/s | -10.9°C | 67.0% | 561.2hPa | 0V | 00:00:00 | 00:00:00 | 00:00:00 | |
| OM5KV | 2026-09-02 23:34:08 | 47.40714 | 19.26864 | 119° | 60km/h | 4880m | 3.6m/s | -10.8°C | 83.7% | 564.7hPa | 0V | 00:00:00 | 00:00:00 | 00:00:00 | |
| OM5KV | 2026-09-02 23:33:59 | 47.40749 | 19.26729 | 139° | 42km/h | 4836m | 5.3m/s | -10.5°C | 85.8% | 567.5hPa | 0V | 00:00:00 | 00:00:00 | 00:00:00 | |
| OM5KV | 2026-09-02 23:33:51 | 47.40790 | 19.26617 | 100° | 46km/h | 4800m | 5.1m/s | -10.2°C | 86.7% | 570.4hPa | 0V | 00:00:00 | 00:00:00 | 00:00:00 | |
| OM5KV | 2026-09-02 23:33:46 | 47.40806 | 19.26527 | 110° | 51km/h | 4778m | 4.9m/s | -10.1°C | 87.8% | 572.1hPa | 0V | 00:00:00 | 00:00:00 | 00:00:00 | |
| OM5KV | 2026-09-02 23:33:44 | 47.40814 | 19.26492 | 108° | 49km/h | 4768m | 5.9m/s | -9.9°C | 87.1% | 572.9hPa | 0V | 00:00:00 | 00:00:00 | 00:00:00 | |
| OM5KV | 2026-09-02 23:33:33 | 47.40865 | 19.26322 | 120° | 40km/h | 4705m | 5.8m/s | -9.3°C | 62.1% | 577.6hPa | 0V | 00:00:00 | 00:00:00 | 00:00:00 | |
| ATIDSZ-14 | 2026-09-02 23:33:30 | 47.40879 | 19.26279 | 120° | 47km/h | 4688m | 7.5m/s | -9.2°C | 60.1% | 578.6hPa | 0V | 00:00:00 | 00:00:00 | 00:00:00 | |
| OM5KV | 2026-09-02 23:33:18 | 47.40947 | 19.26077 | 117° | 55km/h | 4623m | 7.3m/s | -8.4°C | 25.9% | 583.6hPa | 0V | 00:00:00 | 00:00:00 | 00:00:00 | |
| OM5KV | 2026-09-02 23:33:15 | 47.40964 | 19.26027 | 116° | 40km/h | 4602m | 4.7m/s | -8.4°C | 21.4% | 585.2hPa | 0V | 00:00:00 | 00:00:00 | 00:00:00 | |
| ATIDSZ-14 | 2026-09-02 23:33:09 | 47.40999 | 19.25958 | 130° | 49km/h | 4568m | 5.2m/s | -8.1°C | 20.9% | 587.8hPa | 0V | 00:00:00 | 00:00:00 | 00:00:00 | |
| OM5KV | 2026-09-02 23:33:07 | 47.41016 | 19.25928 | 128° | 49km/h | 4559m | 3.5m/s | -8.0°C | 21.0% | 588.5hPa | 0V | 00:00:00 | 00:00:00 | 00:00:00 | |
| OM5KV | 2026-09-02 23:33:01 | 47.41043 | 19.25823 | 103° | 42km/h | 4527m | 3.9m/s | -7.7°C | 20.9% | 591.0hPa | 0V | 00:00:00 | 00:00:00 | 00:00:00 | |
| OM5KV | 2026-09-02 23:32:51 | 47.41080 | 19.25724 | 104° | 37km/h | 4474m | 4.5m/s | -7.3°C | 20.7% | 595.1hPa | 0V | 00:00:00 | 00:00:00 | 00:00:00 | |
| OM5KV | 2026-09-02 23:32:50 | 47.41082 | 19.25710 | 103° | 42km/h | 4470m | 5.0m/s | -7.3°C | 20.7% | 595.5hPa | 0V | 00:00:00 | 00:00:00 | 00:00:00 | |
| ATIDSZ-14 | 2026-09-02 23:32:42 | 47.41101 | 19.25608 | 126° | 31km/h | 4423m | 7.9m/s | -6.9°C | 21.0% | 598.9hPa | 0V | 00:00:00 | 00:00:00 | 00:00:00 | |
| OM5KV | 2026-09-02 23:32:39 | 47.41110 | 19.25574 | 107° | 40km/h | 4406m | 5.8m/s | -6.8°C | 21.3% | 600.3hPa | 0V | 00:00:00 | 00:00:00 | 00:00:00 | |
| OM5KV | 2026-09-02 23:32:34 | 47.41128 | 19.25490 | 102° | 44km/h | 4374m | 8.1m/s | -6.5°C | 20.9% | 602.7hPa | 0V | 00:00:00 | 00:00:00 | 00:00:00 | |
| OM5KV | 2026-09-02 23:32:33 | 47.41130 | 19.25474 | 96° | 42km/h | 4367m | 7.1m/s | -6.5°C | 20.8% | 603.2hPa | 0V | 00:00:00 | 00:00:00 | 00:00:00 | |
| OM5KV | 2026-09-02 23:32:28 | 47.41135 | 19.25399 | 111° | 46km/h | 4340m | 4.8m/s | -6.3°C | 21.4% | 605.4hPa | 0V | 00:00:00 | 00:00:00 | 00:00:00 | |
| OM5KV | 2026-09-02 23:32:27 | 47.41140 | 19.25383 | 117° | 44km/h | 4335m | 5.9m/s | -6.3°C | 21.4% | 605.7hPa | 0V | 00:00:00 | 00:00:00 | 00:00:00 | |
| ATIDSZ-14 | 2026-09-02 23:32:21 | 47.41165 | 19.25290 | 110° | 53km/h | 4296m | 5.4m/s | -6.0°C | 19.1% | 608.6hPa | 0V | 00:00:00 | 00:00:00 | 00:00:00 | |
| OM5KV | 2026-09-02 23:32:11 | 47.41227 | 19.25151 | 113° | 31km/h | 4240m | 6.8m/s | -5.7°C | 19.6% | 612.8hPa | 0V | 00:00:00 | 00:00:00 | 00:00:00 | |
| OM5KV | 2026-09-02 23:32:05 | 47.41251 | 19.25075 | 114° | 49km/h | 4209m | 5.2m/s | -5.5°C | 20.7% | 615.2hPa | 0V | 00:00:00 | 00:00:00 | 00:00:00 | |
| OM5KV | 2026-09-02 23:32:00 | 47.41263 | 19.24992 | 107° | 38km/h | 4177m | 6.0m/s | -5.2°C | 16.8% | 617.7hPa | 0V | 00:00:00 | 00:00:00 | 00:00:00 | |
| ATIDSZ-14 | 2026-09-02 23:31:58 | 47.41270 | 19.24968 | 122° | 31km/h | 4162m | 6.9m/s | -5.1°C | 14.2% | 618.9hPa | 0V | 00:00:00 | 00:00:00 | 00:00:00 | |
| OM5KV | 2026-09-02 23:31:53 | 47.41295 | 19.24902 | 116° | 55km/h | 4131m | 7.0m/s | -4.9°C | 15.5% | 621.3hPa | 0V | 00:00:00 | 00:00:00 | 00:00:00 | |
| OM5KV | 2026-09-02 23:31:52 | 47.41301 | 19.24883 | 117° | 55km/h | 4124m | 6.4m/s | -4.8°C | 15.9% | 621.9hPa | 0V | 00:00:00 | 00:00:00 | 00:00:00 | |
| OM5KV | 2026-09-02 23:31:43 | 47.41360 | 19.24772 | 115° | 33km/h | 4075m | 7.4m/s | -4.4°C | 16.6% | 626.1hPa | 0V | 00:00:00 | 00:00:00 | 00:00:00 | |
| ATIDSZ-14 | 2026-09-02 23:31:36 | 47.41388 | 19.24696 | 133° | 44km/h | 4039m | 5.1m/s | -4.2°C | 19.3% | 628.8hPa | 0V | 00:00:00 | 00:00:00 | 00:00:00 | |
| OM5KV | 2026-09-02 23:31:35 | 47.41396 | 19.24683 | 132° | 47km/h | 4033m | 7.3m/s | -4.1°C | 19.2% | 629.3hPa | 0V | 00:00:00 | 00:00:00 | 00:00:00 | |
| OM5KV | 2026-09-02 23:31:32 | 47.41416 | 19.24638 | 122° | 47km/h | 4011m | 5.4m/s | -3.9°C | 19.2% | 631.1hPa | 0V | 00:00:00 | 00:00:00 | 00:00:00 | |
| OM5KV | 2026-09-02 23:31:29 | 47.41433 | 19.24599 | 125° | 38km/h | 3990m | 5.6m/s | -3.7°C | 18.9% | 632.7hPa | 0V | 00:00:00 | 00:00:00 | 00:00:00 | |
| OM5KV | 2026-09-02 23:31:26 | 47.41444 | 19.24558 | 104° | 47km/h | 3969m | 6.2m/s | -3.5°C | 19.1% | 634.3hPa | 0V | 00:00:00 | 00:00:00 | 00:00:00 | |
| ATIDSZ-14 | 2026-09-02 23:31:15 | 47.41488 | 19.24401 | 119° | 49km/h | 3899m | 6.1m/s | -2.9°C | 18.7% | 640.0hPa | 0V | 00:00:00 | 00:00:00 | 00:00:00 | |
| OM5KV | 2026-09-02 23:31:13 | 47.41503 | 19.24371 | 129° | 51km/h | 3886m | 5.3m/s | -2.8°C | 18.1% | 641.0hPa | 0V | 00:00:00 | 00:00:00 | 00:00:00 | |
| ATIDSZ-14 | 2026-09-02 23:30:55 | 47.41582 | 19.24106 | 107° | 37km/h | 3786m | 5.5m/s | -2.1°C | 0% | 649.1hPa | 0V | 00:00:00 | 00:00:00 | 00:00:00 | |
| OM5KV | 2026-09-02 23:30:52 | 47.41599 | 19.24073 | 137° | 40km/h | 3767m | 7.0m/s | -2.0°C | 15.9% | 650.6hPa | 0V | 00:00:00 | 00:00:00 | 00:00:00 | |
| OM5KV | 2026-09-02 23:30:49 | 47.41624 | 19.24038 | 135° | 47km/h | 3751m | 4.9m/s | -1.9°C | 15.1% | 651.8hPa | 0V | 00:00:00 | 00:00:00 | 00:00:00 | |
| OM5KV | 2026-09-02 23:30:46 | 47.41659 | 19.23971 | 120° | 60km/h | 3732m | 5.2m/s | -1.8°C | 16.5% | 653.6hPa | 0V | 00:00:00 | 00:00:00 | 00:00:00 | |
| OM5KV | 2026-09-02 23:30:44 | 47.41666 | 19.23952 | 117° | 58km/h | 3726m | 5.0m/s | -1.8°C | 18.1% | 653.9hPa | 0V | 00:00:00 | 00:00:00 | 00:00:00 | |
| OM5KV | 2026-09-02 23:30:40 | 47.41689 | 19.23890 | 121° | 38km/h | 3705m | 7.0m/s | -1.6°C | 19.1% | 655.8hPa | 0V | 00:00:00 | 00:00:00 | 00:00:00 | |
| OM5KV | 2026-09-02 23:30:39 | 47.41694 | 19.23878 | 123° | 37km/h | 3698m | 8.1m/s | -1.6°C | 19.3% | 656.4hPa | 0V | 00:00:00 | 00:00:00 | 00:00:00 | |
| ATIDSZ-14 | 2026-09-02 23:30:34 | 47.41734 | 19.23807 | 127° | 58km/h | 3664m | 6.7m/s | -1.3°C | 0% | 659.2hPa | 0V | 00:00:00 | 00:00:00 | 00:00:00 | |
| OM5KV | 2026-09-02 23:30:27 | 47.41775 | 19.23688 | 123° | 37km/h | 3625m | 6.6m/s | -1.0°C | 14.7% | 662.5hPa | 0V | 00:00:00 | 00:00:00 | 00:00:00 | |
| OM5KV | 2026-09-02 23:30:23 | 47.41803 | 19.23641 | 138° | 42km/h | 3597m | 6.5m/s | -1.0°C | 19.4% | 664.8hPa | 0V | 00:00:00 | 00:00:00 | 00:00:00 | |
| OM5KV | 2026-09-02 23:30:17 | 47.41834 | 19.23548 | 103° | 47km/h | 3550m | 7.7m/s | -0.9°C | 32.2% | 668.5hPa | 0V | 00:00:00 | 00:00:00 | 00:00:00 | |
| ATIDSZ-14 | 2026-09-02 23:30:10 | 47.41858 | 19.23476 | 140° | 40km/h | 3512m | 7.7m/s | 0°C | 0% | 671.8hPa | 0V | 00:00:00 | 00:00:00 | 00:00:00 | |
| OM5KV | 2026-09-02 23:29:54 | 47.41960 | 19.23266 | 138° | 37km/h | 3423m | 6.4m/s | -0.3°C | 42.1% | 679.5hPa | 0V | 00:00:00 | 00:00:00 | 00:00:00 | |
| ATIDSZ-14 | 2026-09-02 23:29:50 | 47.41987 | 19.23232 | 138° | 35km/h | 3403m | 4.4m/s | 0°C | 0% | 681.4hPa | 0V | 00:00:00 | 00:00:00 | 00:00:00 | |
| OM5KV | 2026-09-02 23:29:44 | 47.42014 | 19.23147 | 106° | 46km/h | 3370m | 7.7m/s | 0.1°C | 33.8% | 683.9hPa | 0V | 00:00:00 | 00:00:00 | 00:00:00 | |
| OM5KV | 2026-09-02 23:29:37 | 47.42040 | 19.23069 | 133° | 44km/h | 3327m | 3.9m/s | 0.4°C | 32.8% | 687.6hPa | 0V | 00:00:00 | 00:00:00 | 00:00:00 | |
| OM5KV | 2026-09-02 23:29:34 | 47.42065 | 19.23030 | 130° | 47km/h | 3305m | 8.5m/s | 0.5°C | 34.0% | 689.4hPa | 0V | 00:00:00 | 00:00:00 | 00:00:00 | |
| ATIDSZ-14 | 2026-09-02 23:29:29 | 47.42093 | 19.22968 | 132° | 38km/h | 3270m | 7.1m/s | 0°C | 0% | 0hPa | 0V | 00:00:00 | 00:00:00 | 00:00:00 | |
| OM5KV | 2026-09-02 23:29:20 | 47.42139 | 19.22842 | 118° | 40km/h | 3221m | 7.1m/s | 1.0°C | 37.1% | 696.6hPa | 0V | 00:00:00 | 00:00:00 | 00:00:00 | |
| OM5KV | 2026-09-02 23:29:12 | 47.42174 | 19.22696 | 118° | 47km/h | 3176m | 4.5m/s | 1.3°C | 35.9% | 700.7hPa | 0V | 00:00:00 | 00:00:00 | 00:00:00 | |
| OM5KV | 2026-09-02 23:29:09 | 47.42192 | 19.22655 | 131° | 42km/h | 3161m | 4.9m/s | 1.4°C | 33.8% | 702.0hPa | 0V | 00:00:00 | 00:00:00 | 00:00:00 | |
| ATIDSZ-14 | 2026-09-02 23:29:08 | 47.42200 | 19.22643 | 133° | 42km/h | 3155m | 7.8m/s | 0°C | 0% | 0hPa | 0V | 00:00:00 | 00:00:00 | 00:00:00 | |
| OM5KV | 2026-09-02 23:28:58 | 47.42253 | 19.22509 | 113° | 49km/h | 3098m | 5.1m/s | 2.0°C | 29.7% | 707.6hPa | 0V | 00:00:00 | 00:00:00 | 00:00:00 | |
| OM5KV | 2026-09-02 23:28:54 | 47.42284 | 19.22438 | 126° | 55km/h | 3078m | 5.2m/s | 2.2°C | 29.5% | 709.3hPa | 0V | 00:00:00 | 00:00:00 | 00:00:00 | |
| OM5KV | 2026-09-02 23:28:52 | 47.42297 | 19.22406 | 119° | 46km/h | 3067m | 6.2m/s | 2.3°C | 29.0% | 710.3hPa | 0V | 00:00:00 | 00:00:00 | 00:00:00 | |
| ATIDSZ-14 | 2026-09-02 23:28:48 | 47.42316 | 19.22358 | 127° | 35km/h | 3043m | 4.5m/s | 0°C | 0% | 0hPa | 0V | 00:00:00 | 00:00:00 | 00:00:00 | |
| OM5KV | 2026-09-02 23:28:47 | 47.42321 | 19.22347 | 126° | 33km/h | 3038m | 6.2m/s | 2.5°C | 28.4% | 712.8hPa | 0V | 00:00:00 | 00:00:00 | 00:00:00 | |
| OM5KV | 2026-09-02 23:28:41 | 47.42347 | 19.22256 | 112° | 51km/h | 3004m | 7.2m/s | 2.7°C | 27.3% | 715.9hPa | 0V | 00:00:00 | 00:00:00 | 00:00:00 | |
| OM5KV | 2026-09-02 23:28:35 | 47.42370 | 19.22188 | 133° | 37km/h | 2973m | 3.1m/s | 2.6°C | 29.7% | 718.7hPa | 0V | 00:00:00 | 00:00:00 | 00:00:00 | |
| OM5KV | 2026-09-02 23:28:32 | 47.42392 | 19.22150 | 124° | 51km/h | 2961m | 5.1m/s | 2.4°C | 39.1% | 720.0hPa | 0V | 00:00:00 | 00:00:00 | 00:00:00 | |
| ATIDSZ-14 | 2026-09-02 23:28:27 | 47.42423 | 19.22074 | 126° | 38km/h | 2934m | 5.2m/s | 0°C | 0% | 0hPa | 0V | 00:00:00 | 00:00:00 | 00:00:00 | |
| OM5KV | 2026-09-02 23:28:25 | 47.42433 | 19.22051 | 116° | 35km/h | 2924m | 8.1m/s | 2.2°C | 62.0% | 723.0hPa | 0V | 00:00:00 | 00:00:00 | 00:00:00 | |
| OM5KV | 2026-09-02 23:28:19 | 47.42449 | 19.21954 | 114° | 40km/h | 2889m | 4.5m/s | 2.3°C | 70.8% | 726.2hPa | 0V | 00:00:00 | 00:00:00 | 00:00:00 | |
| ATIDSZ-14 | 2026-09-02 23:28:03 | 47.42492 | 19.21724 | 99° | 44km/h | 2798m | 3.6m/s | 0°C | 0% | 0hPa | 0V | 00:00:00 | 00:00:00 | 00:00:00 | |
| OM5KV | 2026-09-02 23:27:57 | 47.42520 | 19.21632 | 126° | 38km/h | 2773m | 4.6m/s | 3.1°C | 78.8% | 736.9hPa | 0V | 00:00:00 | 00:00:00 | 00:00:00 | |
| OM5KV | 2026-09-02 23:27:51 | 47.42549 | 19.21557 | 125° | 40km/h | 2740m | 5.7m/s | 3.3°C | 79.9% | 739.7hPa | 0V | 00:00:00 | 00:00:00 | 00:00:00 | |
| OM5KV | 2026-09-02 23:27:46 | 47.42568 | 19.21488 | 113° | 44km/h | 2712m | 5.9m/s | 3.6°C | 77.7% | 742.1hPa | 0V | 00:00:00 | 00:00:00 | 00:00:00 | |
| ATIDSZ-14 | 2026-09-02 23:27:41 | 47.42593 | 19.21432 | 105° | 27km/h | 2689m | 4.6m/s | 0°C | 0% | 0hPa | 0V | 00:00:00 | 00:00:00 | 00:00:00 | |
| ATIDSZ-14 | 2026-09-02 23:27:21 | 47.42650 | 19.21187 | 101° | 37km/h | 2590m | 6.1m/s | 0°C | 0% | 0hPa | 0V | 00:00:00 | 00:00:00 | 00:00:00 | |
| OM5KV | 2026-09-02 23:27:10 | 47.42665 | 19.21069 | 96° | 40km/h | 2530m | 4.4m/s | 5.2°C | 78.2% | 759.0hPa | 0V | 00:00:00 | 00:00:00 | 00:00:00 | |
| OM5KV | 2026-09-02 23:27:06 | 47.42671 | 19.21024 | 128° | 20km/h | 2513m | 3.9m/s | 5.4°C | 78.1% | 760.5hPa | 0V | 00:00:00 | 00:00:00 | 00:00:00 | |
| OM5KV | 2026-09-02 23:26:48 | 47.42727 | 19.20844 | 128° | 20km/h | 2417m | 5.1m/s | 6.3°C | 75.9% | 769.7hPa | 0V | 00:00:00 | 00:00:00 | 00:00:00 | |
| OM5KV | 2026-09-02 23:26:38 | 47.42749 | 19.20745 | 86° | 33km/h | 2363m | 4.1m/s | 6.8°C | 74.7% | 774.7hPa | 0V | 00:00:00 | 00:00:00 | 00:00:00 | |
| OM5KV | 2026-09-02 23:26:37 | 47.42749 | 19.20733 | 91° | 31km/h | 2358m | 7.3m/s | 6.8°C | 74.5% | 775.1hPa | 0V | 00:00:00 | 00:00:00 | 00:00:00 | |
| OM5KV | 2026-09-02 23:26:33 | 47.42762 | 19.20696 | 136° | 33km/h | 2332m | 6.0m/s | 7.1°C | 74.2% | 777.4hPa | 0V | 00:00:00 | 00:00:00 | 00:00:00 | |
| OM5KV | 2026-09-02 23:26:32 | 47.42767 | 19.20686 | 129° | 38km/h | 2327m | 4.5m/s | 7.1°C | 73.9% | 777.8hPa | 0V | 00:00:00 | 00:00:00 | 00:00:00 | |
| OM5KV | 2026-09-02 23:26:27 | 47.42781 | 19.20633 | 89° | 18km/h | 2304m | 4.4m/s | 7.3°C | 75.8% | 780.1hPa | 0V | 00:00:00 | 00:00:00 | 00:00:00 | |
| OM5KV | 2026-09-02 23:26:22 | 47.42781 | 19.20600 | 95° | 26km/h | 2279m | 5.5m/s | 7.5°C | 75.2% | 782.5hPa | 0V | 00:00:00 | 00:00:00 | 00:00:00 | |
| OM5KV | 2026-09-02 23:26:16 | 47.42781 | 19.20524 | 87° | 29km/h | 2246m | 5.5m/s | 7.8°C | 75.3% | 785.6hPa | 0V | 00:00:00 | 00:00:00 | 00:00:00 | |
| OM5KV | 2026-09-02 23:26:15 | 47.42781 | 19.20513 | 93° | 29km/h | 2241m | 5.2m/s | 7.9°C | 75.7% | 786.1hPa | 0V | 00:00:00 | 00:00:00 | 00:00:00 | |
| OM5KV | 2026-09-02 23:26:11 | 47.42790 | 19.20467 | 104° | 37km/h | 2222m | 6.6m/s | 8.0°C | 76.3% | 787.8hPa | 0V | 00:00:00 | 00:00:00 | 00:00:00 | |
| OM5KV | 2026-09-02 23:26:04 | 47.42793 | 19.20394 | 118° | 27km/h | 2183m | 5.5m/s | 8.3°C | 77.3% | 791.6hPa | 0V | 00:00:00 | 00:00:00 | 00:00:00 | |
| OM5KV | 2026-09-02 23:25:58 | 47.42815 | 19.20333 | 95° | 31km/h | 2153m | 4.5m/s | 8.4°C | 80.3% | 794.3hPa | 0V | 00:00:00 | 00:00:00 | 00:00:00 | |
| OM5KV | 2026-09-02 23:25:57 | 47.42815 | 19.20321 | 89° | 33km/h | 2148m | 4.4m/s | 8.5°C | 81.6% | 794.9hPa | 0V | 00:00:00 | 00:00:00 | 00:00:00 | |
| OM5KV | 2026-09-02 23:25:52 | 47.42822 | 19.20276 | 122° | 33km/h | 2120m | 5.5m/s | 8.7°C | 82.2% | 797.4hPa | 0V | 00:00:00 | 00:00:00 | 00:00:00 | |
| OM5KV | 2026-09-02 23:25:37 | 47.42842 | 19.20103 | 103° | 37km/h | 2046m | 4.1m/s | 9.3°C | 83.4% | 804.7hPa | 0V | 00:00:00 | 00:00:00 | 00:00:00 | |
| OM5KV | 2026-09-02 23:25:35 | 47.42846 | 19.20078 | 104° | 31km/h | 2038m | 4.3m/s | 9.4°C | 83.1% | 805.6hPa | 0V | 00:00:00 | 00:00:00 | 00:00:00 | |
| OM5KV | 2026-09-02 23:25:32 | 47.42850 | 19.20041 | 104° | 35km/h | 2021m | 7.1m/s | 9.5°C | 82.9% | 806.9hPa | 0V | 00:00:00 | 00:00:00 | 00:00:00 | |
| OM5KV | 2026-09-02 23:25:29 | 47.42859 | 19.20014 | 115° | 20km/h | 2003m | 5.0m/s | 9.7°C | 82.4% | 808.8hPa | 0V | 00:00:00 | 00:00:00 | 00:00:00 | |
| OM5KV | 2026-09-02 23:25:26 | 47.42862 | 19.19985 | 91° | 26km/h | 1982m | 4.8m/s | 9.9°C | 81.7% | 811.0hPa | 0V | 00:00:00 | 00:00:00 | 00:00:00 | |
| OM5KV | 2026-09-02 23:25:24 | 47.42862 | 19.19975 | 90° | 29km/h | 1978m | 4.5m/s | 9.9°C | 81.7% | 811.3hPa | 0V | 00:00:00 | 00:00:00 | 00:00:00 | |
| OM5KV | 2026-09-02 23:25:20 | 47.42867 | 19.19940 | 117° | 22km/h | 1952m | 3.7m/s | 10.1°C | 0% | 813.7hPa | 0V | 00:00:00 | 00:00:00 | 00:00:00 | |
| OM5KV | 2026-09-02 23:25:19 | 47.42869 | 19.19932 | 110° | 20km/h | 1947m | 7.2m/s | 10.2°C | 0% | 814.3hPa | 0V | 00:00:00 | 00:00:00 | 00:00:00 | |
| OM5KV | 2026-09-02 23:25:14 | 47.42880 | 19.19874 | 105° | 31km/h | 1919m | 6.5m/s | 10.5°C | 0% | 817.2hPa | 0V | 00:00:00 | 00:00:00 | 00:00:00 | |
| OM5KV | 2026-09-02 23:25:12 | 47.42882 | 19.19851 | 89° | 29km/h | 1909m | 5.5m/s | 10.6°C | 0% | 818.2hPa | 0V | 00:00:00 | 00:00:00 | 00:00:00 | |
| OM5KV | 2026-09-02 23:25:07 | 47.42888 | 19.19811 | 128° | 13km/h | 1880m | 5.3m/s | 0°C | 0% | 821.0hPa | 0V | 00:00:00 | 00:00:00 | 00:00:00 | |
| OM5KV | 2026-09-02 23:25:01 | 47.42893 | 19.19761 | 88° | 37km/h | 1849m | 5.6m/s | 0°C | 0% | 824.4hPa | 0V | 00:00:00 | 00:00:00 | 00:00:00 | |
| OM5KV | 2026-09-02 23:25:00 | 47.42893 | 19.19747 | 85° | 40km/h | 1843m | 5.8m/s | 0°C | 0% | 824.9hPa | 0V | 00:00:00 | 00:00:00 | 00:00:00 | |
| OM5KV | 2026-09-02 23:24:56 | 47.42895 | 19.19680 | 110° | 29km/h | 1812m | 7.6m/s | 0°C | 0% | 827.8hPa | 0V | 00:00:00 | 00:00:00 | 00:00:00 | |
| OM5KV | 2026-09-02 23:24:54 | 47.42898 | 19.19671 | 121° | 26km/h | 1806m | 4.4m/s | 0°C | 0% | 828.6hPa | 0V | 00:00:00 | 00:00:00 | 00:00:00 | |
| OM5KV | 2026-09-02 23:24:49 | 47.42903 | 19.19623 | 91° | 35km/h | 1777m | 5.6m/s | 0°C | 0% | 0hPa | 0V | 00:00:00 | 00:00:00 | 00:00:00 | |
| OM5KV | 2026-09-02 23:24:39 | 47.42892 | 19.19534 | 93° | 22km/h | 1720m | 6.6m/s | 0°C | 0% | 0hPa | 0V | 00:00:00 | 00:00:00 | 00:00:00 |